<?xml version='1.0' encoding='UTF-8'?><gpx version="1.1" creator="JPX - https://github.com/jenetics/jpx" xmlns="http://www.topografix.com/GPX/1/1"><trk><trkseg><trkpt lat="43.8649045" lon="11.2254468"><ele>437.0</ele><time>2026-04-28T13:38:16.397Z</time></trkpt><trkpt lat="43.8649621" lon="11.2253981"><ele>437.0</ele><time>2026-04-28T13:39:23.277Z</time></trkpt><trkpt lat="43.8649932" lon="11.2253123"><ele>437.0</ele><time>2026-04-28T13:39:30.274Z</time></trkpt><trkpt lat="43.8649958" lon="11.2252105"><ele>437.0</ele><time>2026-04-28T13:40:19.193Z</time></trkpt><trkpt lat="43.8650082" lon="11.2251228"><ele>437.0</ele><time>2026-04-28T13:40:24.308Z</time></trkpt><trkpt lat="43.8650538" lon="11.2250457"><ele>437.0</ele><time>2026-04-28T13:40:31.324Z</time></trkpt><trkpt lat="43.865093" lon="11.2249615"><ele>437.0</ele><time>2026-04-28T13:40:37.318Z</time></trkpt><trkpt lat="43.8651457" lon="11.2248938"><ele>436.57142857142856</ele><time>2026-04-28T13:40:44.307Z</time></trkpt><trkpt lat="43.8652063" lon="11.224862"><ele>436.14285714285717</ele><time>2026-04-28T13:40:50.321Z</time></trkpt><trkpt lat="43.8652353" lon="11.2247805"><ele>435.7142857142857</ele><time>2026-04-28T13:40:56.308Z</time></trkpt><trkpt lat="43.86529" lon="11.2247219"><ele>435.2857142857143</ele><time>2026-04-28T13:41:02.302Z</time></trkpt><trkpt lat="43.8653557" lon="11.2247078"><ele>434.8571428571429</ele><time>2026-04-28T13:41:08.31Z</time></trkpt><trkpt lat="43.8654151" lon="11.2247548"><ele>434.42857142857144</ele><time>2026-04-28T13:41:17.28Z</time></trkpt><trkpt lat="43.8654012" lon="11.2248523"><ele>434.0</ele><time>2026-04-28T13:41:23.307Z</time></trkpt><trkpt lat="43.8653544" lon="11.2249165"><ele>437.0</ele><time>2026-04-28T13:41:30.211Z</time></trkpt><trkpt lat="43.8653107" lon="11.22498"><ele>440.0</ele><time>2026-04-28T13:41:37.314Z</time></trkpt><trkpt lat="43.8653262" lon="11.2250701"><ele>443.0</ele><time>2026-04-28T13:41:43.234Z</time></trkpt><trkpt lat="43.8653898" lon="11.2250588"><ele>446.0</ele><time>2026-04-28T13:41:51.322Z</time></trkpt><trkpt lat="43.8654442" lon="11.2250033"><ele>449.0</ele><time>2026-04-28T13:41:56.285Z</time></trkpt><trkpt lat="43.8654751" lon="11.2250989"><ele>452.0</ele><time>2026-04-28T13:42:06.311Z</time></trkpt><trkpt lat="43.8654634" lon="11.2251909"><ele>455.0</ele><time>2026-04-28T13:42:12.234Z</time></trkpt><trkpt lat="43.8654365" lon="11.2253187"><ele>455.0</ele><time>2026-04-28T13:42:28.258Z</time></trkpt><trkpt lat="43.8654008" lon="11.2253989"><ele>455.0</ele><time>2026-04-28T13:42:32.315Z</time></trkpt><trkpt lat="43.8653714" lon="11.2254925"><ele>455.0</ele><time>2026-04-28T13:42:44.299Z</time></trkpt><trkpt lat="43.8653353" lon="11.2255692"><ele>455.0</ele><time>2026-04-28T13:42:53.316Z</time></trkpt><trkpt lat="43.8653363" lon="11.2256649"><ele>455.0</ele><time>2026-04-28T13:42:58.176Z</time></trkpt><trkpt lat="43.8653625" lon="11.225745"><ele>455.0</ele><time>2026-04-28T13:43:04.31Z</time></trkpt><trkpt lat="43.8654117" lon="11.2258192"><ele>455.0</ele><time>2026-04-28T13:43:11.301Z</time></trkpt><trkpt lat="43.8654487" lon="11.2259045"><ele>457.57142857142856</ele><time>2026-04-28T13:43:16.301Z</time></trkpt><trkpt lat="43.8654779" lon="11.2259849"><ele>460.1428571428571</ele><time>2026-04-28T13:43:27.295Z</time></trkpt><trkpt lat="43.8655353" lon="11.226022"><ele>462.7142857142857</ele><time>2026-04-28T13:43:34.308Z</time></trkpt><trkpt lat="43.8655822" lon="11.2260822"><ele>465.2857142857143</ele><time>2026-04-28T13:43:43.271Z</time></trkpt><trkpt lat="43.86565" lon="11.2260694"><ele>467.85714285714283</ele><time>2026-04-28T13:43:49.313Z</time></trkpt><trkpt lat="43.8657206" lon="11.2260415"><ele>470.42857142857144</ele><time>2026-04-28T13:43:55.311Z</time></trkpt><trkpt lat="43.8657836" lon="11.2260137"><ele>473.0</ele><time>2026-04-28T13:44:06.252Z</time></trkpt><trkpt lat="43.8658352" lon="11.2259524"><ele>473.0</ele><time>2026-04-28T13:44:12.261Z</time></trkpt><trkpt lat="43.865785" lon="11.2258956"><ele>473.0</ele><time>2026-04-28T13:44:21.291Z</time></trkpt><trkpt lat="43.8657143" lon="11.2259266"><ele>473.0</ele><time>2026-04-28T13:44:26.295Z</time></trkpt><trkpt lat="43.8656675" lon="11.22599"><ele>473.0</ele><time>2026-04-28T13:44:34.291Z</time></trkpt><trkpt lat="43.8656301" lon="11.2260739"><ele>473.0</ele><time>2026-04-28T13:44:40.292Z</time></trkpt><trkpt lat="43.8656683" lon="11.2261438"><ele>473.0</ele><time>2026-04-28T13:45:07.275Z</time></trkpt><trkpt lat="43.8656858" lon="11.226234"><ele>473.0</ele><time>2026-04-28T13:45:30.278Z</time></trkpt><trkpt lat="43.8656599" lon="11.2263162"><ele>473.0</ele><time>2026-04-28T13:45:42.258Z</time></trkpt><trkpt lat="43.8656527" lon="11.2264105"><ele>473.0</ele><time>2026-04-28T13:45:46.291Z</time></trkpt><trkpt lat="43.8656534" lon="11.2265129"><ele>473.0</ele><time>2026-04-28T13:45:51.293Z</time></trkpt><trkpt lat="43.8656818" lon="11.2266056"><ele>473.0</ele><time>2026-04-28T13:46:00.237Z</time></trkpt><trkpt lat="43.8657344" lon="11.2266717"><ele>473.0</ele><time>2026-04-28T13:46:05.229Z</time></trkpt><trkpt lat="43.865771" lon="11.2267561"><ele>473.0</ele><time>2026-04-28T13:46:16.251Z</time></trkpt><trkpt lat="43.8658045" lon="11.2268381"><ele>473.0</ele><time>2026-04-28T13:46:23.287Z</time></trkpt><trkpt lat="43.8658356" lon="11.2269252"><ele>472.8571428571429</ele><time>2026-04-28T13:46:29.292Z</time></trkpt><trkpt lat="43.8658826" lon="11.2269988"><ele>472.71428571428567</ele><time>2026-04-28T13:46:36.29Z</time></trkpt><trkpt lat="43.8659332" lon="11.2270708"><ele>472.57142857142856</ele><time>2026-04-28T13:46:43.281Z</time></trkpt><trkpt lat="43.8659705" lon="11.2271503"><ele>472.42857142857144</ele><time>2026-04-28T13:46:53.216Z</time></trkpt><trkpt lat="43.8659938" lon="11.2272422"><ele>472.28571428571433</ele><time>2026-04-28T13:47:05.302Z</time></trkpt><trkpt lat="43.8660217" lon="11.2273283"><ele>472.1428571428571</ele><time>2026-04-28T13:47:13.219Z</time></trkpt><trkpt lat="43.8660488" lon="11.2274169"><ele>472.0</ele><time>2026-04-28T13:47:19.302Z</time></trkpt><trkpt lat="43.866074" lon="11.2275062"><ele>479.71428571428567</ele><time>2026-04-28T13:47:25.284Z</time></trkpt><trkpt lat="43.8660638" lon="11.2275976"><ele>487.42857142857144</ele><time>2026-04-28T13:47:34.283Z</time></trkpt><trkpt lat="43.8661226" lon="11.2276537"><ele>495.1428571428571</ele><time>2026-04-28T13:47:42.277Z</time></trkpt><trkpt lat="43.8661766" lon="11.2277105"><ele>502.85714285714283</ele><time>2026-04-28T13:47:49.228Z</time></trkpt><trkpt lat="43.8662214" lon="11.2277838"><ele>510.57142857142856</ele><time>2026-04-28T13:47:55.296Z</time></trkpt><trkpt lat="43.8662569" lon="11.2278643"><ele>518.2857142857142</ele><time>2026-04-28T13:48:06.291Z</time></trkpt><trkpt lat="43.8663016" lon="11.2279349"><ele>526.0</ele><time>2026-04-28T13:48:20.252Z</time></trkpt><trkpt lat="43.8663573" lon="11.227991"><ele>526.0</ele><time>2026-04-28T13:48:27.289Z</time></trkpt><trkpt lat="43.8663723" lon="11.2280774"><ele>526.0</ele><time>2026-04-28T13:48:35.293Z</time></trkpt><trkpt lat="43.8664104" lon="11.2281478"><ele>526.0</ele><time>2026-04-28T13:48:45.296Z</time></trkpt><trkpt lat="43.8664526" lon="11.228214"><ele>526.0</ele><time>2026-04-28T13:48:54.291Z</time></trkpt><trkpt lat="43.8664924" lon="11.2282846"><ele>526.0</ele><time>2026-04-28T13:49:03.294Z</time></trkpt><trkpt lat="43.8665367" lon="11.2283551"><ele>526.0</ele><time>2026-04-28T13:49:16.29Z</time></trkpt><trkpt lat="43.8665669" lon="11.2284359"><ele>526.0</ele><time>2026-04-28T13:49:28.296Z</time></trkpt><trkpt lat="43.8665866" lon="11.2285197"><ele>525.0</ele><time>2026-04-28T13:49:38.258Z</time></trkpt><trkpt lat="43.8666483" lon="11.2285763"><ele>524.0</ele><time>2026-04-28T13:49:45.294Z</time></trkpt><trkpt lat="43.8666747" lon="11.228656"><ele>523.0</ele><time>2026-04-28T13:49:53.287Z</time></trkpt><trkpt lat="43.8667269" lon="11.228731"><ele>522.0</ele><time>2026-04-28T13:50:03.293Z</time></trkpt><trkpt lat="43.8667869" lon="11.2287725"><ele>521.0</ele><time>2026-04-28T13:50:16.295Z</time></trkpt><trkpt lat="43.8668364" lon="11.2288265"><ele>520.0</ele><time>2026-04-28T13:50:25.234Z</time></trkpt><trkpt lat="43.8668474" lon="11.2289226"><ele>519.0</ele><time>2026-04-28T13:50:32.3Z</time></trkpt><trkpt lat="43.8668223" lon="11.2290103"><ele>525.8571428571429</ele><time>2026-04-28T13:50:41.23Z</time></trkpt><trkpt lat="43.8668605" lon="11.2290916"><ele>532.7142857142857</ele><time>2026-04-28T13:50:47.294Z</time></trkpt><trkpt lat="43.8669163" lon="11.229136"><ele>539.5714285714286</ele><time>2026-04-28T13:51:13.278Z</time></trkpt><trkpt lat="43.8669714" lon="11.2291981"><ele>546.4285714285714</ele><time>2026-04-28T13:51:22.268Z</time></trkpt><trkpt lat="43.8670155" lon="11.2292639"><ele>553.2857142857142</ele><time>2026-04-28T13:51:33.269Z</time></trkpt><trkpt lat="43.8670571" lon="11.2293388"><ele>560.1428571428571</ele><time>2026-04-28T13:51:38.266Z</time></trkpt><trkpt lat="43.8671099" lon="11.2292886"><ele>567.0</ele><time>2026-04-28T13:51:52.265Z</time></trkpt><trkpt lat="43.8670784" lon="11.2292072"><ele>567.0</ele><time>2026-04-28T13:52:01.271Z</time></trkpt><trkpt lat="43.8670521" lon="11.229127"><ele>567.0</ele><time>2026-04-28T13:52:10.269Z</time></trkpt><trkpt lat="43.8670943" lon="11.2290539"><ele>567.0</ele><time>2026-04-28T13:52:18.261Z</time></trkpt><trkpt lat="43.8670861" lon="11.2289667"><ele>567.0</ele><time>2026-04-28T13:52:26.263Z</time></trkpt><trkpt lat="43.867137" lon="11.2288929"><ele>567.0</ele><time>2026-04-28T13:52:32.273Z</time></trkpt><trkpt lat="43.8671759" lon="11.2288176"><ele>567.0</ele><time>2026-04-28T13:52:39.278Z</time></trkpt><trkpt lat="43.8672135" lon="11.2287373"><ele>567.0</ele><time>2026-04-28T13:52:47.283Z</time></trkpt><trkpt lat="43.8672526" lon="11.2286598"><ele>566.8571428571429</ele><time>2026-04-28T13:52:54.275Z</time></trkpt><trkpt lat="43.8672681" lon="11.2285607"><ele>566.7142857142858</ele><time>2026-04-28T13:53:00.277Z</time></trkpt><trkpt lat="43.8672788" lon="11.2284706"><ele>566.5714285714286</ele><time>2026-04-28T13:53:07.288Z</time></trkpt><trkpt lat="43.8672786" lon="11.2283773"><ele>566.4285714285714</ele><time>2026-04-28T13:53:16.291Z</time></trkpt><trkpt lat="43.8672955" lon="11.2282778"><ele>566.2857142857143</ele><time>2026-04-28T13:53:30.195Z</time></trkpt><trkpt lat="43.8673102" lon="11.2281918"><ele>566.1428571428571</ele><time>2026-04-28T13:53:36.25Z</time></trkpt><trkpt lat="43.8673255" lon="11.2281008"><ele>566.0</ele><time>2026-04-28T13:53:43.286Z</time></trkpt><trkpt lat="43.8673601" lon="11.2280162"><ele>566.2857142857143</ele><time>2026-04-28T13:53:51.288Z</time></trkpt><trkpt lat="43.8673838" lon="11.2279274"><ele>566.5714285714287</ele><time>2026-04-28T13:53:57.289Z</time></trkpt><trkpt lat="43.8674194" lon="11.2278392"><ele>566.8571428571429</ele><time>2026-04-28T13:54:11.289Z</time></trkpt><trkpt lat="43.8674584" lon="11.2277697"><ele>567.1428571428571</ele><time>2026-04-28T13:54:17.27Z</time></trkpt><trkpt lat="43.867519" lon="11.2277345"><ele>567.4285714285713</ele><time>2026-04-28T13:54:30.305Z</time></trkpt><trkpt lat="43.8675653" lon="11.2276748"><ele>567.7142857142857</ele><time>2026-04-28T13:54:38.288Z</time></trkpt><trkpt lat="43.8675434" lon="11.2275839"><ele>568.0</ele><time>2026-04-28T13:54:59.294Z</time></trkpt><trkpt lat="43.8675337" lon="11.2274972"><ele>568.0</ele><time>2026-04-28T13:55:09.299Z</time></trkpt><trkpt lat="43.8675317" lon="11.2276006"><ele>568.0</ele><time>2026-04-28T13:56:15.235Z</time></trkpt><trkpt lat="43.8675648" lon="11.2276804"><ele>568.0</ele><time>2026-04-28T13:56:18.295Z</time></trkpt><trkpt lat="43.8676065" lon="11.2277514"><ele>568.0</ele><time>2026-04-28T13:56:27.297Z</time></trkpt><trkpt lat="43.8676712" lon="11.2277886"><ele>568.0</ele><time>2026-04-28T13:56:33.306Z</time></trkpt><trkpt lat="43.8677192" lon="11.2278687"><ele>568.0</ele><time>2026-04-28T13:56:48.303Z</time></trkpt><trkpt lat="43.8677787" lon="11.2279119"><ele>568.0</ele><time>2026-04-28T13:56:55.273Z</time></trkpt><trkpt lat="43.8678424" lon="11.2279089"><ele>570.8571428571429</ele><time>2026-04-28T13:57:03.307Z</time></trkpt><trkpt lat="43.867907" lon="11.227951"><ele>573.7142857142857</ele><time>2026-04-28T13:57:09.257Z</time></trkpt><trkpt lat="43.8679753" lon="11.227959"><ele>576.5714285714286</ele><time>2026-04-28T13:57:14.814Z</time></trkpt><trkpt lat="43.8680434" lon="11.2279742"><ele>579.4285714285714</ele><time>2026-04-28T13:57:21.302Z</time></trkpt><trkpt lat="43.868113" lon="11.227969"><ele>582.2857142857142</ele><time>2026-04-28T13:57:29.311Z</time></trkpt><trkpt lat="43.8681766" lon="11.227982"><ele>585.1428571428571</ele><time>2026-04-28T13:57:39.277Z</time></trkpt><trkpt lat="43.8682407" lon="11.2280029"><ele>588.0</ele><time>2026-04-28T13:57:47.316Z</time></trkpt><trkpt lat="43.868303" lon="11.2280289"><ele>588.0</ele><time>2026-04-28T13:57:53.32Z</time></trkpt><trkpt lat="43.8683578" lon="11.2280735"><ele>588.0</ele><time>2026-04-28T13:58:01.312Z</time></trkpt><trkpt lat="43.868421" lon="11.2280472"><ele>588.0</ele><time>2026-04-28T13:58:08.302Z</time></trkpt><trkpt lat="43.8684828" lon="11.2280182"><ele>588.0</ele><time>2026-04-28T13:58:14.295Z</time></trkpt><trkpt lat="43.8685477" lon="11.227993"><ele>588.0</ele><time>2026-04-28T13:58:19.304Z</time></trkpt><trkpt lat="43.8686172" lon="11.2280165"><ele>588.0</ele><time>2026-04-28T13:58:27.293Z</time></trkpt><trkpt lat="43.8686653" lon="11.2280762"><ele>588.0</ele><time>2026-04-28T13:58:32.302Z</time></trkpt><trkpt lat="43.8687329" lon="11.2280968"><ele>590.0</ele><time>2026-04-28T13:58:37.298Z</time></trkpt><trkpt lat="43.8687886" lon="11.2281648"><ele>592.0</ele><time>2026-04-28T13:58:43.306Z</time></trkpt><trkpt lat="43.8688198" lon="11.2282448"><ele>594.0</ele><time>2026-04-28T13:58:50.244Z</time></trkpt><trkpt lat="43.868862" lon="11.2283309"><ele>596.0</ele><time>2026-04-28T13:58:59.302Z</time></trkpt><trkpt lat="43.8689151" lon="11.2283815"><ele>598.0</ele><time>2026-04-28T13:59:04.311Z</time></trkpt><trkpt lat="43.8689759" lon="11.228422"><ele>600.0</ele><time>2026-04-28T13:59:14.3Z</time></trkpt><trkpt lat="43.8690447" lon="11.2284145"><ele>602.0</ele><time>2026-04-28T13:59:21.293Z</time></trkpt><trkpt lat="43.8691091" lon="11.2283808"><ele>602.0</ele><time>2026-04-28T13:59:26.3Z</time></trkpt><trkpt lat="43.8691803" lon="11.2283525"><ele>602.0</ele><time>2026-04-28T13:59:31.296Z</time></trkpt><trkpt lat="43.8692534" lon="11.2283427"><ele>602.0</ele><time>2026-04-28T13:59:37.23Z</time></trkpt><trkpt lat="43.8693119" lon="11.2283841"><ele>602.0</ele><time>2026-04-28T13:59:43.225Z</time></trkpt><trkpt lat="43.8693719" lon="11.228421"><ele>602.0</ele><time>2026-04-28T13:59:47.214Z</time></trkpt><trkpt lat="43.8694383" lon="11.2284391"><ele>602.0</ele><time>2026-04-28T13:59:54.301Z</time></trkpt><trkpt lat="43.8695026" lon="11.2284613"><ele>602.0</ele><time>2026-04-28T14:00:01.287Z</time></trkpt><trkpt lat="43.8695721" lon="11.2284618"><ele>602.1428571428571</ele><time>2026-04-28T14:00:08.308Z</time></trkpt><trkpt lat="43.8696434" lon="11.2284792"><ele>602.2857142857142</ele><time>2026-04-28T14:00:14.302Z</time></trkpt><trkpt lat="43.8697057" lon="11.2285027"><ele>602.4285714285714</ele><time>2026-04-28T14:00:19.312Z</time></trkpt><trkpt lat="43.8697725" lon="11.2285003"><ele>602.5714285714286</ele><time>2026-04-28T14:00:27.297Z</time></trkpt><trkpt lat="43.869831" lon="11.2284666"><ele>602.7142857142857</ele><time>2026-04-28T14:00:32.281Z</time></trkpt><trkpt lat="43.8698997" lon="11.2284588"><ele>602.8571428571429</ele><time>2026-04-28T14:00:38.3Z</time></trkpt><trkpt lat="43.8699653" lon="11.2284844"><ele>603.0</ele><time>2026-04-28T14:00:43.257Z</time></trkpt><trkpt lat="43.8700307" lon="11.2284663"><ele>603.0</ele><time>2026-04-28T14:00:50.284Z</time></trkpt><trkpt lat="43.8700949" lon="11.2284207"><ele>603.0</ele><time>2026-04-28T14:00:56.291Z</time></trkpt><trkpt lat="43.8701682" lon="11.228384"><ele>603.0</ele><time>2026-04-28T14:01:01.193Z</time></trkpt><trkpt lat="43.8702331" lon="11.2283874"><ele>603.0</ele><time>2026-04-28T14:01:07.283Z</time></trkpt><trkpt lat="43.8703064" lon="11.228388"><ele>603.0</ele><time>2026-04-28T14:01:14.301Z</time></trkpt><trkpt lat="43.8703774" lon="11.2284109"><ele>603.0</ele><time>2026-04-28T14:01:20.306Z</time></trkpt><trkpt lat="43.8704365" lon="11.2284647"><ele>603.0</ele><time>2026-04-28T14:01:26.169Z</time></trkpt><trkpt lat="43.8705024" lon="11.2284928"><ele>602.8571428571429</ele><time>2026-04-28T14:01:30.308Z</time></trkpt><trkpt lat="43.8705705" lon="11.2284932"><ele>602.7142857142857</ele><time>2026-04-28T14:01:34.308Z</time></trkpt><trkpt lat="43.8706332" lon="11.2285032"><ele>602.5714285714286</ele><time>2026-04-28T14:01:40.252Z</time></trkpt><trkpt lat="43.8706866" lon="11.2285663"><ele>602.4285714285714</ele><time>2026-04-28T14:01:47.311Z</time></trkpt><trkpt lat="43.8707527" lon="11.2286112"><ele>602.2857142857142</ele><time>2026-04-28T14:01:53.303Z</time></trkpt><trkpt lat="43.8708198" lon="11.2286359"><ele>602.1428571428571</ele><time>2026-04-28T14:01:58.306Z</time></trkpt><trkpt lat="43.8708883" lon="11.2286411"><ele>602.0</ele><time>2026-04-28T14:02:04.256Z</time></trkpt><trkpt lat="43.8709349" lon="11.2287014"><ele>601.8571428571429</ele><time>2026-04-28T14:02:09.274Z</time></trkpt><trkpt lat="43.8710035" lon="11.2287342"><ele>601.7142857142858</ele><time>2026-04-28T14:02:14.273Z</time></trkpt><trkpt lat="43.8710691" lon="11.2287493"><ele>601.5714285714286</ele><time>2026-04-28T14:02:22.276Z</time></trkpt><trkpt lat="43.8711305" lon="11.2287131"><ele>601.4285714285714</ele><time>2026-04-28T14:02:27.273Z</time></trkpt><trkpt lat="43.8711979" lon="11.228713"><ele>601.2857142857143</ele><time>2026-04-28T14:02:31.276Z</time></trkpt><trkpt lat="43.8712639" lon="11.2286706"><ele>601.1428571428571</ele><time>2026-04-28T14:02:38.268Z</time></trkpt><trkpt lat="43.8713339" lon="11.2286263"><ele>601.0</ele><time>2026-04-28T14:02:45.283Z</time></trkpt><trkpt lat="43.8713911" lon="11.2285855"><ele>601.0</ele><time>2026-04-28T14:02:53.288Z</time></trkpt><trkpt lat="43.87146" lon="11.228581"><ele>601.0</ele><time>2026-04-28T14:02:59.23Z</time></trkpt><trkpt lat="43.8715146" lon="11.2286403"><ele>601.0</ele><time>2026-04-28T14:03:08.281Z</time></trkpt><trkpt lat="43.8715783" lon="11.2286488"><ele>601.0</ele><time>2026-04-28T14:03:16.236Z</time></trkpt><trkpt lat="43.8716429" lon="11.228645"><ele>601.0</ele><time>2026-04-28T14:03:21.276Z</time></trkpt><trkpt lat="43.871712" lon="11.2286164"><ele>601.0</ele><time>2026-04-28T14:03:28.28Z</time></trkpt><trkpt lat="43.8717708" lon="11.2285759"><ele>601.0</ele><time>2026-04-28T14:03:35.284Z</time></trkpt><trkpt lat="43.8718349" lon="11.2286147"><ele>602.4285714285714</ele><time>2026-04-28T14:03:44.282Z</time></trkpt><trkpt lat="43.8719069" lon="11.2286224"><ele>603.8571428571429</ele><time>2026-04-28T14:03:50.288Z</time></trkpt><trkpt lat="43.871985" lon="11.2286193"><ele>605.2857142857143</ele><time>2026-04-28T14:03:57.291Z</time></trkpt><trkpt lat="43.872054" lon="11.2286172"><ele>606.7142857142858</ele><time>2026-04-28T14:04:02.271Z</time></trkpt><trkpt lat="43.8721242" lon="11.2285937"><ele>608.1428571428571</ele><time>2026-04-28T14:04:09.284Z</time></trkpt><trkpt lat="43.8721863" lon="11.2286281"><ele>609.5714285714287</ele><time>2026-04-28T14:04:17.303Z</time></trkpt><trkpt lat="43.8722487" lon="11.2286621"><ele>611.0</ele><time>2026-04-28T14:04:23.232Z</time></trkpt><trkpt lat="43.872314" lon="11.2286636"><ele>611.0000000000001</ele><time>2026-04-28T14:04:29.237Z</time></trkpt><trkpt lat="43.8723774" lon="11.2286337"><ele>611.0</ele><time>2026-04-28T14:04:33.301Z</time></trkpt><trkpt lat="43.8724443" lon="11.228614"><ele>611.0</ele><time>2026-04-28T14:04:38.3Z</time></trkpt><trkpt lat="43.8725105" lon="11.2286136"><ele>611.0</ele><time>2026-04-28T14:04:43.292Z</time></trkpt><trkpt lat="43.8725787" lon="11.228629"><ele>611.0</ele><time>2026-04-28T14:04:50.289Z</time></trkpt><trkpt lat="43.8726469" lon="11.2286481"><ele>611.0000000000001</ele><time>2026-04-28T14:04:57.282Z</time></trkpt><trkpt lat="43.8727159" lon="11.2286513"><ele>611.0</ele><time>2026-04-28T14:05:04.284Z</time></trkpt><trkpt lat="43.8727866" lon="11.2286503"><ele>610.1428571428572</ele><time>2026-04-28T14:05:11.273Z</time></trkpt><trkpt lat="43.8728576" lon="11.2286622"><ele>609.2857142857143</ele><time>2026-04-28T14:05:16.263Z</time></trkpt><trkpt lat="43.8729229" lon="11.2286768"><ele>608.4285714285714</ele><time>2026-04-28T14:05:22.284Z</time></trkpt><trkpt lat="43.8729904" lon="11.2286959"><ele>607.5714285714287</ele><time>2026-04-28T14:05:31.28Z</time></trkpt><trkpt lat="43.8730567" lon="11.2286985"><ele>606.7142857142858</ele><time>2026-04-28T14:05:39.293Z</time></trkpt><trkpt lat="43.8731289" lon="11.2287204"><ele>605.8571428571429</ele><time>2026-04-28T14:05:43.29Z</time></trkpt><trkpt lat="43.8731908" lon="11.2287474"><ele>605.0</ele><time>2026-04-28T14:05:47.292Z</time></trkpt><trkpt lat="43.8732583" lon="11.228774"><ele>605.0</ele><time>2026-04-28T14:05:52.283Z</time></trkpt><trkpt lat="43.8733369" lon="11.2288096"><ele>605.0</ele><time>2026-04-28T14:05:58.265Z</time></trkpt><trkpt lat="43.8734091" lon="11.2288228"><ele>605.0</ele><time>2026-04-28T14:06:03.283Z</time></trkpt><trkpt lat="43.8734749" lon="11.2287923"><ele>605.0</ele><time>2026-04-28T14:06:11.269Z</time></trkpt><trkpt lat="43.873532" lon="11.2287447"><ele>605.0</ele><time>2026-04-28T14:06:19.269Z</time></trkpt><trkpt lat="43.8736026" lon="11.2288032"><ele>605.0</ele><time>2026-04-28T14:06:27.275Z</time></trkpt><trkpt lat="43.8736693" lon="11.228817"><ele>605.0</ele><time>2026-04-28T14:06:32.261Z</time></trkpt><trkpt lat="43.8737395" lon="11.2287764"><ele>604.5714285714286</ele><time>2026-04-28T14:06:53.271Z</time></trkpt><trkpt lat="43.8738111" lon="11.2287575"><ele>604.1428571428571</ele><time>2026-04-28T14:07:01.269Z</time></trkpt><trkpt lat="43.8738819" lon="11.2287612"><ele>603.7142857142858</ele><time>2026-04-28T14:07:06.262Z</time></trkpt><trkpt lat="43.8739507" lon="11.2287915"><ele>603.2857142857142</ele><time>2026-04-28T14:07:17.278Z</time></trkpt><trkpt lat="43.8740318" lon="11.2288121"><ele>602.8571428571429</ele><time>2026-04-28T14:07:27.273Z</time></trkpt><trkpt lat="43.8740963" lon="11.228818"><ele>602.4285714285714</ele><time>2026-04-28T14:07:36.28Z</time></trkpt><trkpt lat="43.8741554" lon="11.228763"><ele>602.0</ele><time>2026-04-28T14:07:43.273Z</time></trkpt><trkpt lat="43.8742072" lon="11.2287067"><ele>602.0</ele><time>2026-04-28T14:07:50.276Z</time></trkpt><trkpt lat="43.8742709" lon="11.2287415"><ele>602.0</ele><time>2026-04-28T14:08:12.276Z</time></trkpt><trkpt lat="43.8743426" lon="11.2287437"><ele>602.0</ele><time>2026-04-28T14:08:20.264Z</time></trkpt><trkpt lat="43.8743956" lon="11.2286839"><ele>602.0</ele><time>2026-04-28T14:08:25.268Z</time></trkpt><trkpt lat="43.8744582" lon="11.2286632"><ele>602.0</ele><time>2026-04-28T14:08:32.266Z</time></trkpt><trkpt lat="43.8745268" lon="11.2286602"><ele>602.0</ele><time>2026-04-28T14:08:38.271Z</time></trkpt><trkpt lat="43.8745654" lon="11.2285728"><ele>602.0</ele><time>2026-04-28T14:08:48.275Z</time></trkpt><trkpt lat="43.8746065" lon="11.2284986"><ele>602.4285714285714</ele><time>2026-04-28T14:08:58.273Z</time></trkpt><trkpt lat="43.8746195" lon="11.2284021"><ele>602.8571428571429</ele><time>2026-04-28T14:09:05.275Z</time></trkpt><trkpt lat="43.8746849" lon="11.228395"><ele>603.2857142857142</ele><time>2026-04-28T14:09:16.27Z</time></trkpt><trkpt lat="43.8747301" lon="11.2283333"><ele>603.7142857142858</ele><time>2026-04-28T14:09:27.27Z</time></trkpt><trkpt lat="43.8747682" lon="11.2282546"><ele>604.1428571428571</ele><time>2026-04-28T14:09:39.269Z</time></trkpt><trkpt lat="43.87483" lon="11.228236"><ele>604.5714285714286</ele><time>2026-04-28T14:09:46.269Z</time></trkpt><trkpt lat="43.8748947" lon="11.2281928"><ele>605.0</ele><time>2026-04-28T14:09:54.268Z</time></trkpt><trkpt lat="43.8749428" lon="11.2281338"><ele>605.0</ele><time>2026-04-28T14:10:03.271Z</time></trkpt><trkpt lat="43.8750019" lon="11.228177"><ele>605.0</ele><time>2026-04-28T14:10:11.272Z</time></trkpt><trkpt lat="43.8750482" lon="11.2282405"><ele>605.0</ele><time>2026-04-28T14:10:23.278Z</time></trkpt><trkpt lat="43.8751157" lon="11.2282335"><ele>605.0</ele><time>2026-04-28T14:10:36.273Z</time></trkpt><trkpt lat="43.875177" lon="11.228266"><ele>605.0</ele><time>2026-04-28T14:10:42.276Z</time></trkpt><trkpt lat="43.8752386" lon="11.2282847"><ele>605.0</ele><time>2026-04-28T14:10:49.277Z</time></trkpt><trkpt lat="43.875298" lon="11.2283508"><ele>605.0</ele><time>2026-04-28T14:10:57.27Z</time></trkpt><trkpt lat="43.8753663" lon="11.2283499"><ele>607.2857142857142</ele><time>2026-04-28T14:11:05.272Z</time></trkpt><trkpt lat="43.8754267" lon="11.2283835"><ele>609.5714285714286</ele><time>2026-04-28T14:11:24.258Z</time></trkpt><trkpt lat="43.8754883" lon="11.2284021"><ele>611.8571428571429</ele><time>2026-04-28T14:11:35.221Z</time></trkpt><trkpt lat="43.8755616" lon="11.2283691"><ele>614.1428571428571</ele><time>2026-04-28T14:11:51.258Z</time></trkpt><trkpt lat="43.8756294" lon="11.2283481"><ele>616.4285714285714</ele><time>2026-04-28T14:11:58.266Z</time></trkpt><trkpt lat="43.8756972" lon="11.228374"><ele>618.7142857142857</ele><time>2026-04-28T14:12:10.262Z</time></trkpt><trkpt lat="43.8757233" lon="11.2284543"><ele>621.0</ele><time>2026-04-28T14:12:20.245Z</time></trkpt><trkpt lat="43.8757899" lon="11.2284526"><ele>620.9999999999999</ele><time>2026-04-28T14:12:28.255Z</time></trkpt><trkpt lat="43.875855" lon="11.2284408"><ele>621.0</ele><time>2026-04-28T14:12:37.259Z</time></trkpt><trkpt lat="43.8758311" lon="11.2283567"><ele>621.0</ele><time>2026-04-28T14:13:02.267Z</time></trkpt><trkpt lat="43.8757836" lon="11.2282968"><ele>621.0</ele><time>2026-04-28T14:13:50.263Z</time></trkpt><trkpt lat="43.8757639" lon="11.2283846"><ele>621.0</ele><time>2026-04-28T14:14:10.185Z</time></trkpt><trkpt lat="43.8757365" lon="11.228467"><ele>620.9999999999999</ele><time>2026-04-28T14:14:17.181Z</time></trkpt><trkpt lat="43.8757729" lon="11.2285445"><ele>621.0</ele><time>2026-04-28T14:14:25.273Z</time></trkpt><trkpt lat="43.8758197" lon="11.2286099"><ele>620.9999999999999</ele><time>2026-04-28T14:14:41.284Z</time></trkpt><trkpt lat="43.8757849" lon="11.2285269"><ele>621.0</ele><time>2026-04-28T14:15:15.254Z</time></trkpt><trkpt lat="43.875718" lon="11.2284791"><ele>621.0</ele><time>2026-04-28T14:15:20.246Z</time></trkpt><trkpt lat="43.8757198" lon="11.2285961"><ele>621.0</ele><time>2026-04-28T14:15:37.232Z</time></trkpt><trkpt lat="43.8757416" lon="11.2286882"><ele>621.0</ele><time>2026-04-28T14:15:49.252Z</time></trkpt><trkpt lat="43.8757695" lon="11.2287666"><ele>620.9999999999999</ele><time>2026-04-28T14:15:57.252Z</time></trkpt><trkpt lat="43.8758321" lon="11.2287366"><ele>621.0</ele><time>2026-04-28T14:16:07.242Z</time></trkpt><trkpt lat="43.8757227" lon="11.2287667"><ele>620.9999999999999</ele><time>2026-04-28T14:16:20.248Z</time></trkpt><trkpt lat="43.8756669" lon="11.228816"><ele>621.0</ele><time>2026-04-28T14:16:43.24Z</time></trkpt><trkpt lat="43.8756544" lon="11.228906"><ele>621.0</ele><time>2026-04-28T14:16:55.242Z</time></trkpt><trkpt lat="43.8756949" lon="11.2289799"><ele>621.0</ele><time>2026-04-28T14:17:01.245Z</time></trkpt><trkpt lat="43.875724" lon="11.2290578"><ele>621.0</ele><time>2026-04-28T14:17:06.246Z</time></trkpt><trkpt lat="43.87566" lon="11.2290695"><ele>620.9999999999999</ele><time>2026-04-28T14:17:30.237Z</time></trkpt><trkpt lat="43.8755937" lon="11.2290266"><ele>621.0</ele><time>2026-04-28T14:17:43.244Z</time></trkpt><trkpt lat="43.8755634" lon="11.2291054"><ele>624.7142857142857</ele><time>2026-04-28T14:17:49.256Z</time></trkpt><trkpt lat="43.8755124" lon="11.2291595"><ele>628.4285714285714</ele><time>2026-04-28T14:17:55.251Z</time></trkpt><trkpt lat="43.8754561" lon="11.229202"><ele>632.1428571428571</ele><time>2026-04-28T14:18:04.252Z</time></trkpt><trkpt lat="43.8753886" lon="11.2292257"><ele>635.8571428571429</ele><time>2026-04-28T14:18:14.241Z</time></trkpt><trkpt lat="43.8753243" lon="11.2292568"><ele>639.5714285714286</ele><time>2026-04-28T14:18:21.244Z</time></trkpt><trkpt lat="43.8753106" lon="11.2293427"><ele>643.2857142857142</ele><time>2026-04-28T14:18:29.254Z</time></trkpt><trkpt lat="43.8752676" lon="11.22942"><ele>647.0</ele><time>2026-04-28T14:18:38.245Z</time></trkpt><trkpt lat="43.8752183" lon="11.2294768"><ele>647.0</ele><time>2026-04-28T14:18:49.235Z</time></trkpt><trkpt lat="43.8751937" lon="11.2295635"><ele>647.0</ele><time>2026-04-28T14:18:58.229Z</time></trkpt><trkpt lat="43.8752554" lon="11.2295857"><ele>647.0</ele><time>2026-04-28T14:19:06.267Z</time></trkpt><trkpt lat="43.875375" lon="11.2296793"><ele>647.0</ele><time>2026-04-28T14:19:35.243Z</time></trkpt><trkpt lat="43.8753874" lon="11.2297721"><ele>647.0</ele><time>2026-04-28T14:20:41.224Z</time></trkpt><trkpt lat="43.8754502" lon="11.2297865"><ele>647.0</ele><time>2026-04-28T14:20:49.226Z</time></trkpt><trkpt lat="43.8755187" lon="11.2297897"><ele>651.4285714285714</ele><time>2026-04-28T14:20:57.242Z</time></trkpt><trkpt lat="43.8755813" lon="11.2298273"><ele>655.8571428571429</ele><time>2026-04-28T14:21:03.251Z</time></trkpt><trkpt lat="43.8756252" lon="11.2299003"><ele>660.2857142857142</ele><time>2026-04-28T14:21:10.226Z</time></trkpt><trkpt lat="43.8756823" lon="11.2299629"><ele>664.7142857142858</ele><time>2026-04-28T14:21:16.251Z</time></trkpt><trkpt lat="43.8757527" lon="11.2299861"><ele>669.1428571428572</ele><time>2026-04-28T14:21:24.252Z</time></trkpt><trkpt lat="43.8758203" lon="11.2300081"><ele>673.5714285714286</ele><time>2026-04-28T14:21:30.244Z</time></trkpt><trkpt lat="43.875851" lon="11.2300934"><ele>678.0</ele><time>2026-04-28T14:21:36.242Z</time></trkpt><trkpt lat="43.8758474" lon="11.2301857"><ele>678.0</ele><time>2026-04-28T14:21:52.247Z</time></trkpt><trkpt lat="43.8759072" lon="11.230218"><ele>678.0</ele><time>2026-04-28T14:22:07.251Z</time></trkpt><trkpt lat="43.8759283" lon="11.2303014"><ele>678.0</ele><time>2026-04-28T14:22:17.252Z</time></trkpt><trkpt lat="43.8760054" lon="11.2302949"><ele>678.0</ele><time>2026-04-28T14:23:48.242Z</time></trkpt><trkpt lat="43.8760175" lon="11.230385"><ele>678.0</ele><time>2026-04-28T14:24:18.25Z</time></trkpt><trkpt lat="43.8760369" lon="11.2304737"><ele>678.0</ele><time>2026-04-28T14:24:28.242Z</time></trkpt><trkpt lat="43.8760927" lon="11.2305184"><ele>678.0</ele><time>2026-04-28T14:24:36.232Z</time></trkpt><trkpt lat="43.8761258" lon="11.2305988"><ele>686.3333333333334</ele><time>2026-04-28T14:24:42.238Z</time></trkpt><trkpt lat="43.8761714" lon="11.2306713"><ele>694.6666666666666</ele><time>2026-04-28T14:24:55.244Z</time></trkpt><trkpt lat="43.8761953" lon="11.230762"><ele>703.0</ele><time>2026-04-28T14:25:05.25Z</time></trkpt><trkpt lat="43.8762664" lon="11.2307844"><ele>711.3333333333333</ele><time>2026-04-28T14:26:16.243Z</time></trkpt><trkpt lat="43.8762898" lon="11.2306911"><ele>719.6666666666666</ele><time>2026-04-28T14:26:43.235Z</time></trkpt><trkpt lat="43.8762843" lon="11.230882"><ele>728.0</ele><time>2026-04-28T14:27:54.25Z</time></trkpt><trkpt lat="43.8762931" lon="11.2309829"><ele>728.0</ele><time>2026-04-28T14:27:58.247Z</time></trkpt><trkpt lat="43.8763445" lon="11.2310348"><ele>728.0</ele><time>2026-04-28T14:28:16.246Z</time></trkpt><trkpt lat="43.8763381" lon="11.2311247"><ele>728.0</ele><time>2026-04-28T14:28:25.242Z</time></trkpt><trkpt lat="43.8764097" lon="11.2311479"><ele>728.0</ele><time>2026-04-28T14:28:44.224Z</time></trkpt><trkpt lat="43.8764914" lon="11.2311501"><ele>728.0</ele><time>2026-04-28T14:28:48.219Z</time></trkpt><trkpt lat="43.8764246" lon="11.2311309"><ele>728.0</ele><time>2026-04-28T14:29:11.242Z</time></trkpt><trkpt lat="43.8763587" lon="11.2310867"><ele>728.0</ele><time>2026-04-28T14:29:30.231Z</time></trkpt><trkpt lat="43.876305" lon="11.2310406"><ele>728.0</ele><time>2026-04-28T14:29:37.237Z</time></trkpt><trkpt lat="43.8762392" lon="11.2310535"><ele>728.0</ele><time>2026-04-28T14:29:51.24Z</time></trkpt><trkpt lat="43.8761748" lon="11.2310692"><ele>728.0</ele><time>2026-04-28T14:30:01.238Z</time></trkpt><trkpt lat="43.8760953" lon="11.2311458"><ele>728.0</ele><time>2026-04-28T14:30:25.246Z</time></trkpt><trkpt lat="43.8760595" lon="11.2312394"><ele>728.0</ele><time>2026-04-28T14:30:32.243Z</time></trkpt><trkpt lat="43.8760538" lon="11.231332"><ele>728.0</ele><time>2026-04-28T14:30:40.241Z</time></trkpt><trkpt lat="43.876069" lon="11.2314244"><ele>728.0</ele><time>2026-04-28T14:30:46.25Z</time></trkpt><trkpt lat="43.8760075" lon="11.2313962"><ele>728.0</ele><time>2026-04-28T14:31:11.246Z</time></trkpt><trkpt lat="43.8759737" lon="11.2314715"><ele>728.0</ele><time>2026-04-28T14:31:23.251Z</time></trkpt><trkpt lat="43.8759331" lon="11.2315547"><ele>728.0</ele><time>2026-04-28T14:31:30.249Z</time></trkpt><trkpt lat="43.8759437" lon="11.2316425"><ele>728.0</ele><time>2026-04-28T14:31:37.243Z</time></trkpt><trkpt lat="43.8759758" lon="11.2317309"><ele>728.0</ele><time>2026-04-28T14:32:50.243Z</time></trkpt><trkpt lat="43.8759263" lon="11.2317935"><ele>728.0</ele><time>2026-04-28T14:33:00.238Z</time></trkpt><trkpt lat="43.8758566" lon="11.2317792"><ele>728.0</ele><time>2026-04-28T14:33:12.232Z</time></trkpt><trkpt lat="43.8758103" lon="11.2318446"><ele>731.0</ele><time>2026-04-28T14:33:20.236Z</time></trkpt><trkpt lat="43.8757765" lon="11.2319245"><ele>734.0</ele><time>2026-04-28T14:33:27.235Z</time></trkpt><trkpt lat="43.8757305" lon="11.2319896"><ele>737.0</ele><time>2026-04-28T14:33:39.246Z</time></trkpt><trkpt lat="43.8757277" lon="11.2320797"><ele>740.0</ele><time>2026-04-28T14:33:49.239Z</time></trkpt><trkpt lat="43.8757482" lon="11.2321706"><ele>743.0</ele><time>2026-04-28T14:34:04.257Z</time></trkpt><trkpt lat="43.8757826" lon="11.2322489"><ele>746.0</ele><time>2026-04-28T14:34:11.238Z</time></trkpt><trkpt lat="43.8758476" lon="11.2322279"><ele>749.0</ele><time>2026-04-28T14:34:27.249Z</time></trkpt><trkpt lat="43.8758777" lon="11.2321415"><ele>749.0</ele><time>2026-04-28T14:34:45.24Z</time></trkpt><trkpt lat="43.8758745" lon="11.2322345"><ele>749.0</ele><time>2026-04-28T14:35:08.231Z</time></trkpt><trkpt lat="43.8758285" lon="11.2322953"><ele>749.0</ele><time>2026-04-28T14:35:14.239Z</time></trkpt><trkpt lat="43.8758336" lon="11.2323956"><ele>749.0</ele><time>2026-04-28T14:35:22.238Z</time></trkpt><trkpt lat="43.8758525" lon="11.2324804"><ele>749.0</ele><time>2026-04-28T14:35:42.241Z</time></trkpt><trkpt lat="43.8759121" lon="11.2325288"><ele>749.0</ele><time>2026-04-28T14:35:51.231Z</time></trkpt><trkpt lat="43.8759684" lon="11.232568"><ele>749.0</ele><time>2026-04-28T14:35:57.227Z</time></trkpt><trkpt lat="43.8760413" lon="11.232581"><ele>754.8571428571429</ele><time>2026-04-28T14:36:04.235Z</time></trkpt><trkpt lat="43.8760803" lon="11.2326734"><ele>760.7142857142858</ele><time>2026-04-28T14:36:27.244Z</time></trkpt><trkpt lat="43.8760241" lon="11.2326285"><ele>766.5714285714286</ele><time>2026-04-28T14:37:26.24Z</time></trkpt><trkpt lat="43.8760745" lon="11.2325662"><ele>772.4285714285714</ele><time>2026-04-28T14:37:33.224Z</time></trkpt><trkpt lat="43.876158" lon="11.2325756"><ele>778.2857142857143</ele><time>2026-04-28T14:37:36.224Z</time></trkpt><trkpt lat="43.8762111" lon="11.23266"><ele>784.1428571428571</ele><time>2026-04-28T14:37:39.231Z</time></trkpt><trkpt lat="43.8762641" lon="11.2327172"><ele>790.0</ele><time>2026-04-28T14:37:45.225Z</time></trkpt><trkpt lat="43.8762865" lon="11.2328013"><ele>790.0</ele><time>2026-04-28T14:37:54.237Z</time></trkpt><trkpt lat="43.8762546" lon="11.2326905"><ele>790.0</ele><time>2026-04-28T14:38:17.165Z</time></trkpt><trkpt lat="43.8761951" lon="11.2326353"><ele>790.0</ele><time>2026-04-28T14:38:22.237Z</time></trkpt><trkpt lat="43.8761662" lon="11.2327175"><ele>790.0</ele><time>2026-04-28T14:38:43.256Z</time></trkpt><trkpt lat="43.8761014" lon="11.2327124"><ele>790.0</ele><time>2026-04-28T14:38:46.24Z</time></trkpt><trkpt lat="43.8760328" lon="11.2327285"><ele>790.0</ele><time>2026-04-28T14:38:57.24Z</time></trkpt><trkpt lat="43.875962" lon="11.2327414"><ele>790.0</ele><time>2026-04-28T14:39:02.245Z</time></trkpt><trkpt lat="43.8758975" lon="11.2327236"><ele>789.5714285714286</ele><time>2026-04-28T14:39:08.24Z</time></trkpt><trkpt lat="43.8758304" lon="11.2327203"><ele>789.1428571428572</ele><time>2026-04-28T14:39:17.248Z</time></trkpt><trkpt lat="43.875755" lon="11.2327422"><ele>788.7142857142858</ele><time>2026-04-28T14:39:23.254Z</time></trkpt><trkpt lat="43.8756961" lon="11.2327752"><ele>788.2857142857142</ele><time>2026-04-28T14:39:28.241Z</time></trkpt><trkpt lat="43.8756309" lon="11.232792"><ele>787.8571428571429</ele><time>2026-04-28T14:39:33.237Z</time></trkpt><trkpt lat="43.8755718" lon="11.2328267"><ele>787.4285714285714</ele><time>2026-04-28T14:39:40.239Z</time></trkpt><trkpt lat="43.8755002" lon="11.2328384"><ele>787.0</ele><time>2026-04-28T14:39:45.22Z</time></trkpt><trkpt lat="43.8754383" lon="11.2328589"><ele>787.0</ele><time>2026-04-28T14:39:50.247Z</time></trkpt><trkpt lat="43.8753731" lon="11.2328812"><ele>787.0</ele><time>2026-04-28T14:39:56.153Z</time></trkpt><trkpt lat="43.875305" lon="11.2328817"><ele>787.0</ele><time>2026-04-28T14:40:03.251Z</time></trkpt><trkpt lat="43.8752372" lon="11.232888"><ele>787.0</ele><time>2026-04-28T14:40:16.262Z</time></trkpt><trkpt lat="43.8751775" lon="11.232925"><ele>787.0</ele><time>2026-04-28T14:40:25.251Z</time></trkpt><trkpt lat="43.8751083" lon="11.23291"><ele>787.0</ele><time>2026-04-28T14:40:31.063Z</time></trkpt><trkpt lat="43.8750374" lon="11.232926"><ele>787.0</ele><time>2026-04-28T14:40:37.253Z</time></trkpt><trkpt lat="43.8749785" lon="11.2329595"><ele>785.5714285714286</ele><time>2026-04-28T14:40:46.236Z</time></trkpt><trkpt lat="43.8749331" lon="11.2330378"><ele>784.1428571428571</ele><time>2026-04-28T14:40:52.233Z</time></trkpt><trkpt lat="43.8748734" lon="11.2330715"><ele>782.7142857142858</ele><time>2026-04-28T14:40:56.237Z</time></trkpt><trkpt lat="43.8748099" lon="11.2330715"><ele>781.2857142857142</ele><time>2026-04-28T14:41:02.185Z</time></trkpt><trkpt lat="43.8747487" lon="11.2330501"><ele>779.8571428571429</ele><time>2026-04-28T14:41:09.248Z</time></trkpt><trkpt lat="43.8746721" lon="11.2330284"><ele>778.4285714285714</ele><time>2026-04-28T14:41:14.253Z</time></trkpt><trkpt lat="43.8746059" lon="11.2329792"><ele>777.0</ele><time>2026-04-28T14:41:19.014Z</time></trkpt><trkpt lat="43.8745594" lon="11.2329118"><ele>777.0</ele><time>2026-04-28T14:41:23.187Z</time></trkpt><trkpt lat="43.8745023" lon="11.2328489"><ele>777.0</ele><time>2026-04-28T14:41:29.174Z</time></trkpt><trkpt lat="43.874443" lon="11.232813"><ele>777.0</ele><time>2026-04-28T14:41:33.252Z</time></trkpt><trkpt lat="43.8743655" lon="11.2327925"><ele>777.0</ele><time>2026-04-28T14:41:39.227Z</time></trkpt><trkpt lat="43.8742983" lon="11.2328401"><ele>777.0</ele><time>2026-04-28T14:41:44.229Z</time></trkpt><trkpt lat="43.8742421" lon="11.2328878"><ele>777.0</ele><time>2026-04-28T14:41:49.19Z</time></trkpt><trkpt lat="43.8741778" lon="11.2329023"><ele>777.0</ele><time>2026-04-28T14:41:55.234Z</time></trkpt><trkpt lat="43.8741939" lon="11.2330004"><ele>776.7142857142857</ele><time>2026-04-28T14:42:20.257Z</time></trkpt><trkpt lat="43.8742596" lon="11.2329934"><ele>776.4285714285714</ele><time>2026-04-28T14:42:33.245Z</time></trkpt><trkpt lat="43.8742482" lon="11.2328897"><ele>776.1428571428571</ele><time>2026-04-28T14:42:53.195Z</time></trkpt><trkpt lat="43.8741736" lon="11.2328532"><ele>775.8571428571429</ele><time>2026-04-28T14:42:56.234Z</time></trkpt><trkpt lat="43.8741148" lon="11.2328116"><ele>775.5714285714286</ele><time>2026-04-28T14:43:01.257Z</time></trkpt><trkpt lat="43.8740703" lon="11.2327208"><ele>775.2857142857142</ele><time>2026-04-28T14:43:02.258Z</time></trkpt><trkpt lat="43.8740265" lon="11.2326374"><ele>775.0</ele><time>2026-04-28T14:43:05.257Z</time></trkpt><trkpt lat="43.8739603" lon="11.2326012"><ele>774.9999999999999</ele><time>2026-04-28T14:43:11.252Z</time></trkpt><trkpt lat="43.8738959" lon="11.2325755"><ele>775.0</ele><time>2026-04-28T14:43:16.228Z</time></trkpt><trkpt lat="43.8738375" lon="11.2325323"><ele>775.0</ele><time>2026-04-28T14:43:21.215Z</time></trkpt><trkpt lat="43.8737737" lon="11.2325092"><ele>775.0</ele><time>2026-04-28T14:43:27.257Z</time></trkpt><trkpt lat="43.8737044" lon="11.232519"><ele>775.0</ele><time>2026-04-28T14:43:32.233Z</time></trkpt><trkpt lat="43.8736401" lon="11.2324968"><ele>774.9999999999999</ele><time>2026-04-28T14:43:38.249Z</time></trkpt><trkpt lat="43.8735674" lon="11.2324888"><ele>775.0</ele><time>2026-04-28T14:43:47.259Z</time></trkpt><trkpt lat="43.8735037" lon="11.2324375"><ele>774.9999999999999</ele><time>2026-04-28T14:43:52.253Z</time></trkpt><trkpt lat="43.8734448" lon="11.2323949"><ele>775.0</ele><time>2026-04-28T14:43:56.247Z</time></trkpt><trkpt lat="43.873376" lon="11.2323957"><ele>775.0</ele><time>2026-04-28T14:44:03.251Z</time></trkpt><trkpt lat="43.8733125" lon="11.2323827"><ele>775.0</ele><time>2026-04-28T14:44:08.25Z</time></trkpt><trkpt lat="43.8732378" lon="11.232373"><ele>775.0</ele><time>2026-04-28T14:44:14.254Z</time></trkpt><trkpt lat="43.8731764" lon="11.232339"><ele>774.9999999999999</ele><time>2026-04-28T14:44:18.252Z</time></trkpt><trkpt lat="43.8731151" lon="11.2322891"><ele>775.0</ele><time>2026-04-28T14:44:23.256Z</time></trkpt><trkpt lat="43.873044" lon="11.2323118"><ele>771.4285714285713</ele><time>2026-04-28T14:44:29.25Z</time></trkpt><trkpt lat="43.872981" lon="11.2323043"><ele>767.8571428571429</ele><time>2026-04-28T14:44:33.256Z</time></trkpt><trkpt lat="43.8729139" lon="11.2322906"><ele>764.2857142857142</ele><time>2026-04-28T14:44:39.108Z</time></trkpt><trkpt lat="43.8728514" lon="11.2322758"><ele>760.7142857142857</ele><time>2026-04-28T14:44:44.014Z</time></trkpt><trkpt lat="43.8727801" lon="11.2322719"><ele>757.1428571428571</ele><time>2026-04-28T14:44:49.259Z</time></trkpt><trkpt lat="43.8727033" lon="11.2322747"><ele>753.5714285714286</ele><time>2026-04-28T14:44:55.115Z</time></trkpt><trkpt lat="43.8726264" lon="11.2322744"><ele>750.0</ele><time>2026-04-28T14:45:00.253Z</time></trkpt><trkpt lat="43.8725615" lon="11.2323026"><ele>749.4285714285714</ele><time>2026-04-28T14:45:05.26Z</time></trkpt><trkpt lat="43.8724919" lon="11.2322883"><ele>748.8571428571428</ele><time>2026-04-28T14:45:11.258Z</time></trkpt><trkpt lat="43.8724156" lon="11.2323012"><ele>748.2857142857142</ele><time>2026-04-28T14:45:17.25Z</time></trkpt><trkpt lat="43.8723498" lon="11.2323138"><ele>747.7142857142858</ele><time>2026-04-28T14:45:21.252Z</time></trkpt><trkpt lat="43.8722823" lon="11.2323424"><ele>747.1428571428571</ele><time>2026-04-28T14:45:28.25Z</time></trkpt><trkpt lat="43.8722138" lon="11.2323302"><ele>746.5714285714286</ele><time>2026-04-28T14:45:34.172Z</time></trkpt><trkpt lat="43.8721538" lon="11.232265"><ele>746.0</ele><time>2026-04-28T14:45:39.127Z</time></trkpt><trkpt lat="43.8720883" lon="11.2322693"><ele>747.4285714285714</ele><time>2026-04-28T14:45:45.26Z</time></trkpt><trkpt lat="43.8720281" lon="11.2323128"><ele>748.8571428571429</ele><time>2026-04-28T14:45:50.257Z</time></trkpt><trkpt lat="43.8719613" lon="11.2323406"><ele>750.2857142857142</ele><time>2026-04-28T14:45:55.26Z</time></trkpt><trkpt lat="43.8718998" lon="11.2323818"><ele>751.7142857142858</ele><time>2026-04-28T14:46:01.259Z</time></trkpt><trkpt lat="43.8718316" lon="11.2323917"><ele>753.1428571428571</ele><time>2026-04-28T14:46:06.256Z</time></trkpt><trkpt lat="43.8717705" lon="11.2324206"><ele>754.5714285714286</ele><time>2026-04-28T14:46:11.25Z</time></trkpt><trkpt lat="43.8717054" lon="11.232474"><ele>756.0</ele><time>2026-04-28T14:46:16.255Z</time></trkpt><trkpt lat="43.8716341" lon="11.2324921"><ele>756.0</ele><time>2026-04-28T14:46:22.255Z</time></trkpt><trkpt lat="43.8715637" lon="11.2325213"><ele>756.0</ele><time>2026-04-28T14:46:27.261Z</time></trkpt><trkpt lat="43.8714971" lon="11.232538"><ele>756.0</ele><time>2026-04-28T14:46:34.25Z</time></trkpt><trkpt lat="43.8714361" lon="11.2325688"><ele>756.0</ele><time>2026-04-28T14:46:40.26Z</time></trkpt><trkpt lat="43.8713734" lon="11.232618"><ele>756.0</ele><time>2026-04-28T14:46:47.152Z</time></trkpt><trkpt lat="43.8713074" lon="11.2326333"><ele>756.0</ele><time>2026-04-28T14:46:53.249Z</time></trkpt><trkpt lat="43.8712382" lon="11.2326322"><ele>756.0</ele><time>2026-04-28T14:46:59.267Z</time></trkpt><trkpt lat="43.8711725" lon="11.2326464"><ele>756.0</ele><time>2026-04-28T14:47:05.236Z</time></trkpt><trkpt lat="43.8711063" lon="11.2326328"><ele>756.0</ele><time>2026-04-28T14:47:11.249Z</time></trkpt><trkpt lat="43.8710516" lon="11.2325741"><ele>756.0</ele><time>2026-04-28T14:47:16.25Z</time></trkpt><trkpt lat="43.8709788" lon="11.2325816"><ele>756.0</ele><time>2026-04-28T14:47:23.189Z</time></trkpt><trkpt lat="43.870916" lon="11.2326005"><ele>756.0</ele><time>2026-04-28T14:47:29.253Z</time></trkpt><trkpt lat="43.8708504" lon="11.232597"><ele>756.0</ele><time>2026-04-28T14:47:35.253Z</time></trkpt><trkpt lat="43.8707819" lon="11.2325645"><ele>756.0</ele><time>2026-04-28T14:47:40.263Z</time></trkpt><trkpt lat="43.870719" lon="11.2325797"><ele>753.8571428571429</ele><time>2026-04-28T14:47:45.248Z</time></trkpt><trkpt lat="43.8706676" lon="11.2326407"><ele>751.7142857142858</ele><time>2026-04-28T14:47:51.248Z</time></trkpt><trkpt lat="43.8706027" lon="11.2326487"><ele>749.5714285714286</ele><time>2026-04-28T14:47:57.179Z</time></trkpt><trkpt lat="43.8705374" lon="11.2326449"><ele>747.4285714285714</ele><time>2026-04-28T14:48:04.244Z</time></trkpt><trkpt lat="43.8704716" lon="11.2326488"><ele>745.2857142857143</ele><time>2026-04-28T14:48:10.255Z</time></trkpt><trkpt lat="43.8704117" lon="11.2326776"><ele>743.1428571428571</ele><time>2026-04-28T14:48:16.092Z</time></trkpt><trkpt lat="43.8703432" lon="11.2326705"><ele>741.0</ele><time>2026-04-28T14:48:21.177Z</time></trkpt><trkpt lat="43.8702788" lon="11.2326931"><ele>741.0</ele><time>2026-04-28T14:48:27.267Z</time></trkpt><trkpt lat="43.8702235" lon="11.2327526"><ele>741.0</ele><time>2026-04-28T14:48:34.248Z</time></trkpt><trkpt lat="43.870165" lon="11.2327905"><ele>741.0</ele><time>2026-04-28T14:48:41.266Z</time></trkpt><trkpt lat="43.8701095" lon="11.2328322"><ele>741.0</ele><time>2026-04-28T14:48:47.272Z</time></trkpt><trkpt lat="43.8700849" lon="11.2329173"><ele>741.0</ele><time>2026-04-28T14:48:52.175Z</time></trkpt><trkpt lat="43.8700489" lon="11.2329947"><ele>741.0</ele><time>2026-04-28T14:48:58.271Z</time></trkpt><trkpt lat="43.8700408" lon="11.2331622"><ele>739.2857142857142</ele><time>2026-04-28T14:49:45.261Z</time></trkpt><trkpt lat="43.8700471" lon="11.2332503"><ele>737.5714285714287</ele><time>2026-04-28T14:49:50.256Z</time></trkpt><trkpt lat="43.8700917" lon="11.2333385"><ele>735.8571428571429</ele><time>2026-04-28T14:50:12.257Z</time></trkpt><trkpt lat="43.8701134" lon="11.2334289"><ele>734.1428571428571</ele><time>2026-04-28T14:50:33.26Z</time></trkpt><trkpt lat="43.8701721" lon="11.2334798"><ele>732.4285714285713</ele><time>2026-04-28T14:50:46.253Z</time></trkpt><trkpt lat="43.870185" lon="11.2335672"><ele>730.7142857142858</ele><time>2026-04-28T14:51:00.256Z</time></trkpt><trkpt lat="43.8701485" lon="11.2336429"><ele>729.0</ele><time>2026-04-28T14:51:09.252Z</time></trkpt><trkpt lat="43.8701431" lon="11.2337306"><ele>734.0</ele><time>2026-04-28T14:51:18.25Z</time></trkpt><trkpt lat="43.8701886" lon="11.2337913"><ele>739.0</ele><time>2026-04-28T14:51:27.25Z</time></trkpt><trkpt lat="43.8702477" lon="11.2338303"><ele>744.0</ele><time>2026-04-28T14:51:39.231Z</time></trkpt><trkpt lat="43.8703008" lon="11.233899"><ele>749.0</ele><time>2026-04-28T14:51:43.233Z</time></trkpt><trkpt lat="43.8703268" lon="11.2339959"><ele>754.0</ele><time>2026-04-28T14:51:50.228Z</time></trkpt><trkpt lat="43.8702864" lon="11.2340881"><ele>759.0</ele><time>2026-04-28T14:51:57.249Z</time></trkpt><trkpt lat="43.8702686" lon="11.2341796"><ele>764.0</ele><time>2026-04-28T14:52:03.245Z</time></trkpt><trkpt lat="43.8702959" lon="11.2342595"><ele>766.8571428571429</ele><time>2026-04-28T14:52:15.256Z</time></trkpt><trkpt lat="43.8702998" lon="11.2343487"><ele>769.7142857142857</ele><time>2026-04-28T14:52:27.256Z</time></trkpt><trkpt lat="43.8703132" lon="11.2344347"><ele>772.5714285714286</ele><time>2026-04-28T14:52:37.256Z</time></trkpt><trkpt lat="43.8703591" lon="11.2343673"><ele>775.4285714285714</ele><time>2026-04-28T14:52:59.256Z</time></trkpt><trkpt lat="43.8704214" lon="11.2343303"><ele>778.2857142857142</ele><time>2026-04-28T14:53:16.234Z</time></trkpt><trkpt lat="43.8704559" lon="11.2344229"><ele>781.1428571428571</ele><time>2026-04-28T14:53:18.239Z</time></trkpt><trkpt lat="43.8704399" lon="11.2345146"><ele>784.0</ele><time>2026-04-28T14:53:22.239Z</time></trkpt><trkpt lat="43.8703825" lon="11.2345629"><ele>784.0</ele><time>2026-04-28T14:53:45.243Z</time></trkpt><trkpt lat="43.8703765" lon="11.2346517"><ele>784.0</ele><time>2026-04-28T14:53:51.247Z</time></trkpt><trkpt lat="43.8703824" lon="11.2347411"><ele>784.0</ele><time>2026-04-28T14:53:59.239Z</time></trkpt><trkpt lat="43.8704371" lon="11.2347923"><ele>784.0</ele><time>2026-04-28T14:54:07.239Z</time></trkpt><trkpt lat="43.8705036" lon="11.2348075"><ele>784.0</ele><time>2026-04-28T14:54:14.222Z</time></trkpt><trkpt lat="43.87055" lon="11.2347386"><ele>784.0</ele><time>2026-04-28T14:54:22.227Z</time></trkpt><trkpt lat="43.8705814" lon="11.2346526"><ele>784.0</ele><time>2026-04-28T14:54:31.196Z</time></trkpt><trkpt lat="43.8706378" lon="11.2345966"><ele>784.0</ele><time>2026-04-28T14:54:46.239Z</time></trkpt><trkpt lat="43.8706758" lon="11.234517"><ele>784.0</ele><time>2026-04-28T14:54:57.245Z</time></trkpt><trkpt lat="43.8707158" lon="11.2345974"><ele>784.0</ele><time>2026-04-28T14:55:09.174Z</time></trkpt><trkpt lat="43.8707023" lon="11.2346842"><ele>784.0</ele><time>2026-04-28T14:55:16.241Z</time></trkpt><trkpt lat="43.8707234" lon="11.2347738"><ele>784.0</ele><time>2026-04-28T14:55:27.248Z</time></trkpt><trkpt lat="43.8707344" lon="11.234862"><ele>784.0</ele><time>2026-04-28T14:55:36.246Z</time></trkpt><trkpt lat="43.8707906" lon="11.2349155"><ele>784.0</ele><time>2026-04-28T14:55:43.248Z</time></trkpt><trkpt lat="43.8708363" lon="11.2349959"><ele>784.1428571428571</ele><time>2026-04-28T14:55:55.246Z</time></trkpt><trkpt lat="43.8708798" lon="11.2350695"><ele>784.2857142857142</ele><time>2026-04-28T14:56:04.24Z</time></trkpt><trkpt lat="43.8709447" lon="11.2350572"><ele>784.4285714285714</ele><time>2026-04-28T14:56:12.248Z</time></trkpt><trkpt lat="43.8710088" lon="11.2350306"><ele>784.5714285714286</ele><time>2026-04-28T14:56:21.254Z</time></trkpt><trkpt lat="43.8709703" lon="11.2349578"><ele>784.7142857142857</ele><time>2026-04-28T14:56:33.268Z</time></trkpt><trkpt lat="43.871024" lon="11.2350166"><ele>784.8571428571429</ele><time>2026-04-28T14:57:24.283Z</time></trkpt><trkpt lat="43.8710454" lon="11.2351047"><ele>785.0</ele><time>2026-04-28T14:57:29.27Z</time></trkpt><trkpt lat="43.8710984" lon="11.2351664"><ele>791.1428571428572</ele><time>2026-04-28T14:57:37.271Z</time></trkpt><trkpt lat="43.8711489" lon="11.2352201"><ele>797.2857142857142</ele><time>2026-04-28T14:57:52.243Z</time></trkpt><trkpt lat="43.8711954" lon="11.235288"><ele>803.4285714285714</ele><time>2026-04-28T14:58:15.263Z</time></trkpt><trkpt lat="43.8712516" lon="11.2353333"><ele>809.5714285714287</ele><time>2026-04-28T14:58:26.278Z</time></trkpt><trkpt lat="43.8713132" lon="11.2352957"><ele>815.7142857142858</ele><time>2026-04-28T14:58:30.251Z</time></trkpt><trkpt lat="43.8713451" lon="11.2353713"><ele>821.8571428571429</ele><time>2026-04-28T14:58:42.26Z</time></trkpt><trkpt lat="43.8713961" lon="11.2354297"><ele>828.0</ele><time>2026-04-28T14:58:51.255Z</time></trkpt><trkpt lat="43.8714564" lon="11.2354616"><ele>828.0000000000001</ele><time>2026-04-28T14:59:01.17Z</time></trkpt><trkpt lat="43.8714457" lon="11.2353627"><ele>828.0</ele><time>2026-04-28T14:59:41.251Z</time></trkpt><trkpt lat="43.8714492" lon="11.23545"><ele>828.0</ele><time>2026-04-28T15:00:19.238Z</time></trkpt><trkpt lat="43.8714892" lon="11.2353823"><ele>828.0</ele><time>2026-04-28T15:00:50.253Z</time></trkpt><trkpt lat="43.8714957" lon="11.2354842"><ele>828.0</ele><time>2026-04-28T15:01:18.245Z</time></trkpt><trkpt lat="43.8715413" lon="11.2355463"><ele>828.0000000000001</ele><time>2026-04-28T15:01:24.237Z</time></trkpt><trkpt lat="43.8716031" lon="11.2355258"><ele>828.0</ele><time>2026-04-28T15:01:30.233Z</time></trkpt><trkpt lat="43.8716035" lon="11.2356194"><ele>829.2857142857143</ele><time>2026-04-28T15:01:41.241Z</time></trkpt><trkpt lat="43.8716357" lon="11.2357016"><ele>830.5714285714286</ele><time>2026-04-28T15:01:54.228Z</time></trkpt><trkpt lat="43.8716974" lon="11.2357441"><ele>831.8571428571429</ele><time>2026-04-28T15:02:09.231Z</time></trkpt><trkpt lat="43.8717308" lon="11.235826"><ele>833.1428571428571</ele><time>2026-04-28T15:02:20.251Z</time></trkpt><trkpt lat="43.8717984" lon="11.2358304"><ele>834.4285714285714</ele><time>2026-04-28T15:02:32.221Z</time></trkpt><trkpt lat="43.8718519" lon="11.2358797"><ele>835.7142857142858</ele><time>2026-04-28T15:02:41.174Z</time></trkpt><trkpt lat="43.8718088" lon="11.2359455"><ele>837.0</ele><time>2026-04-28T15:02:50.245Z</time></trkpt><trkpt lat="43.8718192" lon="11.2360326"><ele>841.7142857142858</ele><time>2026-04-28T15:02:59.173Z</time></trkpt><trkpt lat="43.871899" lon="11.2360691"><ele>846.4285714285714</ele><time>2026-04-28T15:03:14.258Z</time></trkpt><trkpt lat="43.8719564" lon="11.2361404"><ele>851.1428571428571</ele><time>2026-04-28T15:03:46.245Z</time></trkpt><trkpt lat="43.8719835" lon="11.23622"><ele>855.8571428571429</ele><time>2026-04-28T15:03:56.246Z</time></trkpt><trkpt lat="43.872028" lon="11.2362941"><ele>860.5714285714286</ele><time>2026-04-28T15:04:09.25Z</time></trkpt><trkpt lat="43.8720549" lon="11.2363878"><ele>865.2857142857143</ele><time>2026-04-28T15:04:20.242Z</time></trkpt><trkpt lat="43.8721142" lon="11.2364378"><ele>870.0</ele><time>2026-04-28T15:04:30.224Z</time></trkpt><trkpt lat="43.8721741" lon="11.236468"><ele>871.4285714285714</ele><time>2026-04-28T15:04:38.228Z</time></trkpt><trkpt lat="43.8722414" lon="11.2364736"><ele>872.8571428571429</ele><time>2026-04-28T15:04:56.229Z</time></trkpt><trkpt lat="43.8722383" lon="11.2365613"><ele>874.2857142857142</ele><time>2026-04-28T15:05:09.235Z</time></trkpt><trkpt lat="43.8722664" lon="11.2366447"><ele>875.7142857142858</ele><time>2026-04-28T15:05:19.239Z</time></trkpt><trkpt lat="43.8722898" lon="11.2367387"><ele>877.1428571428571</ele><time>2026-04-28T15:05:28.223Z</time></trkpt><trkpt lat="43.8723431" lon="11.2367888"><ele>878.5714285714286</ele><time>2026-04-28T15:05:37.174Z</time></trkpt><trkpt lat="43.8723995" lon="11.2368565"><ele>880.0</ele><time>2026-04-28T15:05:49.224Z</time></trkpt><trkpt lat="43.8724639" lon="11.2368622"><ele>879.9999999999999</ele><time>2026-04-28T15:05:56.236Z</time></trkpt><trkpt lat="43.8724873" lon="11.2369513"><ele>880.0</ele><time>2026-04-28T15:06:07.236Z</time></trkpt><trkpt lat="43.8724888" lon="11.2370473"><ele>880.0</ele><time>2026-04-28T15:06:16.22Z</time></trkpt><trkpt lat="43.8725432" lon="11.2371089"><ele>880.0</ele><time>2026-04-28T15:06:26.237Z</time></trkpt><trkpt lat="43.8726064" lon="11.237106"><ele>880.0</ele><time>2026-04-28T15:06:34.214Z</time></trkpt><trkpt lat="43.8726715" lon="11.2371187"><ele>879.9999999999999</ele><time>2026-04-28T15:06:45.172Z</time></trkpt><trkpt lat="43.8727368" lon="11.2371065"><ele>880.0</ele><time>2026-04-28T15:06:51.178Z</time></trkpt><trkpt lat="43.8728085" lon="11.237121"><ele>883.7142857142857</ele><time>2026-04-28T15:07:08.234Z</time></trkpt><trkpt lat="43.872874" lon="11.2371062"><ele>887.4285714285713</ele><time>2026-04-28T15:07:17.154Z</time></trkpt><trkpt lat="43.8729266" lon="11.2371641"><ele>891.1428571428571</ele><time>2026-04-28T15:07:25.234Z</time></trkpt><trkpt lat="43.8729614" lon="11.2372527"><ele>894.8571428571428</ele><time>2026-04-28T15:07:34.233Z</time></trkpt><trkpt lat="43.8730058" lon="11.2373213"><ele>898.5714285714286</ele><time>2026-04-28T15:07:41.239Z</time></trkpt><trkpt lat="43.8730687" lon="11.2373437"><ele>902.2857142857141</ele><time>2026-04-28T15:07:49.22Z</time></trkpt><trkpt lat="43.8730893" lon="11.2374296"><ele>905.9999999999999</ele><time>2026-04-28T15:07:57.235Z</time></trkpt><trkpt lat="43.8731524" lon="11.2374321"><ele>906.8571428571427</ele><time>2026-04-28T15:08:04.227Z</time></trkpt><trkpt lat="43.8732104" lon="11.237479"><ele>907.7142857142857</ele><time>2026-04-28T15:08:16.229Z</time></trkpt><trkpt lat="43.8732583" lon="11.2375407"><ele>908.5714285714284</ele><time>2026-04-28T15:08:23.204Z</time></trkpt><trkpt lat="43.8733145" lon="11.2375804"><ele>909.4285714285713</ele><time>2026-04-28T15:08:34.21Z</time></trkpt><trkpt lat="43.8733704" lon="11.2376226"><ele>910.2857142857142</ele><time>2026-04-28T15:08:43.22Z</time></trkpt><trkpt lat="43.873432" lon="11.2375877"><ele>911.1428571428571</ele><time>2026-04-28T15:08:50.238Z</time></trkpt><trkpt lat="43.873497" lon="11.2375443"><ele>912.0</ele><time>2026-04-28T15:08:56.222Z</time></trkpt><trkpt lat="43.8735526" lon="11.2374833"><ele>912.5714285714286</ele><time>2026-04-28T15:09:01.232Z</time></trkpt><trkpt lat="43.8736103" lon="11.2375186"><ele>913.1428571428571</ele><time>2026-04-28T15:09:11.231Z</time></trkpt><trkpt lat="43.8736627" lon="11.2375742"><ele>913.7142857142857</ele><time>2026-04-28T15:09:20.235Z</time></trkpt><trkpt lat="43.8736153" lon="11.2376455"><ele>914.2857142857142</ele><time>2026-04-28T15:09:36.226Z</time></trkpt><trkpt lat="43.8735741" lon="11.2375531"><ele>914.8571428571429</ele><time>2026-04-28T15:09:44.244Z</time></trkpt><trkpt lat="43.8736043" lon="11.2374752"><ele>915.4285714285713</ele><time>2026-04-28T15:10:24.237Z</time></trkpt><trkpt lat="43.8736404" lon="11.2375679"><ele>916.0</ele><time>2026-04-28T15:12:00.24Z</time></trkpt><trkpt lat="43.873704" lon="11.2375836"><ele>916.0</ele><time>2026-04-28T15:28:56.23Z</time></trkpt><trkpt lat="43.8737714" lon="11.2375641"><ele>916.0</ele><time>2026-04-28T15:29:01.241Z</time></trkpt><trkpt lat="43.8738391" lon="11.2375545"><ele>916.0</ele><time>2026-04-28T15:29:08.236Z</time></trkpt><trkpt lat="43.8739034" lon="11.2375706"><ele>916.0</ele><time>2026-04-28T15:29:14.235Z</time></trkpt><trkpt lat="43.8739776" lon="11.237561"><ele>916.0</ele><time>2026-04-28T15:29:20.24Z</time></trkpt><trkpt lat="43.8740419" lon="11.2375494"><ele>916.0</ele><time>2026-04-28T15:29:25.239Z</time></trkpt><trkpt lat="43.8741005" lon="11.2375157"><ele>916.0</ele><time>2026-04-28T15:29:31.242Z</time></trkpt><trkpt lat="43.8741676" lon="11.2375121"><ele>916.0</ele><time>2026-04-28T15:29:38.242Z</time></trkpt><trkpt lat="43.874236" lon="11.237499"><ele>916.0</ele><time>2026-04-28T15:29:48.245Z</time></trkpt><trkpt lat="43.8742994" lon="11.2374626"><ele>916.0</ele><time>2026-04-28T15:29:54.199Z</time></trkpt><trkpt lat="43.8743659" lon="11.2374504"><ele>916.0</ele><time>2026-04-28T15:30:00.24Z</time></trkpt><trkpt lat="43.8744324" lon="11.2374148"><ele>916.0</ele><time>2026-04-28T15:30:08.237Z</time></trkpt><trkpt lat="43.8744941" lon="11.2373659"><ele>916.0</ele><time>2026-04-28T15:30:17.236Z</time></trkpt><trkpt lat="43.8745399" lon="11.2373034"><ele>916.0</ele><time>2026-04-28T15:30:21.239Z</time></trkpt><trkpt lat="43.8746007" lon="11.2372676"><ele>915.0</ele><time>2026-04-28T15:30:27.246Z</time></trkpt><trkpt lat="43.874666" lon="11.2372708"><ele>914.0</ele><time>2026-04-28T15:30:36.137Z</time></trkpt><trkpt lat="43.8747312" lon="11.2372869"><ele>913.0</ele><time>2026-04-28T15:30:42.241Z</time></trkpt><trkpt lat="43.8747991" lon="11.2372796"><ele>912.0</ele><time>2026-04-28T15:30:49.23Z</time></trkpt><trkpt lat="43.8748532" lon="11.2373257"><ele>911.0</ele><time>2026-04-28T15:30:56.237Z</time></trkpt><trkpt lat="43.8749119" lon="11.2372648"><ele>910.0</ele><time>2026-04-28T15:31:01.232Z</time></trkpt><trkpt lat="43.8749776" lon="11.2372104"><ele>909.0</ele><time>2026-04-28T15:31:06.178Z</time></trkpt><trkpt lat="43.8750456" lon="11.2371501"><ele>907.7142857142857</ele><time>2026-04-28T15:31:10.226Z</time></trkpt><trkpt lat="43.8751076" lon="11.2371054"><ele>906.4285714285716</ele><time>2026-04-28T15:31:15.225Z</time></trkpt><trkpt lat="43.8751804" lon="11.2370892"><ele>905.1428571428572</ele><time>2026-04-28T15:31:22.24Z</time></trkpt><trkpt lat="43.8752429" lon="11.2371029"><ele>903.8571428571429</ele><time>2026-04-28T15:31:28.234Z</time></trkpt><trkpt lat="43.8753116" lon="11.2371067"><ele>902.5714285714287</ele><time>2026-04-28T15:31:36.077Z</time></trkpt><trkpt lat="43.8753799" lon="11.2370655"><ele>901.2857142857144</ele><time>2026-04-28T15:31:41.228Z</time></trkpt><trkpt lat="43.8754439" lon="11.2370133"><ele>900.0000000000001</ele><time>2026-04-28T15:31:46.231Z</time></trkpt><trkpt lat="43.875507" lon="11.2369662"><ele>900.0000000000001</ele><time>2026-04-28T15:31:54.229Z</time></trkpt><trkpt lat="43.8755798" lon="11.236973"><ele>900.0</ele><time>2026-04-28T15:32:01.226Z</time></trkpt><trkpt lat="43.8756467" lon="11.236968"><ele>900.0000000000001</ele><time>2026-04-28T15:32:06.227Z</time></trkpt><trkpt lat="43.8757079" lon="11.236939"><ele>900.0000000000001</ele><time>2026-04-28T15:32:10.23Z</time></trkpt><trkpt lat="43.8757684" lon="11.2369126"><ele>900.0</ele><time>2026-04-28T15:32:15.242Z</time></trkpt><trkpt lat="43.8758259" lon="11.2368638"><ele>900.0000000000001</ele><time>2026-04-28T15:32:21.24Z</time></trkpt><trkpt lat="43.8758763" lon="11.2368037"><ele>900.0000000000001</ele><time>2026-04-28T15:32:25.228Z</time></trkpt><trkpt lat="43.8759411" lon="11.2367522"><ele>897.857142857143</ele><time>2026-04-28T15:32:29.899Z</time></trkpt><trkpt lat="43.8759881" lon="11.2366821"><ele>895.7142857142858</ele><time>2026-04-28T15:32:35.224Z</time></trkpt><trkpt lat="43.876054" lon="11.236671"><ele>893.5714285714287</ele><time>2026-04-28T15:32:43.226Z</time></trkpt><trkpt lat="43.8761103" lon="11.2367107"><ele>891.4285714285716</ele><time>2026-04-28T15:32:49.223Z</time></trkpt><trkpt lat="43.8761774" lon="11.2367317"><ele>889.2857142857142</ele><time>2026-04-28T15:32:57.222Z</time></trkpt><trkpt lat="43.8762422" lon="11.2367658"><ele>887.1428571428571</ele><time>2026-04-28T15:33:57.215Z</time></trkpt><trkpt lat="43.8763164" lon="11.2367573"><ele>885.0</ele><time>2026-04-28T15:34:02.22Z</time></trkpt><trkpt lat="43.8763759" lon="11.2367147"><ele>885.0</ele><time>2026-04-28T15:34:06.192Z</time></trkpt><trkpt lat="43.8764279" lon="11.2366624"><ele>885.0</ele><time>2026-04-28T15:34:14.151Z</time></trkpt><trkpt lat="43.8764896" lon="11.2366353"><ele>885.0</ele><time>2026-04-28T15:34:21.216Z</time></trkpt><trkpt lat="43.8765549" lon="11.2366225"><ele>885.0</ele><time>2026-04-28T15:34:30.221Z</time></trkpt><trkpt lat="43.8766041" lon="11.2365532"><ele>885.0</ele><time>2026-04-28T15:34:37.214Z</time></trkpt><trkpt lat="43.8766576" lon="11.2364929"><ele>885.0</ele><time>2026-04-28T15:34:42.218Z</time></trkpt><trkpt lat="43.8767022" lon="11.2364148"><ele>885.0</ele><time>2026-04-28T15:34:47.226Z</time></trkpt><trkpt lat="43.8767665" lon="11.2363573"><ele>884.1428571428571</ele><time>2026-04-28T15:34:52.233Z</time></trkpt><trkpt lat="43.876814" lon="11.2362914"><ele>883.2857142857142</ele><time>2026-04-28T15:34:57.237Z</time></trkpt><trkpt lat="43.8768713" lon="11.2362379"><ele>882.4285714285714</ele><time>2026-04-28T15:35:04.228Z</time></trkpt><trkpt lat="43.8769103" lon="11.2361586"><ele>881.5714285714286</ele><time>2026-04-28T15:35:08.225Z</time></trkpt><trkpt lat="43.876966" lon="11.2360978"><ele>880.7142857142858</ele><time>2026-04-28T15:35:14.22Z</time></trkpt><trkpt lat="43.8770249" lon="11.2360529"><ele>879.8571428571429</ele><time>2026-04-28T15:35:19.221Z</time></trkpt><trkpt lat="43.877089" lon="11.2360065"><ele>879.0</ele><time>2026-04-28T15:35:24.224Z</time></trkpt><trkpt lat="43.8771598" lon="11.2359729"><ele>879.0</ele><time>2026-04-28T15:35:30.135Z</time></trkpt><trkpt lat="43.8772146" lon="11.2359035"><ele>879.0</ele><time>2026-04-28T15:35:35.212Z</time></trkpt><trkpt lat="43.8772798" lon="11.2358424"><ele>879.0</ele><time>2026-04-28T15:35:41.215Z</time></trkpt><trkpt lat="43.8773419" lon="11.2358156"><ele>879.0</ele><time>2026-04-28T15:35:47.173Z</time></trkpt><trkpt lat="43.8773996" lon="11.2357608"><ele>879.0</ele><time>2026-04-28T15:35:53.223Z</time></trkpt><trkpt lat="43.8774501" lon="11.2357059"><ele>879.0</ele><time>2026-04-28T15:35:59.22Z</time></trkpt><trkpt lat="43.8775092" lon="11.2356455"><ele>879.0</ele><time>2026-04-28T15:36:05.226Z</time></trkpt><trkpt lat="43.8775514" lon="11.2355663"><ele>879.1428571428571</ele><time>2026-04-28T15:36:10.226Z</time></trkpt><trkpt lat="43.877616" lon="11.2355235"><ele>879.2857142857143</ele><time>2026-04-28T15:36:14.235Z</time></trkpt><trkpt lat="43.8776921" lon="11.2355003"><ele>879.4285714285713</ele><time>2026-04-28T15:36:19.233Z</time></trkpt><trkpt lat="43.8777555" lon="11.2354864"><ele>879.5714285714286</ele><time>2026-04-28T15:36:25.232Z</time></trkpt><trkpt lat="43.8778096" lon="11.2354369"><ele>879.7142857142857</ele><time>2026-04-28T15:36:30.226Z</time></trkpt><trkpt lat="43.877873" lon="11.2354105"><ele>879.8571428571428</ele><time>2026-04-28T15:36:37.213Z</time></trkpt><trkpt lat="43.8779492" lon="11.2354158"><ele>880.0</ele><time>2026-04-28T15:36:41.209Z</time></trkpt><trkpt lat="43.8780215" lon="11.2353961"><ele>879.9999999999999</ele><time>2026-04-28T15:36:46.22Z</time></trkpt><trkpt lat="43.8780887" lon="11.2354145"><ele>880.0</ele><time>2026-04-28T15:36:53.223Z</time></trkpt><trkpt lat="43.8781578" lon="11.2354331"><ele>880.0</ele><time>2026-04-28T15:36:58.223Z</time></trkpt><trkpt lat="43.8782255" lon="11.2353998"><ele>880.0</ele><time>2026-04-28T15:37:04.215Z</time></trkpt><trkpt lat="43.878268" lon="11.2354685"><ele>880.0</ele><time>2026-04-28T15:37:07.224Z</time></trkpt><trkpt lat="43.8783324" lon="11.2354748"><ele>879.9999999999999</ele><time>2026-04-28T15:37:12.22Z</time></trkpt><trkpt lat="43.8784002" lon="11.2354303"><ele>880.0</ele><time>2026-04-28T15:37:18.111Z</time></trkpt><trkpt lat="43.8784502" lon="11.235374"><ele>880.5714285714286</ele><time>2026-04-28T15:37:24.218Z</time></trkpt><trkpt lat="43.8785156" lon="11.2353835"><ele>881.1428571428571</ele><time>2026-04-28T15:37:32.214Z</time></trkpt><trkpt lat="43.8785776" lon="11.2353576"><ele>881.7142857142858</ele><time>2026-04-28T15:37:43.206Z</time></trkpt><trkpt lat="43.8786242" lon="11.2352914"><ele>882.2857142857142</ele><time>2026-04-28T15:37:52.22Z</time></trkpt><trkpt lat="43.8786694" lon="11.2352224"><ele>882.8571428571429</ele><time>2026-04-28T15:37:58.209Z</time></trkpt><trkpt lat="43.8787339" lon="11.2352047"><ele>883.4285714285714</ele><time>2026-04-28T15:38:07.118Z</time></trkpt><trkpt lat="43.8787875" lon="11.2351542"><ele>884.0</ele><time>2026-04-28T15:38:18.213Z</time></trkpt><trkpt lat="43.878809" lon="11.2350652"><ele>884.0000000000001</ele><time>2026-04-28T15:38:24.209Z</time></trkpt><trkpt lat="43.878856" lon="11.2349996"><ele>884.0</ele><time>2026-04-28T15:38:33.193Z</time></trkpt><trkpt lat="43.8789232" lon="11.234957"><ele>884.0</ele><time>2026-04-28T15:38:40.217Z</time></trkpt><trkpt lat="43.8789742" lon="11.2350091"><ele>884.0</ele><time>2026-04-28T15:38:48.223Z</time></trkpt><trkpt lat="43.8790406" lon="11.2350156"><ele>884.0</ele><time>2026-04-28T15:38:57.214Z</time></trkpt><trkpt lat="43.8790917" lon="11.2349588"><ele>884.0000000000001</ele><time>2026-04-28T15:39:02.215Z</time></trkpt><trkpt lat="43.8791287" lon="11.2348725"><ele>884.0</ele><time>2026-04-28T15:39:07.221Z</time></trkpt><trkpt lat="43.8791688" lon="11.2347995"><ele>884.0000000000001</ele><time>2026-04-28T15:39:12.222Z</time></trkpt><trkpt lat="43.879102" lon="11.2347849"><ele>884.0</ele><time>2026-04-28T15:40:18.226Z</time></trkpt><trkpt lat="43.8790569" lon="11.2348515"><ele>884.0</ele><time>2026-04-28T15:40:24.225Z</time></trkpt><trkpt lat="43.8790587" lon="11.2349407"><ele>884.0</ele><time>2026-04-28T15:42:59.214Z</time></trkpt><trkpt lat="43.8790954" lon="11.2348594"><ele>884.0</ele><time>2026-04-28T15:43:37.213Z</time></trkpt><trkpt lat="43.8791348" lon="11.2347764"><ele>884.0000000000001</ele><time>2026-04-28T15:44:34.218Z</time></trkpt><trkpt lat="43.879184" lon="11.2347104"><ele>884.0</ele><time>2026-04-28T15:44:39.217Z</time></trkpt><trkpt lat="43.8792366" lon="11.2346597"><ele>884.8571428571429</ele><time>2026-04-28T15:44:45.218Z</time></trkpt><trkpt lat="43.8793017" lon="11.2346286"><ele>885.7142857142858</ele><time>2026-04-28T15:44:52.174Z</time></trkpt><trkpt lat="43.8793341" lon="11.2345519"><ele>886.5714285714287</ele><time>2026-04-28T15:44:59.207Z</time></trkpt><trkpt lat="43.8792666" lon="11.2345541"><ele>887.4285714285714</ele><time>2026-04-28T15:45:05.203Z</time></trkpt><trkpt lat="43.8792596" lon="11.2344646"><ele>888.2857142857142</ele><time>2026-04-28T15:45:12.212Z</time></trkpt><trkpt lat="43.8793198" lon="11.2344054"><ele>889.1428571428572</ele><time>2026-04-28T15:45:17.201Z</time></trkpt><trkpt lat="43.8793804" lon="11.2343807"><ele>890.0</ele><time>2026-04-28T15:45:21.207Z</time></trkpt><trkpt lat="43.879457" lon="11.2343821"><ele>887.2857142857143</ele><time>2026-04-28T15:45:26.209Z</time></trkpt><trkpt lat="43.8795223" lon="11.2343713"><ele>884.5714285714286</ele><time>2026-04-28T15:45:30.2Z</time></trkpt><trkpt lat="43.879589" lon="11.2343344"><ele>881.8571428571429</ele><time>2026-04-28T15:45:34.207Z</time></trkpt><trkpt lat="43.8796152" lon="11.2342478"><ele>879.1428571428571</ele><time>2026-04-28T15:45:48.202Z</time></trkpt><trkpt lat="43.8795933" lon="11.2341497"><ele>876.4285714285713</ele><time>2026-04-28T15:45:54.197Z</time></trkpt><trkpt lat="43.8796004" lon="11.2340577"><ele>873.7142857142857</ele><time>2026-04-28T15:46:03.201Z</time></trkpt><trkpt lat="43.879634" lon="11.2341363"><ele>871.0</ele><time>2026-04-28T15:46:12.219Z</time></trkpt><trkpt lat="43.8796929" lon="11.2341046"><ele>871.0</ele><time>2026-04-28T15:46:18.196Z</time></trkpt><trkpt lat="43.8797297" lon="11.2340332"><ele>871.0</ele><time>2026-04-28T15:46:24.113Z</time></trkpt><trkpt lat="43.8797684" lon="11.2339495"><ele>871.0</ele><time>2026-04-28T15:46:29.206Z</time></trkpt><trkpt lat="43.879796" lon="11.2338543"><ele>871.0</ele><time>2026-04-28T15:46:38.208Z</time></trkpt><trkpt lat="43.879831" lon="11.2337662"><ele>871.0</ele><time>2026-04-28T15:46:47.115Z</time></trkpt><trkpt lat="43.8798172" lon="11.2336797"><ele>871.0</ele><time>2026-04-28T15:46:54.195Z</time></trkpt><trkpt lat="43.8798552" lon="11.233602"><ele>871.0</ele><time>2026-04-28T15:47:01.119Z</time></trkpt><trkpt lat="43.8799148" lon="11.2335666"><ele>871.2857142857142</ele><time>2026-04-28T15:47:05.197Z</time></trkpt><trkpt lat="43.8799782" lon="11.2335152"><ele>871.5714285714286</ele><time>2026-04-28T15:47:10.179Z</time></trkpt><trkpt lat="43.880042" lon="11.23354"><ele>871.8571428571429</ele><time>2026-04-28T15:47:15.112Z</time></trkpt><trkpt lat="43.8800675" lon="11.2334536"><ele>872.1428571428571</ele><time>2026-04-28T15:47:20.097Z</time></trkpt><trkpt lat="43.8800806" lon="11.2333636"><ele>872.4285714285714</ele><time>2026-04-28T15:47:25.22Z</time></trkpt><trkpt lat="43.8801219" lon="11.2332909"><ele>872.7142857142857</ele><time>2026-04-28T15:47:32.16Z</time></trkpt><trkpt lat="43.8801539" lon="11.2332064"><ele>873.0</ele><time>2026-04-28T15:47:39.175Z</time></trkpt><trkpt lat="43.8801898" lon="11.2331249"><ele>875.4285714285713</ele><time>2026-04-28T15:47:43.216Z</time></trkpt><trkpt lat="43.8802104" lon="11.2330373"><ele>877.8571428571429</ele><time>2026-04-28T15:47:49.229Z</time></trkpt><trkpt lat="43.8802513" lon="11.2329586"><ele>880.2857142857142</ele><time>2026-04-28T15:47:53.18Z</time></trkpt><trkpt lat="43.880279" lon="11.2328795"><ele>882.7142857142857</ele><time>2026-04-28T15:48:02.194Z</time></trkpt><trkpt lat="43.8802958" lon="11.2327907"><ele>885.1428571428571</ele><time>2026-04-28T15:48:10.199Z</time></trkpt><trkpt lat="43.8803634" lon="11.2327691"><ele>887.5714285714286</ele><time>2026-04-28T15:48:25.208Z</time></trkpt><trkpt lat="43.8804269" lon="11.232767"><ele>890.0</ele><time>2026-04-28T15:49:00.212Z</time></trkpt><trkpt lat="43.8804751" lon="11.2326951"><ele>890.0</ele><time>2026-04-28T15:49:04.209Z</time></trkpt><trkpt lat="43.8805322" lon="11.23265"><ele>890.0</ele><time>2026-04-28T15:49:13.21Z</time></trkpt><trkpt lat="43.8806109" lon="11.2326267"><ele>890.0</ele><time>2026-04-28T15:49:35.213Z</time></trkpt><trkpt lat="43.8806818" lon="11.2326203"><ele>890.0</ele><time>2026-04-28T15:49:43.21Z</time></trkpt><trkpt lat="43.880712" lon="11.2325415"><ele>890.0</ele><time>2026-04-28T15:49:55.213Z</time></trkpt><trkpt lat="43.8807591" lon="11.2324674"><ele>890.0</ele><time>2026-04-28T15:50:02.214Z</time></trkpt><trkpt lat="43.8808204" lon="11.2324934"><ele>890.0</ele><time>2026-04-28T15:50:16.219Z</time></trkpt><trkpt lat="43.8808542" lon="11.2324024"><ele>890.0</ele><time>2026-04-28T15:50:25.208Z</time></trkpt><trkpt lat="43.8808973" lon="11.2323293"><ele>890.0</ele><time>2026-04-28T15:50:33.116Z</time></trkpt><trkpt lat="43.880964" lon="11.2322832"><ele>890.0</ele><time>2026-04-28T15:50:37.02Z</time></trkpt><trkpt lat="43.8810312" lon="11.2323064"><ele>890.0</ele><time>2026-04-28T15:50:44.211Z</time></trkpt><trkpt lat="43.8810752" lon="11.2323698"><ele>890.0</ele><time>2026-04-28T15:50:51.134Z</time></trkpt><trkpt lat="43.881141" lon="11.2323445"><ele>890.0</ele><time>2026-04-28T15:51:30.216Z</time></trkpt><trkpt lat="43.881203" lon="11.2323282"><ele>890.0</ele><time>2026-04-28T15:51:34.223Z</time></trkpt><trkpt lat="43.881268" lon="11.2323214"><ele>892.8571428571429</ele><time>2026-04-28T15:51:42.22Z</time></trkpt><trkpt lat="43.8813341" lon="11.2323419"><ele>895.7142857142857</ele><time>2026-04-28T15:51:49.225Z</time></trkpt><trkpt lat="43.881394" lon="11.232301"><ele>898.5714285714286</ele><time>2026-04-28T15:52:04.21Z</time></trkpt><trkpt lat="43.8814491" lon="11.2322289"><ele>901.4285714285714</ele><time>2026-04-28T15:52:13.209Z</time></trkpt><trkpt lat="43.8815269" lon="11.232242"><ele>904.2857142857142</ele><time>2026-04-28T15:52:23.216Z</time></trkpt><trkpt lat="43.8815891" lon="11.232211"><ele>907.1428571428571</ele><time>2026-04-28T15:52:52.22Z</time></trkpt><trkpt lat="43.8816474" lon="11.232251"><ele>910.0</ele><time>2026-04-28T15:53:02.131Z</time></trkpt><trkpt lat="43.8816938" lon="11.2321834"><ele>911.5714285714286</ele><time>2026-04-28T15:53:10.209Z</time></trkpt><trkpt lat="43.8817274" lon="11.2321047"><ele>913.1428571428571</ele><time>2026-04-28T15:53:17.213Z</time></trkpt><trkpt lat="43.8817923" lon="11.2321211"><ele>914.7142857142858</ele><time>2026-04-28T15:53:25.214Z</time></trkpt><trkpt lat="43.8818346" lon="11.2320292"><ele>916.2857142857143</ele><time>2026-04-28T15:53:35.221Z</time></trkpt><trkpt lat="43.8818488" lon="11.2319345"><ele>917.8571428571429</ele><time>2026-04-28T15:53:41.224Z</time></trkpt><trkpt lat="43.8818938" lon="11.2318728"><ele>919.4285714285716</ele><time>2026-04-28T15:53:47.22Z</time></trkpt><trkpt lat="43.8819241" lon="11.231795"><ele>921.0000000000001</ele><time>2026-04-28T15:53:54.151Z</time></trkpt><trkpt lat="43.8819299" lon="11.2317034"><ele>921.5</ele><time>2026-04-28T15:54:00.215Z</time></trkpt><trkpt lat="43.8820013" lon="11.2316752"><ele>922.0</ele><time>2026-04-28T15:54:07.219Z</time></trkpt><trkpt lat="43.8819735" lon="11.2315893"><ele>922.5</ele><time>2026-04-28T15:54:22.225Z</time></trkpt><trkpt lat="43.8820325" lon="11.2316433"><ele>923.0</ele><time>2026-04-28T15:55:25.242Z</time></trkpt><trkpt lat="43.881971" lon="11.2316164"><ele>923.5</ele><time>2026-04-28T15:56:24.252Z</time></trkpt><trkpt lat="43.8820694" lon="11.2316408"><ele>924.0</ele><time>2026-04-28T15:59:50.256Z</time></trkpt><trkpt lat="43.8820593" lon="11.2317413"><ele>924.0</ele><time>2026-04-28T15:59:56.259Z</time></trkpt><trkpt lat="43.8821038" lon="11.2316579"><ele>924.0</ele><time>2026-04-28T16:01:08.248Z</time></trkpt><trkpt lat="43.8821723" lon="11.2316319"><ele>924.0</ele><time>2026-04-28T16:01:13.232Z</time></trkpt><trkpt lat="43.8821095" lon="11.2316257"><ele>924.0</ele><time>2026-04-28T16:05:59.208Z</time></trkpt><trkpt lat="43.8820434" lon="11.2316013"><ele>924.0</ele><time>2026-04-28T16:06:05.26Z</time></trkpt><trkpt lat="43.8819782" lon="11.2316088"><ele>924.0</ele><time>2026-04-28T16:06:10.257Z</time></trkpt><trkpt lat="43.8819194" lon="11.2315497"><ele>924.0</ele><time>2026-04-28T16:06:17.268Z</time></trkpt><trkpt lat="43.8819267" lon="11.2314555"><ele>923.8571428571429</ele><time>2026-04-28T16:06:23.264Z</time></trkpt><trkpt lat="43.8819739" lon="11.2313795"><ele>923.7142857142858</ele><time>2026-04-28T16:06:28.261Z</time></trkpt><trkpt lat="43.8819337" lon="11.2313075"><ele>923.5714285714286</ele><time>2026-04-28T16:06:36.256Z</time></trkpt><trkpt lat="43.8819671" lon="11.2312285"><ele>923.4285714285714</ele><time>2026-04-28T16:06:44.261Z</time></trkpt><trkpt lat="43.8819337" lon="11.2311459"><ele>923.2857142857143</ele><time>2026-04-28T16:06:56.258Z</time></trkpt><trkpt lat="43.8818856" lon="11.2310778"><ele>923.1428571428571</ele><time>2026-04-28T16:07:02.266Z</time></trkpt><trkpt lat="43.8818941" lon="11.2309882"><ele>923.0</ele><time>2026-04-28T16:07:14.263Z</time></trkpt><trkpt lat="43.8818823" lon="11.2308948"><ele>923.0</ele><time>2026-04-28T16:07:24.255Z</time></trkpt><trkpt lat="43.8818618" lon="11.2308067"><ele>923.0</ele><time>2026-04-28T16:07:31.256Z</time></trkpt><trkpt lat="43.8818105" lon="11.2307496"><ele>923.0</ele><time>2026-04-28T16:07:38.259Z</time></trkpt><trkpt lat="43.8818383" lon="11.2306617"><ele>923.0</ele><time>2026-04-28T16:07:50.259Z</time></trkpt><trkpt lat="43.8818009" lon="11.2305836"><ele>923.0</ele><time>2026-04-28T16:08:02.268Z</time></trkpt><trkpt lat="43.8817838" lon="11.2304914"><ele>923.0</ele><time>2026-04-28T16:08:10.273Z</time></trkpt><trkpt lat="43.8817399" lon="11.2304183"><ele>923.0</ele><time>2026-04-28T16:08:19.269Z</time></trkpt><trkpt lat="43.8817474" lon="11.2303197"><ele>918.0</ele><time>2026-04-28T16:08:40.264Z</time></trkpt><trkpt lat="43.8817237" lon="11.2302368"><ele>913.0</ele><time>2026-04-28T16:08:49.219Z</time></trkpt><trkpt lat="43.8816746" lon="11.2301767"><ele>908.0</ele><time>2026-04-28T16:08:56.273Z</time></trkpt><trkpt lat="43.8816727" lon="11.2300889"><ele>903.0</ele><time>2026-04-28T16:09:08.262Z</time></trkpt><trkpt lat="43.8816328" lon="11.230013"><ele>898.0</ele><time>2026-04-28T16:09:20.256Z</time></trkpt><trkpt lat="43.8816076" lon="11.2299326"><ele>893.0</ele><time>2026-04-28T16:09:35.249Z</time></trkpt><trkpt lat="43.8815567" lon="11.2298794"><ele>888.0</ele><time>2026-04-28T16:09:43.249Z</time></trkpt><trkpt lat="43.8815157" lon="11.2298113"><ele>885.4285714285714</ele><time>2026-04-28T16:09:53.267Z</time></trkpt><trkpt lat="43.8814838" lon="11.229723"><ele>882.8571428571429</ele><time>2026-04-28T16:10:07.266Z</time></trkpt><trkpt lat="43.8814664" lon="11.2296312"><ele>880.2857142857143</ele><time>2026-04-28T16:10:19.269Z</time></trkpt><trkpt lat="43.8814365" lon="11.2295466"><ele>877.7142857142858</ele><time>2026-04-28T16:10:28.183Z</time></trkpt><trkpt lat="43.8814191" lon="11.2294504"><ele>875.1428571428571</ele><time>2026-04-28T16:10:39.261Z</time></trkpt><trkpt lat="43.8813999" lon="11.2293615"><ele>872.5714285714287</ele><time>2026-04-28T16:10:47.261Z</time></trkpt><trkpt lat="43.8814048" lon="11.229272"><ele>870.0</ele><time>2026-04-28T16:10:54.263Z</time></trkpt><trkpt lat="43.8814401" lon="11.2291911"><ele>870.0000000000001</ele><time>2026-04-28T16:11:13.269Z</time></trkpt><trkpt lat="43.8814168" lon="11.2290963"><ele>870.0</ele><time>2026-04-28T16:11:22.284Z</time></trkpt><trkpt lat="43.8813798" lon="11.2290141"><ele>870.0</ele><time>2026-04-28T16:11:29.273Z</time></trkpt><trkpt lat="43.8813587" lon="11.2289301"><ele>870.0</ele><time>2026-04-28T16:11:34.269Z</time></trkpt><trkpt lat="43.8813453" lon="11.2288401"><ele>870.0</ele><time>2026-04-28T16:11:43.265Z</time></trkpt><trkpt lat="43.8813062" lon="11.2287672"><ele>870.0000000000001</ele><time>2026-04-28T16:11:53.261Z</time></trkpt><trkpt lat="43.8812968" lon="11.2286804"><ele>870.0</ele><time>2026-04-28T16:12:08.261Z</time></trkpt><trkpt lat="43.8812698" lon="11.2285875"><ele>867.0000000000001</ele><time>2026-04-28T16:12:16.25Z</time></trkpt><trkpt lat="43.8812755" lon="11.2285002"><ele>864.0</ele><time>2026-04-28T16:12:21.256Z</time></trkpt><trkpt lat="43.8812517" lon="11.2284115"><ele>861.0</ele><time>2026-04-28T16:12:27.189Z</time></trkpt><trkpt lat="43.8812285" lon="11.2283269"><ele>858.0</ele><time>2026-04-28T16:12:42.267Z</time></trkpt><trkpt lat="43.8812078" lon="11.2282429"><ele>855.0</ele><time>2026-04-28T16:12:51.275Z</time></trkpt><trkpt lat="43.8811886" lon="11.228159"><ele>852.0000000000001</ele><time>2026-04-28T16:13:01.222Z</time></trkpt><trkpt lat="43.8811297" lon="11.2281143"><ele>849.0</ele><time>2026-04-28T16:13:11.262Z</time></trkpt><trkpt lat="43.8811094" lon="11.2280223"><ele>844.7142857142858</ele><time>2026-04-28T16:13:17.254Z</time></trkpt><trkpt lat="43.8811006" lon="11.22793"><ele>840.4285714285714</ele><time>2026-04-28T16:13:27.262Z</time></trkpt><trkpt lat="43.8810807" lon="11.2278444"><ele>836.1428571428571</ele><time>2026-04-28T16:13:41.245Z</time></trkpt><trkpt lat="43.8810493" lon="11.2277683"><ele>831.8571428571429</ele><time>2026-04-28T16:13:47.253Z</time></trkpt><trkpt lat="43.8810452" lon="11.2276723"><ele>827.5714285714286</ele><time>2026-04-28T16:13:55.247Z</time></trkpt><trkpt lat="43.8810478" lon="11.2275841"><ele>823.2857142857143</ele><time>2026-04-28T16:14:02.251Z</time></trkpt><trkpt lat="43.8809987" lon="11.227529"><ele>819.0</ele><time>2026-04-28T16:14:10.249Z</time></trkpt><trkpt lat="43.8809375" lon="11.2275002"><ele>819.0</ele><time>2026-04-28T16:14:14.257Z</time></trkpt><trkpt lat="43.8809349" lon="11.2274098"><ele>819.0</ele><time>2026-04-28T16:14:29.25Z</time></trkpt><trkpt lat="43.8809046" lon="11.2273172"><ele>819.0</ele><time>2026-04-28T16:14:39.24Z</time></trkpt><trkpt lat="43.8808889" lon="11.2272248"><ele>819.0</ele><time>2026-04-28T16:14:49.26Z</time></trkpt><trkpt lat="43.8808852" lon="11.2271374"><ele>819.0</ele><time>2026-04-28T16:15:05.247Z</time></trkpt><trkpt lat="43.8808749" lon="11.2270468"><ele>819.0</ele><time>2026-04-28T16:15:22.229Z</time></trkpt><trkpt lat="43.8808509" lon="11.22696"><ele>819.0</ele><time>2026-04-28T16:15:33.254Z</time></trkpt><trkpt lat="43.8808405" lon="11.2268679"><ele>817.5714285714286</ele><time>2026-04-28T16:15:40.256Z</time></trkpt><trkpt lat="43.8808371" lon="11.2267771"><ele>816.1428571428571</ele><time>2026-04-28T16:15:51.26Z</time></trkpt><trkpt lat="43.8807991" lon="11.2266928"><ele>814.7142857142858</ele><time>2026-04-28T16:15:59.263Z</time></trkpt><trkpt lat="43.8807624" lon="11.2266127"><ele>813.2857142857142</ele><time>2026-04-28T16:16:06.161Z</time></trkpt><trkpt lat="43.880755" lon="11.2265154"><ele>811.8571428571429</ele><time>2026-04-28T16:16:14.253Z</time></trkpt><trkpt lat="43.8807504" lon="11.2264256"><ele>810.4285714285714</ele><time>2026-04-28T16:16:22.227Z</time></trkpt><trkpt lat="43.8807214" lon="11.2263403"><ele>809.0</ele><time>2026-04-28T16:16:31.257Z</time></trkpt><trkpt lat="43.8806817" lon="11.2262692"><ele>806.5714285714286</ele><time>2026-04-28T16:16:44.286Z</time></trkpt><trkpt lat="43.8806267" lon="11.2262219"><ele>804.1428571428571</ele><time>2026-04-28T16:16:52.228Z</time></trkpt><trkpt lat="43.8805728" lon="11.2261539"><ele>801.7142857142858</ele><time>2026-04-28T16:17:06.216Z</time></trkpt><trkpt lat="43.8805579" lon="11.2260614"><ele>799.2857142857142</ele><time>2026-04-28T16:17:10.242Z</time></trkpt><trkpt lat="43.8805374" lon="11.2259678"><ele>796.8571428571428</ele><time>2026-04-28T16:17:20.248Z</time></trkpt><trkpt lat="43.8805029" lon="11.2258938"><ele>794.4285714285714</ele><time>2026-04-28T16:17:27.251Z</time></trkpt><trkpt lat="43.8804976" lon="11.225804"><ele>792.0</ele><time>2026-04-28T16:17:33.231Z</time></trkpt><trkpt lat="43.880476" lon="11.2257179"><ele>792.0</ele><time>2026-04-28T16:17:42.257Z</time></trkpt><trkpt lat="43.8804219" lon="11.2256606"><ele>792.0</ele><time>2026-04-28T16:17:46.23Z</time></trkpt><trkpt lat="43.8803675" lon="11.2256143"><ele>792.0</ele><time>2026-04-28T16:17:50.256Z</time></trkpt><trkpt lat="43.8803062" lon="11.2255715"><ele>792.0</ele><time>2026-04-28T16:17:56.253Z</time></trkpt><trkpt lat="43.8802512" lon="11.2255254"><ele>792.0</ele><time>2026-04-28T16:18:04.26Z</time></trkpt><trkpt lat="43.8801892" lon="11.2254701"><ele>792.0</ele><time>2026-04-28T16:18:08.261Z</time></trkpt><trkpt lat="43.8801536" lon="11.2253906"><ele>792.0</ele><time>2026-04-28T16:18:16.254Z</time></trkpt><trkpt lat="43.8801047" lon="11.2253292"><ele>789.2857142857143</ele><time>2026-04-28T16:18:26.232Z</time></trkpt><trkpt lat="43.8800529" lon="11.2252586"><ele>786.5714285714286</ele><time>2026-04-28T16:18:33.256Z</time></trkpt><trkpt lat="43.880009" lon="11.2251936"><ele>783.8571428571429</ele><time>2026-04-28T16:18:38.254Z</time></trkpt><trkpt lat="43.8799662" lon="11.2251219"><ele>781.1428571428571</ele><time>2026-04-28T16:18:46.252Z</time></trkpt><trkpt lat="43.8799105" lon="11.2250702"><ele>778.4285714285713</ele><time>2026-04-28T16:18:55.226Z</time></trkpt><trkpt lat="43.8798407" lon="11.225038"><ele>775.7142857142857</ele><time>2026-04-28T16:19:00.253Z</time></trkpt><trkpt lat="43.879789" lon="11.2249818"><ele>773.0</ele><time>2026-04-28T16:19:06.246Z</time></trkpt><trkpt lat="43.8798065" lon="11.2248868"><ele>773.0</ele><time>2026-04-28T16:19:16.188Z</time></trkpt><trkpt lat="43.8797567" lon="11.2248287"><ele>773.0</ele><time>2026-04-28T16:19:21.162Z</time></trkpt><trkpt lat="43.8797553" lon="11.2247398"><ele>773.0</ele><time>2026-04-28T16:19:27.222Z</time></trkpt><trkpt lat="43.8797079" lon="11.2246809"><ele>773.0</ele><time>2026-04-28T16:19:39.254Z</time></trkpt><trkpt lat="43.8796487" lon="11.2246424"><ele>773.0</ele><time>2026-04-28T16:19:51.161Z</time></trkpt><trkpt lat="43.8796201" lon="11.2247206"><ele>773.0</ele><time>2026-04-28T16:20:58.24Z</time></trkpt><trkpt lat="43.8796365" lon="11.2246314"><ele>773.0</ele><time>2026-04-28T16:21:33.237Z</time></trkpt><trkpt lat="43.8795663" lon="11.2246601"><ele>771.2857142857142</ele><time>2026-04-28T16:22:05.237Z</time></trkpt><trkpt lat="43.8796304" lon="11.2246561"><ele>769.5714285714286</ele><time>2026-04-28T16:22:21.258Z</time></trkpt><trkpt lat="43.8796877" lon="11.2246933"><ele>767.8571428571429</ele><time>2026-04-28T16:23:00.248Z</time></trkpt><trkpt lat="43.879623" lon="11.2246461"><ele>766.1428571428571</ele><time>2026-04-28T16:23:30.226Z</time></trkpt><trkpt lat="43.8796102" lon="11.224556"><ele>764.4285714285714</ele><time>2026-04-28T16:23:36.18Z</time></trkpt><trkpt lat="43.8795799" lon="11.2244722"><ele>762.7142857142857</ele><time>2026-04-28T16:23:44.251Z</time></trkpt><trkpt lat="43.8795441" lon="11.2243958"><ele>761.0</ele><time>2026-04-28T16:24:10.227Z</time></trkpt><trkpt lat="43.8794807" lon="11.2243727"><ele>760.9999999999999</ele><time>2026-04-28T16:24:15.24Z</time></trkpt><trkpt lat="43.8794265" lon="11.2243231"><ele>761.0</ele><time>2026-04-28T16:24:20.24Z</time></trkpt><trkpt lat="43.8793987" lon="11.2242339"><ele>761.0</ele><time>2026-04-28T16:24:25.246Z</time></trkpt><trkpt lat="43.8793558" lon="11.2241497"><ele>761.0</ele><time>2026-04-28T16:24:35.068Z</time></trkpt><trkpt lat="43.8793174" lon="11.2240709"><ele>761.0</ele><time>2026-04-28T16:24:41.242Z</time></trkpt><trkpt lat="43.8792766" lon="11.2239806"><ele>760.9999999999999</ele><time>2026-04-28T16:24:46.239Z</time></trkpt><trkpt lat="43.8792198" lon="11.2239247"><ele>761.0</ele><time>2026-04-28T16:24:51.223Z</time></trkpt><trkpt lat="43.8791674" lon="11.2238746"><ele>757.4285714285713</ele><time>2026-04-28T16:24:57.253Z</time></trkpt><trkpt lat="43.8791159" lon="11.2238062"><ele>753.8571428571429</ele><time>2026-04-28T16:25:04.254Z</time></trkpt><trkpt lat="43.8791099" lon="11.2237104"><ele>750.2857142857142</ele><time>2026-04-28T16:25:14.186Z</time></trkpt><trkpt lat="43.8790802" lon="11.2236307"><ele>746.7142857142857</ele><time>2026-04-28T16:25:21.243Z</time></trkpt><trkpt lat="43.8790893" lon="11.2235365"><ele>743.1428571428571</ele><time>2026-04-28T16:25:26.147Z</time></trkpt><trkpt lat="43.8791325" lon="11.2234586"><ele>739.5714285714286</ele><time>2026-04-28T16:25:35.246Z</time></trkpt><trkpt lat="43.8791444" lon="11.2233531"><ele>736.0</ele><time>2026-04-28T16:25:48.239Z</time></trkpt><trkpt lat="43.8791714" lon="11.2232741"><ele>736.0</ele><time>2026-04-28T16:25:51.24Z</time></trkpt><trkpt lat="43.8791467" lon="11.2231799"><ele>736.0</ele><time>2026-04-28T16:25:56.243Z</time></trkpt><trkpt lat="43.8791282" lon="11.2230861"><ele>736.0</ele><time>2026-04-28T16:26:03.23Z</time></trkpt><trkpt lat="43.8791444" lon="11.222999"><ele>736.0</ele><time>2026-04-28T16:26:09.233Z</time></trkpt><trkpt lat="43.8791308" lon="11.2229013"><ele>736.0</ele><time>2026-04-28T16:26:15.232Z</time></trkpt><trkpt lat="43.879153" lon="11.2227874"><ele>736.0</ele><time>2026-04-28T16:26:24.223Z</time></trkpt><trkpt lat="43.8791554" lon="11.222694"><ele>736.0</ele><time>2026-04-28T16:26:32.239Z</time></trkpt><trkpt lat="43.8791565" lon="11.2226028"><ele>734.0</ele><time>2026-04-28T16:26:37.148Z</time></trkpt><trkpt lat="43.8791393" lon="11.2225147"><ele>732.0</ele><time>2026-04-28T16:26:43.237Z</time></trkpt><trkpt lat="43.8791721" lon="11.2224306"><ele>730.0</ele><time>2026-04-28T16:26:49.253Z</time></trkpt><trkpt lat="43.8791466" lon="11.222345"><ele>728.0</ele><time>2026-04-28T16:27:01.241Z</time></trkpt><trkpt lat="43.8791718" lon="11.2222584"><ele>726.0</ele><time>2026-04-28T16:27:06.226Z</time></trkpt><trkpt lat="43.8792118" lon="11.2221869"><ele>724.0</ele><time>2026-04-28T16:27:11.233Z</time></trkpt><trkpt lat="43.879264" lon="11.2221309"><ele>722.0</ele><time>2026-04-28T16:27:16.23Z</time></trkpt><trkpt lat="43.8793361" lon="11.2221152"><ele>719.8571428571429</ele><time>2026-04-28T16:27:23.24Z</time></trkpt><trkpt lat="43.8793321" lon="11.2220267"><ele>717.7142857142857</ele><time>2026-04-28T16:27:28.243Z</time></trkpt><trkpt lat="43.8793243" lon="11.2219232"><ele>715.5714285714286</ele><time>2026-04-28T16:27:33.244Z</time></trkpt><trkpt lat="43.8793796" lon="11.221852"><ele>713.4285714285714</ele><time>2026-04-28T16:27:45.239Z</time></trkpt><trkpt lat="43.8794249" lon="11.2217905"><ele>711.2857142857142</ele><time>2026-04-28T16:27:53.222Z</time></trkpt><trkpt lat="43.8794579" lon="11.2217007"><ele>709.1428571428571</ele><time>2026-04-28T16:27:58.244Z</time></trkpt><trkpt lat="43.8794604" lon="11.22161"><ele>707.0</ele><time>2026-04-28T16:28:05.222Z</time></trkpt><trkpt lat="43.8794598" lon="11.221503"><ele>704.7142857142857</ele><time>2026-04-28T16:28:11.234Z</time></trkpt><trkpt lat="43.8794835" lon="11.2214218"><ele>702.4285714285714</ele><time>2026-04-28T16:28:15.244Z</time></trkpt><trkpt lat="43.8794712" lon="11.2213191"><ele>700.1428571428571</ele><time>2026-04-28T16:28:21.229Z</time></trkpt><trkpt lat="43.8794972" lon="11.2212346"><ele>697.8571428571429</ele><time>2026-04-28T16:28:27.023Z</time></trkpt><trkpt lat="43.8794635" lon="11.22116"><ele>695.5714285714286</ele><time>2026-04-28T16:28:34.248Z</time></trkpt><trkpt lat="43.8794819" lon="11.2210627"><ele>693.2857142857142</ele><time>2026-04-28T16:28:40.242Z</time></trkpt><trkpt lat="43.879487" lon="11.2209625"><ele>691.0</ele><time>2026-04-28T16:28:49.239Z</time></trkpt><trkpt lat="43.8795345" lon="11.2208954"><ele>690.9999999999999</ele><time>2026-04-28T16:28:58.243Z</time></trkpt><trkpt lat="43.879534" lon="11.2208043"><ele>691.0</ele><time>2026-04-28T16:29:13.129Z</time></trkpt><trkpt lat="43.8796037" lon="11.2208247"><ele>691.0</ele><time>2026-04-28T16:29:21.245Z</time></trkpt><trkpt lat="43.8796698" lon="11.2207949"><ele>691.0</ele><time>2026-04-28T16:29:29.227Z</time></trkpt><trkpt lat="43.8796853" lon="11.2207052"><ele>691.0</ele><time>2026-04-28T16:29:35.235Z</time></trkpt><trkpt lat="43.8796435" lon="11.2206388"><ele>690.9999999999999</ele><time>2026-04-28T16:30:20.228Z</time></trkpt><trkpt lat="43.8796837" lon="11.2205585"><ele>691.0</ele><time>2026-04-28T16:30:24.229Z</time></trkpt><trkpt lat="43.8797163" lon="11.2204719"><ele>687.7142857142857</ele><time>2026-04-28T16:30:28.228Z</time></trkpt><trkpt lat="43.8797484" lon="11.2203923"><ele>684.4285714285714</ele><time>2026-04-28T16:30:35.228Z</time></trkpt><trkpt lat="43.8797977" lon="11.2203374"><ele>681.1428571428571</ele><time>2026-04-28T16:30:46.243Z</time></trkpt><trkpt lat="43.8798203" lon="11.2202197"><ele>677.8571428571429</ele><time>2026-04-28T16:30:49.231Z</time></trkpt><trkpt lat="43.8798514" lon="11.2201338"><ele>674.5714285714286</ele><time>2026-04-28T16:30:54.236Z</time></trkpt><trkpt lat="43.8798457" lon="11.2200358"><ele>671.2857142857142</ele><time>2026-04-28T16:31:00.224Z</time></trkpt><trkpt lat="43.8799005" lon="11.2199736"><ele>668.0</ele><time>2026-04-28T16:31:21.227Z</time></trkpt><trkpt lat="43.8799514" lon="11.2200265"><ele>668.0</ele><time>2026-04-28T16:31:27.246Z</time></trkpt><trkpt lat="43.8800117" lon="11.2200622"><ele>668.0</ele><time>2026-04-28T16:31:33.234Z</time></trkpt><trkpt lat="43.8800782" lon="11.2200783"><ele>668.0</ele><time>2026-04-28T16:31:40.247Z</time></trkpt><trkpt lat="43.8801226" lon="11.2199955"><ele>668.0</ele><time>2026-04-28T16:31:46.244Z</time></trkpt><trkpt lat="43.8801227" lon="11.2199001"><ele>668.0</ele><time>2026-04-28T16:31:51.122Z</time></trkpt><trkpt lat="43.8800934" lon="11.2198065"><ele>668.0</ele><time>2026-04-28T16:31:58.222Z</time></trkpt><trkpt lat="43.8800707" lon="11.2197246"><ele>668.0</ele><time>2026-04-28T16:32:03.251Z</time></trkpt><trkpt lat="43.8800399" lon="11.219644"><ele>666.0</ele><time>2026-04-28T16:32:12.239Z</time></trkpt><trkpt lat="43.8800776" lon="11.219571"><ele>664.0</ele><time>2026-04-28T16:32:19.253Z</time></trkpt><trkpt lat="43.8800937" lon="11.2194652"><ele>662.0</ele><time>2026-04-28T16:32:27.243Z</time></trkpt><trkpt lat="43.8801112" lon="11.2193723"><ele>660.0</ele><time>2026-04-28T16:32:35.168Z</time></trkpt><trkpt lat="43.8801189" lon="11.2192755"><ele>658.0</ele><time>2026-04-28T16:32:40.239Z</time></trkpt><trkpt lat="43.8801073" lon="11.2191843"><ele>656.0</ele><time>2026-04-28T16:32:45.227Z</time></trkpt><trkpt lat="43.8800623" lon="11.219116"><ele>654.0</ele><time>2026-04-28T16:32:49.24Z</time></trkpt><trkpt lat="43.8800258" lon="11.2190392"><ele>651.7142857142857</ele><time>2026-04-28T16:32:55.242Z</time></trkpt><trkpt lat="43.8799674" lon="11.2189656"><ele>649.4285714285714</ele><time>2026-04-28T16:33:05.251Z</time></trkpt><trkpt lat="43.8799098" lon="11.2189203"><ele>647.1428571428571</ele><time>2026-04-28T16:33:10.242Z</time></trkpt><trkpt lat="43.8798725" lon="11.2188474"><ele>644.8571428571429</ele><time>2026-04-28T16:33:17.245Z</time></trkpt><trkpt lat="43.8798203" lon="11.2187969"><ele>642.5714285714286</ele><time>2026-04-28T16:33:22.247Z</time></trkpt><trkpt lat="43.8797786" lon="11.2187212"><ele>640.2857142857143</ele><time>2026-04-28T16:33:31.241Z</time></trkpt><trkpt lat="43.8797229" lon="11.218667"><ele>638.0</ele><time>2026-04-28T16:33:35.242Z</time></trkpt><trkpt lat="43.8797034" lon="11.2185765"><ele>638.0</ele><time>2026-04-28T16:33:42.248Z</time></trkpt><trkpt lat="43.8796442" lon="11.2185406"><ele>638.0</ele><time>2026-04-28T16:33:48.24Z</time></trkpt><trkpt lat="43.8795886" lon="11.2184879"><ele>638.0</ele><time>2026-04-28T16:33:53.229Z</time></trkpt><trkpt lat="43.8795581" lon="11.2184061"><ele>638.0</ele><time>2026-04-28T16:34:03.24Z</time></trkpt><trkpt lat="43.879532" lon="11.2183201"><ele>638.0</ele><time>2026-04-28T16:34:11.241Z</time></trkpt><trkpt lat="43.8794827" lon="11.2182622"><ele>638.0</ele><time>2026-04-28T16:34:21.212Z</time></trkpt><trkpt lat="43.8794273" lon="11.2181986"><ele>638.0</ele><time>2026-04-28T16:34:26.244Z</time></trkpt><trkpt lat="43.8794532" lon="11.2181134"><ele>635.1428571428572</ele><time>2026-04-28T16:34:39.24Z</time></trkpt><trkpt lat="43.8794066" lon="11.2180464"><ele>632.2857142857142</ele><time>2026-04-28T16:34:47.085Z</time></trkpt><trkpt lat="43.8793847" lon="11.2179617"><ele>629.4285714285714</ele><time>2026-04-28T16:34:54.253Z</time></trkpt><trkpt lat="43.8793687" lon="11.2178716"><ele>626.5714285714287</ele><time>2026-04-28T16:35:00.244Z</time></trkpt><trkpt lat="43.8793411" lon="11.2177846"><ele>623.7142857142858</ele><time>2026-04-28T16:35:06.224Z</time></trkpt><trkpt lat="43.8792925" lon="11.2177205"><ele>620.8571428571429</ele><time>2026-04-28T16:35:17.244Z</time></trkpt><trkpt lat="43.879268" lon="11.2176394"><ele>618.0</ele><time>2026-04-28T16:35:26.239Z</time></trkpt><trkpt lat="43.8792813" lon="11.2175476"><ele>618.7142857142858</ele><time>2026-04-28T16:35:33.235Z</time></trkpt><trkpt lat="43.8792434" lon="11.2174636"><ele>619.4285714285714</ele><time>2026-04-28T16:35:43.245Z</time></trkpt><trkpt lat="43.8791763" lon="11.2174963"><ele>620.1428571428571</ele><time>2026-04-28T16:35:48.216Z</time></trkpt><trkpt lat="43.8791653" lon="11.2174086"><ele>620.8571428571429</ele><time>2026-04-28T16:35:53.235Z</time></trkpt><trkpt lat="43.8791387" lon="11.2173161"><ele>621.5714285714286</ele><time>2026-04-28T16:36:01.23Z</time></trkpt><trkpt lat="43.8791183" lon="11.2172243"><ele>622.2857142857143</ele><time>2026-04-28T16:36:06.102Z</time></trkpt><trkpt lat="43.8791133" lon="11.2171297"><ele>623.0</ele><time>2026-04-28T16:36:17.254Z</time></trkpt><trkpt lat="43.8790557" lon="11.2170799"><ele>620.7142857142857</ele><time>2026-04-28T16:36:27.25Z</time></trkpt><trkpt lat="43.8790367" lon="11.2169919"><ele>618.4285714285714</ele><time>2026-04-28T16:36:33.233Z</time></trkpt><trkpt lat="43.8789952" lon="11.2169026"><ele>616.1428571428571</ele><time>2026-04-28T16:36:41.245Z</time></trkpt><trkpt lat="43.8790049" lon="11.2168131"><ele>613.8571428571429</ele><time>2026-04-28T16:36:48.242Z</time></trkpt><trkpt lat="43.8789417" lon="11.216802"><ele>611.5714285714286</ele><time>2026-04-28T16:36:57.246Z</time></trkpt><trkpt lat="43.8789329" lon="11.216712"><ele>609.2857142857142</ele><time>2026-04-28T16:37:02.234Z</time></trkpt><trkpt lat="43.8789595" lon="11.216631"><ele>607.0</ele><time>2026-04-28T16:37:44.244Z</time></trkpt><trkpt lat="43.8789376" lon="11.2165258"><ele>604.9999999999999</ele><time>2026-04-28T16:37:50.246Z</time></trkpt><trkpt lat="43.8789103" lon="11.2164458"><ele>603.0</ele><time>2026-04-28T16:38:02.235Z</time></trkpt><trkpt lat="43.878963" lon="11.2163681"><ele>601.0</ele><time>2026-04-28T16:38:12.247Z</time></trkpt><trkpt lat="43.8789913" lon="11.2162563"><ele>599.0</ele><time>2026-04-28T16:38:21.229Z</time></trkpt><trkpt lat="43.878962" lon="11.2161549"><ele>597.0</ele><time>2026-04-28T16:38:26.235Z</time></trkpt><trkpt lat="43.8789607" lon="11.2160575"><ele>594.9999999999999</ele><time>2026-04-28T16:38:30.183Z</time></trkpt><trkpt lat="43.8790225" lon="11.2160248"><ele>593.0</ele><time>2026-04-28T16:38:38.181Z</time></trkpt><trkpt lat="43.8790681" lon="11.2161123"><ele>592.9999999999999</ele><time>2026-04-28T16:38:51.226Z</time></trkpt><trkpt lat="43.879056" lon="11.2160006"><ele>593.0</ele><time>2026-04-28T16:38:58.249Z</time></trkpt><trkpt lat="43.8790331" lon="11.2159143"><ele>593.0</ele><time>2026-04-28T16:39:00.237Z</time></trkpt><trkpt lat="43.8790164" lon="11.2158283"><ele>593.0</ele><time>2026-04-28T16:39:04.239Z</time></trkpt><trkpt lat="43.8790136" lon="11.2157302"><ele>593.0</ele><time>2026-04-28T16:39:08.243Z</time></trkpt><trkpt lat="43.8789975" lon="11.2156453"><ele>592.9999999999999</ele><time>2026-04-28T16:39:14.235Z</time></trkpt><trkpt lat="43.8790236" lon="11.2155485"><ele>593.0</ele><time>2026-04-28T16:39:18.232Z</time></trkpt><trkpt lat="43.8790125" lon="11.215456"><ele>591.8571428571428</ele><time>2026-04-28T16:39:23.235Z</time></trkpt><trkpt lat="43.8789828" lon="11.2153744"><ele>590.7142857142857</ele><time>2026-04-28T16:39:26.232Z</time></trkpt><trkpt lat="43.8789336" lon="11.215318"><ele>589.5714285714286</ele><time>2026-04-28T16:39:29.248Z</time></trkpt><trkpt lat="43.8788942" lon="11.2152435"><ele>588.4285714285713</ele><time>2026-04-28T16:39:38.229Z</time></trkpt><trkpt lat="43.8788548" lon="11.2151528"><ele>587.2857142857142</ele><time>2026-04-28T16:39:46.106Z</time></trkpt><trkpt lat="43.8789075" lon="11.2150828"><ele>586.1428571428571</ele><time>2026-04-28T16:39:51.228Z</time></trkpt><trkpt lat="43.8789829" lon="11.2150676"><ele>585.0</ele><time>2026-04-28T16:39:55.228Z</time></trkpt><trkpt lat="43.8789884" lon="11.2149805"><ele>585.0</ele><time>2026-04-28T16:40:00.241Z</time></trkpt><trkpt lat="43.8789367" lon="11.2149304"><ele>585.0</ele><time>2026-04-28T16:40:06.244Z</time></trkpt><trkpt lat="43.8790039" lon="11.2148779"><ele>585.0</ele><time>2026-04-28T16:40:12.245Z</time></trkpt><trkpt lat="43.8789852" lon="11.2147878"><ele>585.0</ele><time>2026-04-28T16:40:17.25Z</time></trkpt><trkpt lat="43.8790266" lon="11.2147149"><ele>585.0</ele><time>2026-04-28T16:40:21.101Z</time></trkpt><trkpt lat="43.879089" lon="11.2146898"><ele>585.0</ele><time>2026-04-28T16:40:27.235Z</time></trkpt><trkpt lat="43.8791364" lon="11.2146121"><ele>585.0</ele><time>2026-04-28T16:40:33.233Z</time></trkpt><trkpt lat="43.8791192" lon="11.2145265"><ele>584.0</ele><time>2026-04-28T16:40:38.231Z</time></trkpt><trkpt lat="43.8791053" lon="11.2144251"><ele>583.0</ele><time>2026-04-28T16:40:45.24Z</time></trkpt><trkpt lat="43.8790925" lon="11.2143331"><ele>582.0</ele><time>2026-04-28T16:41:10.248Z</time></trkpt><trkpt lat="43.8790684" lon="11.2142448"><ele>581.0</ele><time>2026-04-28T16:41:16.247Z</time></trkpt><trkpt lat="43.8790187" lon="11.2141814"><ele>580.0</ele><time>2026-04-28T16:41:22.24Z</time></trkpt><trkpt lat="43.878982" lon="11.214105"><ele>579.0</ele><time>2026-04-28T16:41:28.247Z</time></trkpt><trkpt lat="43.8789071" lon="11.2140744"><ele>578.0</ele><time>2026-04-28T16:41:33.241Z</time></trkpt><trkpt lat="43.8788304" lon="11.2140651"><ele>578.0</ele><time>2026-04-28T16:41:38.248Z</time></trkpt><trkpt lat="43.878771" lon="11.2140152"><ele>578.0</ele><time>2026-04-28T16:41:45.222Z</time></trkpt><trkpt lat="43.8787781" lon="11.213926"><ele>578.0</ele><time>2026-04-28T16:41:52.238Z</time></trkpt><trkpt lat="43.8787361" lon="11.213854"><ele>578.0</ele><time>2026-04-28T16:42:06.144Z</time></trkpt><trkpt lat="43.8786688" lon="11.2138303"><ele>578.0</ele><time>2026-04-28T16:42:12.089Z</time></trkpt><trkpt lat="43.8786055" lon="11.2138446"><ele>578.0</ele><time>2026-04-28T16:42:18.232Z</time></trkpt><trkpt lat="43.878543" lon="11.2138022"><ele>578.0</ele><time>2026-04-28T16:42:30.237Z</time></trkpt><trkpt lat="43.8784752" lon="11.2137763"><ele>575.1428571428571</ele><time>2026-04-28T16:42:34.221Z</time></trkpt><trkpt lat="43.8785029" lon="11.2138764"><ele>572.2857142857142</ele><time>2026-04-28T16:43:17.249Z</time></trkpt><trkpt lat="43.8784266" lon="11.2139248"><ele>569.4285714285713</ele><time>2026-04-28T16:43:38.222Z</time></trkpt><trkpt lat="43.8783591" lon="11.2139122"><ele>566.5714285714286</ele><time>2026-04-28T16:43:42.236Z</time></trkpt><trkpt lat="43.8783064" lon="11.2138496"><ele>563.7142857142857</ele><time>2026-04-28T16:43:46.235Z</time></trkpt><trkpt lat="43.8782542" lon="11.2137942"><ele>560.8571428571428</ele><time>2026-04-28T16:43:51.231Z</time></trkpt><trkpt lat="43.878184" lon="11.2137714"><ele>558.0</ele><time>2026-04-28T16:43:56.227Z</time></trkpt><trkpt lat="43.878121" lon="11.2137577"><ele>557.5714285714286</ele><time>2026-04-28T16:44:00.238Z</time></trkpt><trkpt lat="43.8780554" lon="11.2137422"><ele>557.1428571428571</ele><time>2026-04-28T16:44:05.229Z</time></trkpt><trkpt lat="43.8779889" lon="11.2137855"><ele>556.7142857142858</ele><time>2026-04-28T16:44:13.229Z</time></trkpt><trkpt lat="43.8779322" lon="11.2138347"><ele>556.2857142857142</ele><time>2026-04-28T16:44:20.218Z</time></trkpt><trkpt lat="43.8778948" lon="11.2137567"><ele>555.8571428571429</ele><time>2026-04-28T16:44:27.228Z</time></trkpt><trkpt lat="43.8779465" lon="11.2138074"><ele>555.4285714285714</ele><time>2026-04-28T16:44:37.237Z</time></trkpt><trkpt lat="43.8779645" lon="11.2137233"><ele>555.0</ele><time>2026-04-28T16:44:48.236Z</time></trkpt><trkpt lat="43.8779167" lon="11.2136451"><ele>555.0000000000001</ele><time>2026-04-28T16:44:55.232Z</time></trkpt><trkpt lat="43.877923" lon="11.2135272"><ele>555.0</ele><time>2026-04-28T16:45:01.224Z</time></trkpt><trkpt lat="43.8779149" lon="11.2134255"><ele>555.0</ele><time>2026-04-28T16:45:27.234Z</time></trkpt><trkpt lat="43.8778676" lon="11.2133595"><ele>555.0</ele><time>2026-04-28T16:45:37.229Z</time></trkpt><trkpt lat="43.8778346" lon="11.2132779"><ele>555.0</ele><time>2026-04-28T16:45:46.215Z</time></trkpt><trkpt lat="43.8777944" lon="11.2132056"><ele>555.0000000000001</ele><time>2026-04-28T16:46:10.226Z</time></trkpt><trkpt lat="43.8777237" lon="11.2131921"><ele>555.0</ele><time>2026-04-28T16:46:41.217Z</time></trkpt><trkpt lat="43.8776536" lon="11.2132066"><ele>553.0000000000001</ele><time>2026-04-28T16:46:48.237Z</time></trkpt><trkpt lat="43.8775902" lon="11.2132011"><ele>551.0</ele><time>2026-04-28T16:46:52.226Z</time></trkpt><trkpt lat="43.8775204" lon="11.2131704"><ele>549.0</ele><time>2026-04-28T16:46:56.217Z</time></trkpt><trkpt lat="43.8774524" lon="11.2131547"><ele>547.0</ele><time>2026-04-28T16:47:01.202Z</time></trkpt><trkpt lat="43.8773701" lon="11.213175"><ele>545.0</ele><time>2026-04-28T16:47:17.224Z</time></trkpt><trkpt lat="43.8772994" lon="11.2131941"><ele>543.0000000000001</ele><time>2026-04-28T16:47:22.219Z</time></trkpt><trkpt lat="43.8772365" lon="11.2131621"><ele>541.0</ele><time>2026-04-28T16:47:28.211Z</time></trkpt><trkpt lat="43.8771695" lon="11.2131164"><ele>541.0000000000001</ele><time>2026-04-28T16:47:39.168Z</time></trkpt><trkpt lat="43.8771047" lon="11.2130594"><ele>541.0</ele><time>2026-04-28T16:47:51.211Z</time></trkpt><trkpt lat="43.877036" lon="11.21302"><ele>541.0</ele><time>2026-04-28T16:48:01.215Z</time></trkpt><trkpt lat="43.8769645" lon="11.2130185"><ele>541.0</ele><time>2026-04-28T16:48:09.225Z</time></trkpt><trkpt lat="43.8769034" lon="11.2130736"><ele>541.0</ele><time>2026-04-28T16:48:14.217Z</time></trkpt><trkpt lat="43.8768817" lon="11.213188"><ele>541.0000000000001</ele><time>2026-04-28T16:48:35.222Z</time></trkpt><trkpt lat="43.8768499" lon="11.2132717"><ele>541.0</ele><time>2026-04-28T16:49:00.224Z</time></trkpt><trkpt lat="43.8767899" lon="11.2133232"><ele>538.1428571428572</ele><time>2026-04-28T16:49:05.229Z</time></trkpt><trkpt lat="43.8767341" lon="11.2133936"><ele>535.2857142857143</ele><time>2026-04-28T16:49:10.221Z</time></trkpt><trkpt lat="43.8766853" lon="11.2134497"><ele>532.4285714285714</ele><time>2026-04-28T16:49:17.232Z</time></trkpt><trkpt lat="43.8766676" lon="11.2135437"><ele>529.5714285714287</ele><time>2026-04-28T16:49:23.224Z</time></trkpt><trkpt lat="43.8766568" lon="11.2136409"><ele>526.7142857142858</ele><time>2026-04-28T16:49:30.187Z</time></trkpt><trkpt lat="43.876655" lon="11.2137332"><ele>523.8571428571429</ele><time>2026-04-28T16:49:35.218Z</time></trkpt><trkpt lat="43.8766938" lon="11.2138112"><ele>521.0</ele><time>2026-04-28T16:49:39.206Z</time></trkpt><trkpt lat="43.8767122" lon="11.213896"><ele>521.1428571428571</ele><time>2026-04-28T16:49:44.205Z</time></trkpt><trkpt lat="43.8767206" lon="11.2139953"><ele>521.2857142857143</ele><time>2026-04-28T16:49:50.204Z</time></trkpt><trkpt lat="43.8767446" lon="11.2140951"><ele>521.4285714285714</ele><time>2026-04-28T16:49:57.143Z</time></trkpt><trkpt lat="43.8767518" lon="11.2141962"><ele>521.5714285714286</ele><time>2026-04-28T16:50:03.227Z</time></trkpt><trkpt lat="43.8767168" lon="11.2142966"><ele>521.7142857142857</ele><time>2026-04-28T16:50:08.183Z</time></trkpt><trkpt lat="43.8766464" lon="11.2142878"><ele>521.8571428571429</ele><time>2026-04-28T16:50:16.206Z</time></trkpt><trkpt lat="43.8766149" lon="11.2143702"><ele>522.0</ele><time>2026-04-28T16:50:22.231Z</time></trkpt><trkpt lat="43.8765754" lon="11.2144554"><ele>522.0</ele><time>2026-04-28T16:50:28.219Z</time></trkpt><trkpt lat="43.8765199" lon="11.2145085"><ele>522.0</ele><time>2026-04-28T16:50:39.21Z</time></trkpt><trkpt lat="43.876494" lon="11.2145956"><ele>522.0</ele><time>2026-04-28T16:50:45.212Z</time></trkpt><trkpt lat="43.8764653" lon="11.2146771"><ele>522.0</ele><time>2026-04-28T16:50:59.215Z</time></trkpt><trkpt lat="43.8764187" lon="11.2147436"><ele>522.0</ele><time>2026-04-28T16:51:06.215Z</time></trkpt><trkpt lat="43.8764081" lon="11.2148377"><ele>522.0</ele><time>2026-04-28T16:51:15.219Z</time></trkpt><trkpt lat="43.8764178" lon="11.2149243"><ele>522.0</ele><time>2026-04-28T16:51:20.185Z</time></trkpt><trkpt lat="43.8764216" lon="11.2150178"><ele>522.4285714285714</ele><time>2026-04-28T16:51:25.23Z</time></trkpt><trkpt lat="43.8764046" lon="11.2151136"><ele>522.8571428571429</ele><time>2026-04-28T16:51:30.222Z</time></trkpt><trkpt lat="43.8764114" lon="11.215211"><ele>523.2857142857142</ele><time>2026-04-28T16:51:36.213Z</time></trkpt><trkpt lat="43.8764218" lon="11.2153056"><ele>523.7142857142858</ele><time>2026-04-28T16:51:42.207Z</time></trkpt><trkpt lat="43.8763677" lon="11.2153527"><ele>524.1428571428571</ele><time>2026-04-28T16:51:51.203Z</time></trkpt><trkpt lat="43.8763714" lon="11.2154454"><ele>524.5714285714286</ele><time>2026-04-28T16:51:54.199Z</time></trkpt><trkpt lat="43.8763995" lon="11.2155279"><ele>525.0</ele><time>2026-04-28T16:52:00.197Z</time></trkpt><trkpt lat="43.8763596" lon="11.2156168"><ele>525.8571428571429</ele><time>2026-04-28T16:52:07.201Z</time></trkpt><trkpt lat="43.8763119" lon="11.2156745"><ele>526.7142857142858</ele><time>2026-04-28T16:52:12.192Z</time></trkpt><trkpt lat="43.8763008" lon="11.2157664"><ele>527.5714285714286</ele><time>2026-04-28T16:52:29.203Z</time></trkpt><trkpt lat="43.8762856" lon="11.2158702"><ele>528.4285714285714</ele><time>2026-04-28T16:52:34.2Z</time></trkpt><trkpt lat="43.8762598" lon="11.2159599"><ele>529.2857142857143</ele><time>2026-04-28T16:52:43.201Z</time></trkpt><trkpt lat="43.8762526" lon="11.2160516"><ele>530.1428571428571</ele><time>2026-04-28T16:52:56.226Z</time></trkpt><trkpt lat="43.876203" lon="11.2161241"><ele>531.0</ele><time>2026-04-28T16:53:04.047Z</time></trkpt><trkpt lat="43.8761366" lon="11.2161739"><ele>531.0</ele><time>2026-04-28T16:53:09.202Z</time></trkpt><trkpt lat="43.876061" lon="11.2161965"><ele>531.0</ele><time>2026-04-28T16:53:14.205Z</time></trkpt><trkpt lat="43.8759978" lon="11.216197"><ele>531.0</ele><time>2026-04-28T16:53:19.216Z</time></trkpt><trkpt lat="43.8760086" lon="11.2162879"><ele>531.0</ele><time>2026-04-28T16:53:25.204Z</time></trkpt><trkpt lat="43.8760603" lon="11.2163622"><ele>531.0</ele><time>2026-04-28T16:53:33.2Z</time></trkpt><trkpt lat="43.8760322" lon="11.2164754"><ele>531.0</ele><time>2026-04-28T16:53:38.213Z</time></trkpt><trkpt lat="43.8759648" lon="11.2164913"><ele>531.0</ele><time>2026-04-28T16:53:40.212Z</time></trkpt><trkpt lat="43.8759292" lon="11.2165827"><ele>526.7142857142858</ele><time>2026-04-28T16:53:45.211Z</time></trkpt><trkpt lat="43.8758943" lon="11.216656"><ele>522.4285714285714</ele><time>2026-04-28T16:53:51.216Z</time></trkpt><trkpt lat="43.8758302" lon="11.2166888"><ele>518.1428571428571</ele><time>2026-04-28T16:53:59.217Z</time></trkpt><trkpt lat="43.8757665" lon="11.2166707"><ele>513.8571428571429</ele><time>2026-04-28T16:54:07.165Z</time></trkpt><trkpt lat="43.8757521" lon="11.216759"><ele>509.57142857142856</ele><time>2026-04-28T16:54:16.196Z</time></trkpt><trkpt lat="43.8756991" lon="11.2168196"><ele>505.28571428571433</ele><time>2026-04-28T16:54:20.197Z</time></trkpt><trkpt lat="43.8756359" lon="11.2168589"><ele>501.0</ele><time>2026-04-28T16:54:24.2Z</time></trkpt><trkpt lat="43.8755659" lon="11.2168711"><ele>501.0</ele><time>2026-04-28T16:54:31.13Z</time></trkpt><trkpt lat="43.8755984" lon="11.21678"><ele>501.0</ele><time>2026-04-28T16:54:40.219Z</time></trkpt><trkpt lat="43.8755241" lon="11.2167675"><ele>501.0</ele><time>2026-04-28T16:54:58.232Z</time></trkpt><trkpt lat="43.8754501" lon="11.2167705"><ele>501.0</ele><time>2026-04-28T16:55:02.23Z</time></trkpt><trkpt lat="43.8753858" lon="11.2167655"><ele>501.0</ele><time>2026-04-28T16:55:08.221Z</time></trkpt><trkpt lat="43.875309" lon="11.2167615"><ele>501.0</ele><time>2026-04-28T16:55:15.228Z</time></trkpt><trkpt lat="43.8752492" lon="11.2167915"><ele>501.0</ele><time>2026-04-28T16:55:23.141Z</time></trkpt><trkpt lat="43.8751805" lon="11.2167868"><ele>501.0</ele><time>2026-04-28T16:55:27.222Z</time></trkpt><trkpt lat="43.8751141" lon="11.2167773"><ele>501.0</ele><time>2026-04-28T16:55:32.215Z</time></trkpt><trkpt lat="43.8750457" lon="11.2167876"><ele>501.0</ele><time>2026-04-28T16:55:37.183Z</time></trkpt><trkpt lat="43.8750063" lon="11.2168615"><ele>501.0</ele><time>2026-04-28T16:55:41.224Z</time></trkpt><trkpt lat="43.8749341" lon="11.2168933"><ele>501.0</ele><time>2026-04-28T16:55:46.218Z</time></trkpt><trkpt lat="43.874871" lon="11.2169286"><ele>501.0</ele><time>2026-04-28T16:55:52.233Z</time></trkpt><trkpt lat="43.8748009" lon="11.2169705"><ele>501.0</ele><time>2026-04-28T16:56:15.215Z</time></trkpt><trkpt lat="43.8747405" lon="11.2169983"><ele>496.7142857142857</ele><time>2026-04-28T16:56:22.214Z</time></trkpt><trkpt lat="43.8746808" lon="11.2170346"><ele>492.42857142857144</ele><time>2026-04-28T16:56:31.214Z</time></trkpt><trkpt lat="43.8746135" lon="11.2170516"><ele>488.14285714285717</ele><time>2026-04-28T16:56:39.215Z</time></trkpt><trkpt lat="43.874554" lon="11.2170998"><ele>483.8571428571429</ele><time>2026-04-28T16:56:46.216Z</time></trkpt><trkpt lat="43.8745057" lon="11.2171678"><ele>479.57142857142856</ele><time>2026-04-28T16:56:52.213Z</time></trkpt><trkpt lat="43.8744879" lon="11.2170779"><ele>475.28571428571433</ele><time>2026-04-28T16:56:59.218Z</time></trkpt><trkpt lat="43.8744315" lon="11.2170276"><ele>471.00000000000006</ele><time>2026-04-28T16:57:05.23Z</time></trkpt><trkpt lat="43.874369" lon="11.2170813"><ele>471.00000000000006</ele><time>2026-04-28T16:57:11.22Z</time></trkpt><trkpt lat="43.8743031" lon="11.217095"><ele>471.0</ele><time>2026-04-28T16:57:17.209Z</time></trkpt><trkpt lat="43.8742354" lon="11.2170731"><ele>471.00000000000006</ele><time>2026-04-28T16:57:22.214Z</time></trkpt><trkpt lat="43.8741726" lon="11.2170421"><ele>471.00000000000006</ele><time>2026-04-28T16:57:27.227Z</time></trkpt><trkpt lat="43.8741097" lon="11.2170288"><ele>471.0</ele><time>2026-04-28T16:57:33.225Z</time></trkpt><trkpt lat="43.8740491" lon="11.2169771"><ele>471.00000000000006</ele><time>2026-04-28T16:57:43.22Z</time></trkpt><trkpt lat="43.8739844" lon="11.2170033"><ele>471.00000000000006</ele><time>2026-04-28T16:57:52.222Z</time></trkpt><trkpt lat="43.8739213" lon="11.2170199"><ele>468.4285714285715</ele><time>2026-04-28T16:58:22.233Z</time></trkpt><trkpt lat="43.8738461" lon="11.2170229"><ele>465.8571428571429</ele><time>2026-04-28T16:58:28.221Z</time></trkpt><trkpt lat="43.8737703" lon="11.2169997"><ele>463.2857142857143</ele><time>2026-04-28T16:58:34.168Z</time></trkpt><trkpt lat="43.8737054" lon="11.2170336"><ele>460.7142857142857</ele><time>2026-04-28T16:58:40.229Z</time></trkpt><trkpt lat="43.8736473" lon="11.2170698"><ele>458.1428571428571</ele><time>2026-04-28T16:58:46.129Z</time></trkpt><trkpt lat="43.873581" lon="11.217104"><ele>455.5714285714285</ele><time>2026-04-28T16:58:52.145Z</time></trkpt><trkpt lat="43.8735121" lon="11.2171241"><ele>452.99999999999994</ele><time>2026-04-28T16:58:58.23Z</time></trkpt><trkpt lat="43.8734467" lon="11.2171146"><ele>453.8571428571428</ele><time>2026-04-28T16:59:03.232Z</time></trkpt><trkpt lat="43.8733908" lon="11.2171755"><ele>454.71428571428567</ele><time>2026-04-28T16:59:11.23Z</time></trkpt><trkpt lat="43.8733344" lon="11.2172244"><ele>455.57142857142856</ele><time>2026-04-28T16:59:18.229Z</time></trkpt><trkpt lat="43.8732724" lon="11.2172552"><ele>456.4285714285714</ele><time>2026-04-28T16:59:24.226Z</time></trkpt><trkpt lat="43.8732089" lon="11.217268"><ele>457.2857142857142</ele><time>2026-04-28T16:59:32.221Z</time></trkpt><trkpt lat="43.8731602" lon="11.2173501"><ele>458.14285714285717</ele><time>2026-04-28T16:59:39.161Z</time></trkpt><trkpt lat="43.8731487" lon="11.21744"><ele>459.0</ele><time>2026-04-28T16:59:44.226Z</time></trkpt><trkpt lat="43.8730999" lon="11.217514"><ele>459.0</ele><time>2026-04-28T16:59:52.219Z</time></trkpt><trkpt lat="43.8731053" lon="11.217616"><ele>459.0</ele><time>2026-04-28T17:00:20.12Z</time></trkpt><trkpt lat="43.8730797" lon="11.2176969"><ele>459.0</ele><time>2026-04-28T17:00:28.196Z</time></trkpt><trkpt lat="43.8731128" lon="11.2177802"><ele>459.0</ele><time>2026-04-28T17:00:38.211Z</time></trkpt><trkpt lat="43.8730824" lon="11.2178593"><ele>459.0</ele><time>2026-04-28T17:00:43.082Z</time></trkpt><trkpt lat="43.873023" lon="11.217917"><ele>459.0</ele><time>2026-04-28T17:00:51.207Z</time></trkpt><trkpt lat="43.8729891" lon="11.2179959"><ele>459.0</ele><time>2026-04-28T17:00:57.208Z</time></trkpt><trkpt lat="43.8729437" lon="11.2180733"><ele>459.0</ele><time>2026-04-28T17:01:05.207Z</time></trkpt><trkpt lat="43.8728753" lon="11.2180808"><ele>459.0</ele><time>2026-04-28T17:01:12.182Z</time></trkpt><trkpt lat="43.8728588" lon="11.2181742"><ele>459.0</ele><time>2026-04-28T17:01:24.207Z</time></trkpt><trkpt lat="43.8728738" lon="11.2182763"><ele>459.0</ele><time>2026-04-28T17:01:30.203Z</time></trkpt><trkpt lat="43.8728522" lon="11.218365"><ele>459.0</ele><time>2026-04-28T17:01:35.211Z</time></trkpt><trkpt lat="43.8728711" lon="11.2184529"><ele>459.0</ele><time>2026-04-28T17:01:39.215Z</time></trkpt><trkpt lat="43.8728782" lon="11.2185473"><ele>459.0</ele><time>2026-04-28T17:01:46.106Z</time></trkpt><trkpt lat="43.872888" lon="11.2186338"><ele>460.14285714285717</ele><time>2026-04-28T17:01:54.161Z</time></trkpt><trkpt lat="43.8728843" lon="11.2187302"><ele>461.2857142857142</ele><time>2026-04-28T17:02:01.21Z</time></trkpt><trkpt lat="43.8729031" lon="11.2188275"><ele>462.4285714285714</ele><time>2026-04-28T17:02:07.206Z</time></trkpt><trkpt lat="43.8729253" lon="11.218914"><ele>463.57142857142856</ele><time>2026-04-28T17:02:12.229Z</time></trkpt><trkpt lat="43.8729502" lon="11.2190001"><ele>464.71428571428567</ele><time>2026-04-28T17:02:16.804Z</time></trkpt><trkpt lat="43.8729789" lon="11.2190954"><ele>465.8571428571428</ele><time>2026-04-28T17:02:22.208Z</time></trkpt><trkpt lat="43.8730085" lon="11.2191809"><ele>466.99999999999994</ele><time>2026-04-28T17:02:28.202Z</time></trkpt><trkpt lat="43.8730235" lon="11.2192791"><ele>467.1428571428571</ele><time>2026-04-28T17:02:33.207Z</time></trkpt><trkpt lat="43.8730457" lon="11.2193634"><ele>467.2857142857143</ele><time>2026-04-28T17:02:38.113Z</time></trkpt><trkpt lat="43.8730454" lon="11.2194629"><ele>467.42857142857144</ele><time>2026-04-28T17:02:44.209Z</time></trkpt><trkpt lat="43.8730543" lon="11.2195531"><ele>467.57142857142856</ele><time>2026-04-28T17:02:49.213Z</time></trkpt><trkpt lat="43.8730774" lon="11.2196546"><ele>467.7142857142858</ele><time>2026-04-28T17:02:55.217Z</time></trkpt><trkpt lat="43.8731111" lon="11.2197424"><ele>467.8571428571429</ele><time>2026-04-28T17:03:00.213Z</time></trkpt><trkpt lat="43.8731243" lon="11.2198313"><ele>468.0</ele><time>2026-04-28T17:03:06.212Z</time></trkpt><trkpt lat="43.8731454" lon="11.2199154"><ele>466.42857142857144</ele><time>2026-04-28T17:03:11.208Z</time></trkpt><trkpt lat="43.8731679" lon="11.2200084"><ele>464.8571428571429</ele><time>2026-04-28T17:03:18.124Z</time></trkpt><trkpt lat="43.8731992" lon="11.2201013"><ele>463.28571428571433</ele><time>2026-04-28T17:03:25.161Z</time></trkpt><trkpt lat="43.8732093" lon="11.2201887"><ele>461.7142857142858</ele><time>2026-04-28T17:03:30.238Z</time></trkpt><trkpt lat="43.8732312" lon="11.2202782"><ele>460.14285714285717</ele><time>2026-04-28T17:03:35.121Z</time></trkpt><trkpt lat="43.8732608" lon="11.2203652"><ele>458.57142857142867</ele><time>2026-04-28T17:03:41.19Z</time></trkpt><trkpt lat="43.8732618" lon="11.2204621"><ele>457.00000000000006</ele><time>2026-04-28T17:03:47.22Z</time></trkpt><trkpt lat="43.8732586" lon="11.2205606"><ele>455.5714285714286</ele><time>2026-04-28T17:03:55.219Z</time></trkpt><trkpt lat="43.8732618" lon="11.2206514"><ele>454.14285714285717</ele><time>2026-04-28T17:04:00.106Z</time></trkpt><trkpt lat="43.8732402" lon="11.2207429"><ele>452.7142857142857</ele><time>2026-04-28T17:04:06.211Z</time></trkpt><trkpt lat="43.8732151" lon="11.2208339"><ele>451.28571428571433</ele><time>2026-04-28T17:04:13.219Z</time></trkpt><trkpt lat="43.8731662" lon="11.2208954"><ele>449.8571428571429</ele><time>2026-04-28T17:04:21.216Z</time></trkpt><trkpt lat="43.87312" lon="11.2209767"><ele>448.4285714285714</ele><time>2026-04-28T17:04:28.2Z</time></trkpt><trkpt lat="43.8730894" lon="11.2210544"><ele>447.0</ele><time>2026-04-28T17:04:33.201Z</time></trkpt><trkpt lat="43.8730625" lon="11.2211425"><ele>446.99999999999994</ele><time>2026-04-28T17:04:39.083Z</time></trkpt><trkpt lat="43.8730372" lon="11.221232"><ele>447.0</ele><time>2026-04-28T17:04:48.183Z</time></trkpt><trkpt lat="43.8730519" lon="11.2213244"><ele>447.0</ele><time>2026-04-28T17:04:53.194Z</time></trkpt><trkpt lat="43.873023" lon="11.2214154"><ele>447.0</ele><time>2026-04-28T17:05:00.205Z</time></trkpt><trkpt lat="43.8729596" lon="11.2214476"><ele>447.0</ele><time>2026-04-28T17:05:09.05Z</time></trkpt><trkpt lat="43.8729768" lon="11.2215328"><ele>446.99999999999994</ele><time>2026-04-28T17:05:13.086Z</time></trkpt><trkpt lat="43.8730103" lon="11.2216083"><ele>447.0</ele><time>2026-04-28T17:05:18.201Z</time></trkpt><trkpt lat="43.8730045" lon="11.2216995"><ele>446.71428571428567</ele><time>2026-04-28T17:05:24.167Z</time></trkpt><trkpt lat="43.8730149" lon="11.2218015"><ele>446.42857142857144</ele><time>2026-04-28T17:05:31.212Z</time></trkpt><trkpt lat="43.8730352" lon="11.2218941"><ele>446.1428571428571</ele><time>2026-04-28T17:05:36.17Z</time></trkpt><trkpt lat="43.8730175" lon="11.221979"><ele>445.85714285714283</ele><time>2026-04-28T17:05:42.145Z</time></trkpt><trkpt lat="43.8730317" lon="11.2220662"><ele>445.57142857142856</ele><time>2026-04-28T17:05:46.089Z</time></trkpt><trkpt lat="43.8730523" lon="11.2221654"><ele>445.2857142857143</ele><time>2026-04-28T17:05:51.144Z</time></trkpt><trkpt lat="43.8730699" lon="11.222261"><ele>445.0</ele><time>2026-04-28T17:05:58.204Z</time></trkpt><trkpt lat="43.8731177" lon="11.22234"><ele>443.42857142857144</ele><time>2026-04-28T17:06:03.212Z</time></trkpt><trkpt lat="43.873137" lon="11.222428"><ele>441.85714285714283</ele><time>2026-04-28T17:06:10.225Z</time></trkpt><trkpt lat="43.8731631" lon="11.2225163"><ele>440.2857142857143</ele><time>2026-04-28T17:06:19.181Z</time></trkpt><trkpt lat="43.8731548" lon="11.2226144"><ele>438.7142857142857</ele><time>2026-04-28T17:06:27.228Z</time></trkpt><trkpt lat="43.8731676" lon="11.2227024"><ele>437.1428571428571</ele><time>2026-04-28T17:06:35.207Z</time></trkpt><trkpt lat="43.8731819" lon="11.2227904"><ele>435.57142857142856</ele><time>2026-04-28T17:06:40.213Z</time></trkpt><trkpt lat="43.8731951" lon="11.2228867"><ele>434.0</ele><time>2026-04-28T17:06:46.212Z</time></trkpt><trkpt lat="43.8731739" lon="11.2230082"><ele>434.0</ele><time>2026-04-28T17:06:58.216Z</time></trkpt><trkpt lat="43.8732026" lon="11.223097"><ele>434.0</ele><time>2026-04-28T17:07:05.214Z</time></trkpt><trkpt lat="43.8732326" lon="11.2231796"><ele>434.0</ele><time>2026-04-28T17:07:17.209Z</time></trkpt><trkpt lat="43.8732023" lon="11.2232725"><ele>434.0</ele><time>2026-04-28T17:07:35.203Z</time></trkpt><trkpt lat="43.8732427" lon="11.2233396"><ele>434.0</ele><time>2026-04-28T17:07:39.2Z</time></trkpt><trkpt lat="43.8732161" lon="11.2234196"><ele>434.0</ele><time>2026-04-28T17:07:46.203Z</time></trkpt><trkpt lat="43.8731907" lon="11.2235103"><ele>434.0</ele><time>2026-04-28T17:07:51.191Z</time></trkpt><trkpt lat="43.8732048" lon="11.2235984"><ele>431.7142857142857</ele><time>2026-04-28T17:07:56.209Z</time></trkpt><trkpt lat="43.8732237" lon="11.2236874"><ele>429.42857142857144</ele><time>2026-04-28T17:08:02.214Z</time></trkpt><trkpt lat="43.8732242" lon="11.2237872"><ele>427.1428571428571</ele><time>2026-04-28T17:08:09.22Z</time></trkpt><trkpt lat="43.8732945" lon="11.2238483"><ele>424.8571428571429</ele><time>2026-04-28T17:08:45.211Z</time></trkpt><trkpt lat="43.8733524" lon="11.2238891"><ele>422.57142857142856</ele><time>2026-04-28T17:09:10.2Z</time></trkpt><trkpt lat="43.8734124" lon="11.2238415"><ele>420.2857142857143</ele><time>2026-04-28T17:09:22.205Z</time></trkpt><trkpt lat="43.8734444" lon="11.2237588"><ele>418.0</ele><time>2026-04-28T17:09:46.213Z</time></trkpt><trkpt lat="43.8733807" lon="11.2237923"><ele>418.0</ele><time>2026-04-28T17:10:33.2Z</time></trkpt><trkpt lat="43.8733231" lon="11.2237307"><ele>418.0</ele><time>2026-04-28T17:10:37.207Z</time></trkpt><trkpt lat="43.8732756" lon="11.2236556"><ele>418.0</ele><time>2026-04-28T17:10:42.204Z</time></trkpt><trkpt lat="43.873233" lon="11.2235826"><ele>418.0</ele><time>2026-04-28T17:10:48.182Z</time></trkpt><trkpt lat="43.8731737" lon="11.2235406"><ele>418.0</ele><time>2026-04-28T17:10:54.193Z</time></trkpt><trkpt lat="43.8731122" lon="11.223491"><ele>418.0</ele><time>2026-04-28T17:11:02.207Z</time></trkpt><trkpt lat="43.8730718" lon="11.2234215"><ele>418.0</ele><time>2026-04-28T17:11:06.141Z</time></trkpt><trkpt lat="43.8730035" lon="11.2234489"><ele>418.0</ele><time>2026-04-28T17:11:09.144Z</time></trkpt><trkpt lat="43.8729359" lon="11.2234299"><ele>418.0</ele><time>2026-04-28T17:11:16.141Z</time></trkpt><trkpt lat="43.8728716" lon="11.2233975"><ele>418.0</ele><time>2026-04-28T17:11:20.211Z</time></trkpt><trkpt lat="43.8728065" lon="11.2233944"><ele>418.0</ele><time>2026-04-28T17:11:25.221Z</time></trkpt><trkpt lat="43.872741" lon="11.2233936"><ele>418.0</ele><time>2026-04-28T17:11:30.211Z</time></trkpt><trkpt lat="43.8726766" lon="11.2234021"><ele>418.0</ele><time>2026-04-28T17:11:35.209Z</time></trkpt><trkpt lat="43.872611" lon="11.2234214"><ele>418.0</ele><time>2026-04-28T17:11:40.214Z</time></trkpt><trkpt lat="43.872538" lon="11.2234416"><ele>415.0</ele><time>2026-04-28T17:11:45.201Z</time></trkpt><trkpt lat="43.8724689" lon="11.2234428"><ele>412.0</ele><time>2026-04-28T17:11:49.205Z</time></trkpt><trkpt lat="43.8723964" lon="11.223477"><ele>409.0</ele><time>2026-04-28T17:11:54.215Z</time></trkpt><trkpt lat="43.8723294" lon="11.2235395"><ele>406.0</ele><time>2026-04-28T17:11:58.205Z</time></trkpt><trkpt lat="43.8722685" lon="11.2235117"><ele>403.0</ele><time>2026-04-28T17:12:02.21Z</time></trkpt><trkpt lat="43.8722073" lon="11.2234831"><ele>400.0</ele><time>2026-04-28T17:12:11.202Z</time></trkpt><trkpt lat="43.8722257" lon="11.223385"><ele>397.0</ele><time>2026-04-28T17:12:22.207Z</time></trkpt><trkpt lat="43.8721919" lon="11.223305"><ele>397.0</ele><time>2026-04-28T17:12:27.206Z</time></trkpt><trkpt lat="43.8721367" lon="11.2232437"><ele>397.0</ele><time>2026-04-28T17:12:34.21Z</time></trkpt><trkpt lat="43.8720795" lon="11.2231862"><ele>397.0</ele><time>2026-04-28T17:12:38.201Z</time></trkpt><trkpt lat="43.8720174" lon="11.2231157"><ele>397.0</ele><time>2026-04-28T17:12:43.208Z</time></trkpt><trkpt lat="43.8719695" lon="11.2230531"><ele>397.0</ele><time>2026-04-28T17:12:47.151Z</time></trkpt><trkpt lat="43.8719125" lon="11.2229949"><ele>397.0</ele><time>2026-04-28T17:12:54.208Z</time></trkpt><trkpt lat="43.8718491" lon="11.2229482"><ele>397.0</ele><time>2026-04-28T17:13:00.208Z</time></trkpt><trkpt lat="43.871783" lon="11.2229237"><ele>395.85714285714283</ele><time>2026-04-28T17:13:05.209Z</time></trkpt><trkpt lat="43.8717251" lon="11.2228729"><ele>394.71428571428567</ele><time>2026-04-28T17:13:11.985Z</time></trkpt><trkpt lat="43.8716732" lon="11.2228053"><ele>393.57142857142856</ele><time>2026-04-28T17:13:16.91Z</time></trkpt><trkpt lat="43.8716216" lon="11.2227527"><ele>392.42857142857144</ele><time>2026-04-28T17:13:22.101Z</time></trkpt><trkpt lat="43.8715521" lon="11.2227116"><ele>391.2857142857143</ele><time>2026-04-28T17:13:27.214Z</time></trkpt><trkpt lat="43.8714758" lon="11.2226918"><ele>390.14285714285717</ele><time>2026-04-28T17:13:32.217Z</time></trkpt><trkpt lat="43.8714097" lon="11.2226784"><ele>389.0</ele><time>2026-04-28T17:13:36.208Z</time></trkpt><trkpt lat="43.8713405" lon="11.222636"><ele>389.0</ele><time>2026-04-28T17:13:42.207Z</time></trkpt><trkpt lat="43.8712904" lon="11.2225596"><ele>389.0</ele><time>2026-04-28T17:13:48.21Z</time></trkpt><trkpt lat="43.8712624" lon="11.2224794"><ele>389.0</ele><time>2026-04-28T17:13:53.207Z</time></trkpt><trkpt lat="43.8712012" lon="11.2224378"><ele>389.0</ele><time>2026-04-28T17:14:02.213Z</time></trkpt><trkpt lat="43.8711399" lon="11.2223952"><ele>389.0</ele><time>2026-04-28T17:14:08.209Z</time></trkpt><trkpt lat="43.8710794" lon="11.2223579"><ele>389.0</ele><time>2026-04-28T17:14:12.216Z</time></trkpt><trkpt lat="43.8710192" lon="11.2223118"><ele>389.0</ele><time>2026-04-28T17:14:17.22Z</time></trkpt><trkpt lat="43.8709696" lon="11.2222489"><ele>388.8571428571429</ele><time>2026-04-28T17:14:22.2Z</time></trkpt><trkpt lat="43.8709136" lon="11.222177"><ele>388.71428571428567</ele><time>2026-04-28T17:14:28.199Z</time></trkpt><trkpt lat="43.8708733" lon="11.2221082"><ele>388.57142857142856</ele><time>2026-04-28T17:14:32.081Z</time></trkpt><trkpt lat="43.8708254" lon="11.2220285"><ele>388.42857142857144</ele><time>2026-04-28T17:14:36.067Z</time></trkpt><trkpt lat="43.8707741" lon="11.2219586"><ele>388.28571428571433</ele><time>2026-04-28T17:14:41.222Z</time></trkpt><trkpt lat="43.8707263" lon="11.2218826"><ele>388.1428571428571</ele><time>2026-04-28T17:14:46.211Z</time></trkpt><trkpt lat="43.8706841" lon="11.2218164"><ele>388.0</ele><time>2026-04-28T17:14:51.16Z</time></trkpt><trkpt lat="43.870656" lon="11.2217269"><ele>388.0</ele><time>2026-04-28T17:14:58.198Z</time></trkpt><trkpt lat="43.8705956" lon="11.2216928"><ele>388.0</ele><time>2026-04-28T17:15:04.197Z</time></trkpt><trkpt lat="43.8705366" lon="11.2216585"><ele>388.0</ele><time>2026-04-28T17:15:08.203Z</time></trkpt><trkpt lat="43.8704719" lon="11.2216421"><ele>388.0</ele><time>2026-04-28T17:15:12.181Z</time></trkpt><trkpt lat="43.8704147" lon="11.2215706"><ele>388.0</ele><time>2026-04-28T17:15:16.217Z</time></trkpt><trkpt lat="43.8703575" lon="11.2215233"><ele>388.0</ele><time>2026-04-28T17:15:33.209Z</time></trkpt><trkpt lat="43.8702936" lon="11.2214571"><ele>388.0</ele><time>2026-04-28T17:15:42.217Z</time></trkpt><trkpt lat="43.8702263" lon="11.2214567"><ele>385.57142857142856</ele><time>2026-04-28T17:15:51.218Z</time></trkpt><trkpt lat="43.8701631" lon="11.2214349"><ele>383.14285714285717</ele><time>2026-04-28T17:15:58.224Z</time></trkpt><trkpt lat="43.8701104" lon="11.2213844"><ele>380.7142857142857</ele><time>2026-04-28T17:16:04.214Z</time></trkpt><trkpt lat="43.8700417" lon="11.2213768"><ele>378.2857142857143</ele><time>2026-04-28T17:16:08.209Z</time></trkpt><trkpt lat="43.8699844" lon="11.2213156"><ele>375.8571428571429</ele><time>2026-04-28T17:16:15.212Z</time></trkpt><trkpt lat="43.8699059" lon="11.2213044"><ele>373.42857142857144</ele><time>2026-04-28T17:16:25.22Z</time></trkpt><trkpt lat="43.8698406" lon="11.2213278"><ele>371.0</ele><time>2026-04-28T17:16:32.209Z</time></trkpt><trkpt lat="43.8697729" lon="11.2213251"><ele>371.0</ele><time>2026-04-28T17:16:38.208Z</time></trkpt><trkpt lat="43.8697231" lon="11.2212553"><ele>371.0</ele><time>2026-04-28T17:16:43.218Z</time></trkpt><trkpt lat="43.86966" lon="11.2212052"><ele>371.0</ele><time>2026-04-28T17:16:48.203Z</time></trkpt><trkpt lat="43.8695949" lon="11.2211834"><ele>371.0</ele><time>2026-04-28T17:16:52.209Z</time></trkpt><trkpt lat="43.8695257" lon="11.2211601"><ele>371.0</ele><time>2026-04-28T17:16:58.209Z</time></trkpt><trkpt lat="43.8694612" lon="11.2211718"><ele>371.0</ele><time>2026-04-28T17:17:04.17Z</time></trkpt><trkpt lat="43.8694072" lon="11.2211166"><ele>371.0</ele><time>2026-04-28T17:17:11.217Z</time></trkpt><trkpt lat="43.8693474" lon="11.2210634"><ele>371.0</ele><time>2026-04-28T17:17:17.212Z</time></trkpt><trkpt lat="43.8692846" lon="11.2210511"><ele>371.0</ele><time>2026-04-28T17:17:24.17Z</time></trkpt><trkpt lat="43.8692367" lon="11.2211221"><ele>371.0</ele><time>2026-04-28T17:17:30.202Z</time></trkpt><trkpt lat="43.8691744" lon="11.2211529"><ele>371.0</ele><time>2026-04-28T17:17:36.196Z</time></trkpt><trkpt lat="43.8691359" lon="11.221079"><ele>371.0</ele><time>2026-04-28T17:17:41.206Z</time></trkpt><trkpt lat="43.8691131" lon="11.2209761"><ele>371.0</ele><time>2026-04-28T17:17:47.102Z</time></trkpt><trkpt lat="43.8690649" lon="11.2209094"><ele>371.0</ele><time>2026-04-28T17:17:54.21Z</time></trkpt><trkpt lat="43.8690129" lon="11.2208573"><ele>370.85714285714283</ele><time>2026-04-28T17:17:59.2Z</time></trkpt><trkpt lat="43.8689795" lon="11.2207816"><ele>370.7142857142857</ele><time>2026-04-28T17:18:07.207Z</time></trkpt><trkpt lat="43.8689826" lon="11.2206779"><ele>370.57142857142856</ele><time>2026-04-28T17:18:15.214Z</time></trkpt><trkpt lat="43.8689475" lon="11.22059"><ele>370.42857142857144</ele><time>2026-04-28T17:18:22.215Z</time></trkpt><trkpt lat="43.8689421" lon="11.2204774"><ele>370.2857142857143</ele><time>2026-04-28T17:18:29.124Z</time></trkpt><trkpt lat="43.8688976" lon="11.2203959"><ele>370.1428571428571</ele><time>2026-04-28T17:18:34.205Z</time></trkpt><trkpt lat="43.868893" lon="11.2202997"><ele>370.0</ele><time>2026-04-28T17:18:40.209Z</time></trkpt><trkpt lat="43.8689341" lon="11.220229"><ele>367.85714285714283</ele><time>2026-04-28T17:18:50.202Z</time></trkpt><trkpt lat="43.8688917" lon="11.2201482"><ele>365.7142857142857</ele><time>2026-04-28T17:18:56.22Z</time></trkpt><trkpt lat="43.8688445" lon="11.2200783"><ele>363.57142857142856</ele><time>2026-04-28T17:19:02.209Z</time></trkpt><trkpt lat="43.8688111" lon="11.2199891"><ele>361.42857142857144</ele><time>2026-04-28T17:19:08.221Z</time></trkpt><trkpt lat="43.8687602" lon="11.2199267"><ele>359.2857142857143</ele><time>2026-04-28T17:19:17.221Z</time></trkpt><trkpt lat="43.8687072" lon="11.2199867"><ele>357.1428571428571</ele><time>2026-04-28T17:19:24.205Z</time></trkpt><trkpt lat="43.868634" lon="11.2199934"><ele>355.0</ele><time>2026-04-28T17:19:29.223Z</time></trkpt><trkpt lat="43.8686194" lon="11.2199076"><ele>353.85714285714283</ele><time>2026-04-28T17:19:35.23Z</time></trkpt><trkpt lat="43.8686181" lon="11.2198051"><ele>352.7142857142857</ele><time>2026-04-28T17:19:40.228Z</time></trkpt><trkpt lat="43.8685841" lon="11.2197169"><ele>351.57142857142856</ele><time>2026-04-28T17:19:46.231Z</time></trkpt><trkpt lat="43.8685198" lon="11.2196824"><ele>350.42857142857144</ele><time>2026-04-28T17:19:51.231Z</time></trkpt><trkpt lat="43.8684468" lon="11.2196664"><ele>349.2857142857143</ele><time>2026-04-28T17:19:57.235Z</time></trkpt><trkpt lat="43.8683826" lon="11.2195963"><ele>348.14285714285717</ele><time>2026-04-28T17:20:07.229Z</time></trkpt><trkpt lat="43.8683751" lon="11.2195054"><ele>347.0</ele><time>2026-04-28T17:20:13.22Z</time></trkpt><trkpt lat="43.8684278" lon="11.2194499"><ele>347.0</ele><time>2026-04-28T17:20:19.221Z</time></trkpt><trkpt lat="43.8684367" lon="11.2193428"><ele>347.0</ele><time>2026-04-28T17:20:23.218Z</time></trkpt><trkpt lat="43.8683786" lon="11.2193087"><ele>347.0</ele><time>2026-04-28T17:20:29.031Z</time></trkpt><trkpt lat="43.8683154" lon="11.2192832"><ele>347.0</ele><time>2026-04-28T17:20:33.222Z</time></trkpt><trkpt lat="43.8682548" lon="11.2192211"><ele>347.0</ele><time>2026-04-28T17:20:39.224Z</time></trkpt><trkpt lat="43.8681922" lon="11.219168"><ele>347.0</ele><time>2026-04-28T17:20:44.215Z</time></trkpt><trkpt lat="43.8681181" lon="11.2192022"><ele>347.0</ele><time>2026-04-28T17:20:50.18Z</time></trkpt><trkpt lat="43.8680771" lon="11.2192733"><ele>347.0</ele><time>2026-04-28T17:20:57.22Z</time></trkpt><trkpt lat="43.8680496" lon="11.2193584"><ele>347.0</ele><time>2026-04-28T17:21:05.166Z</time></trkpt><trkpt lat="43.8679972" lon="11.2194284"><ele>347.0</ele><time>2026-04-28T17:21:11.142Z</time></trkpt><trkpt lat="43.8680578" lon="11.2193941"><ele>347.0</ele><time>2026-04-28T17:21:21.216Z</time></trkpt><trkpt lat="43.8681173" lon="11.2193258"><ele>347.0</ele><time>2026-04-28T17:21:34.207Z</time></trkpt><trkpt lat="43.8681407" lon="11.2192308"><ele>347.0</ele><time>2026-04-28T17:21:39.208Z</time></trkpt><trkpt lat="43.8681469" lon="11.2191307"><ele>347.0</ele><time>2026-04-28T17:21:45.228Z</time></trkpt><trkpt lat="43.8681781" lon="11.2190477"><ele>347.0</ele><time>2026-04-28T17:21:52.211Z</time></trkpt><trkpt lat="43.8681373" lon="11.2191299"><ele>347.0</ele><time>2026-04-28T17:21:59.214Z</time></trkpt><trkpt lat="43.8682148" lon="11.2191281"><ele>347.0</ele><time>2026-04-28T17:22:02.219Z</time></trkpt><trkpt lat="43.8682332" lon="11.2190166"><ele>347.0</ele><time>2026-04-28T17:22:08.226Z</time></trkpt><trkpt lat="43.8682067" lon="11.2189239"><ele>347.0</ele><time>2026-04-28T17:22:11.213Z</time></trkpt><trkpt lat="43.8681888" lon="11.2188292"><ele>347.0</ele><time>2026-04-28T17:22:15.216Z</time></trkpt><trkpt lat="43.8682046" lon="11.218726"><ele>344.2857142857143</ele><time>2026-04-28T17:22:21.214Z</time></trkpt><trkpt lat="43.8682061" lon="11.2186325"><ele>341.57142857142856</ele><time>2026-04-28T17:22:27.166Z</time></trkpt><trkpt lat="43.8682439" lon="11.2185592"><ele>338.85714285714283</ele><time>2026-04-28T17:22:38.22Z</time></trkpt><trkpt lat="43.8682709" lon="11.2184747"><ele>336.1428571428571</ele><time>2026-04-28T17:22:44.163Z</time></trkpt><trkpt lat="43.8682585" lon="11.2183769"><ele>333.42857142857144</ele><time>2026-04-28T17:22:53.213Z</time></trkpt><trkpt lat="43.8682799" lon="11.2182882"><ele>330.71428571428567</ele><time>2026-04-28T17:23:02.169Z</time></trkpt><trkpt lat="43.8683356" lon="11.2182383"><ele>328.0</ele><time>2026-04-28T17:23:17.215Z</time></trkpt><trkpt lat="43.8683712" lon="11.2181625"><ele>326.2857142857143</ele><time>2026-04-28T17:23:23.217Z</time></trkpt><trkpt lat="43.8684212" lon="11.2180991"><ele>324.57142857142856</ele><time>2026-04-28T17:23:27.213Z</time></trkpt><trkpt lat="43.86848" lon="11.2180089"><ele>322.8571428571429</ele><time>2026-04-28T17:23:33.2Z</time></trkpt><trkpt lat="43.8685288" lon="11.217949"><ele>321.1428571428571</ele><time>2026-04-28T17:23:37.183Z</time></trkpt><trkpt lat="43.8685783" lon="11.2178909"><ele>319.42857142857144</ele><time>2026-04-28T17:23:42.208Z</time></trkpt><trkpt lat="43.8686302" lon="11.2178095"><ele>317.7142857142857</ele><time>2026-04-28T17:23:52.215Z</time></trkpt><trkpt lat="43.8686663" lon="11.2177185"><ele>316.0</ele><time>2026-04-28T17:24:04.21Z</time></trkpt><trkpt lat="43.8687025" lon="11.2176422"><ele>316.00000000000006</ele><time>2026-04-28T17:24:10.211Z</time></trkpt><trkpt lat="43.8687438" lon="11.2175749"><ele>316.0</ele><time>2026-04-28T17:24:14.208Z</time></trkpt><trkpt lat="43.8687991" lon="11.2175064"><ele>316.0</ele><time>2026-04-28T17:24:21.219Z</time></trkpt><trkpt lat="43.8688429" lon="11.2174391"><ele>316.0</ele><time>2026-04-28T17:24:29.215Z</time></trkpt><trkpt lat="43.8688096" lon="11.217364"><ele>316.0</ele><time>2026-04-28T17:26:34.212Z</time></trkpt><trkpt lat="43.8688142" lon="11.2172763"><ele>316.00000000000006</ele><time>2026-04-28T17:26:38.171Z</time></trkpt><trkpt lat="43.868814" lon="11.2171825"><ele>316.0</ele><time>2026-04-28T17:26:46.215Z</time></trkpt><trkpt lat="43.8687849" lon="11.217102"><ele>314.00000000000006</ele><time>2026-04-28T17:26:52.226Z</time></trkpt><trkpt lat="43.8687702" lon="11.2170137"><ele>312.0</ele><time>2026-04-28T17:26:59.221Z</time></trkpt><trkpt lat="43.8688112" lon="11.2169351"><ele>310.0</ele><time>2026-04-28T17:27:24.213Z</time></trkpt><trkpt lat="43.8688065" lon="11.2168392"><ele>308.0</ele><time>2026-04-28T17:27:31.205Z</time></trkpt><trkpt lat="43.8688225" lon="11.2167529"><ele>306.0</ele><time>2026-04-28T17:27:36.166Z</time></trkpt><trkpt lat="43.8688559" lon="11.2166779"><ele>304.00000000000006</ele><time>2026-04-28T17:27:41.081Z</time></trkpt><trkpt lat="43.8688563" lon="11.2165815"><ele>302.0</ele><time>2026-04-28T17:27:51.206Z</time></trkpt><trkpt lat="43.8688261" lon="11.2164943"><ele>299.7142857142857</ele><time>2026-04-28T17:27:59.212Z</time></trkpt><trkpt lat="43.8688095" lon="11.2163934"><ele>297.42857142857144</ele><time>2026-04-28T17:28:05.208Z</time></trkpt><trkpt lat="43.8687786" lon="11.2163039"><ele>295.1428571428571</ele><time>2026-04-28T17:28:18.208Z</time></trkpt><trkpt lat="43.8687364" lon="11.216237"><ele>292.8571428571429</ele><time>2026-04-28T17:28:23.218Z</time></trkpt><trkpt lat="43.86867" lon="11.2162114"><ele>290.57142857142856</ele><time>2026-04-28T17:28:27.213Z</time></trkpt><trkpt lat="43.8686037" lon="11.2161433"><ele>288.2857142857143</ele><time>2026-04-28T17:28:32.219Z</time></trkpt><trkpt lat="43.8685402" lon="11.2161071"><ele>286.0</ele><time>2026-04-28T17:28:36.217Z</time></trkpt><trkpt lat="43.868467" lon="11.2160905"><ele>286.57142857142856</ele><time>2026-04-28T17:28:41.21Z</time></trkpt><trkpt lat="43.8683974" lon="11.2160632"><ele>287.1428571428571</ele><time>2026-04-28T17:28:46.218Z</time></trkpt><trkpt lat="43.8683377" lon="11.2160136"><ele>287.7142857142857</ele><time>2026-04-28T17:28:51.108Z</time></trkpt><trkpt lat="43.8682774" lon="11.2159794"><ele>288.2857142857143</ele><time>2026-04-28T17:28:56.105Z</time></trkpt><trkpt lat="43.8682112" lon="11.2159781"><ele>288.8571428571429</ele><time>2026-04-28T17:29:04.162Z</time></trkpt><trkpt lat="43.8681513" lon="11.2159331"><ele>289.42857142857144</ele><time>2026-04-28T17:29:08.047Z</time></trkpt><trkpt lat="43.8680809" lon="11.2159029"><ele>290.0</ele><time>2026-04-28T17:29:12.206Z</time></trkpt><trkpt lat="43.8680249" lon="11.2158613"><ele>290.0</ele><time>2026-04-28T17:29:16.124Z</time></trkpt><trkpt lat="43.8679655" lon="11.2158232"><ele>290.0</ele><time>2026-04-28T17:29:21.213Z</time></trkpt><trkpt lat="43.8679248" lon="11.2157555"><ele>290.0</ele><time>2026-04-28T17:29:26.043Z</time></trkpt><trkpt lat="43.8678646" lon="11.2157061"><ele>290.0</ele><time>2026-04-28T17:29:28.927Z</time></trkpt><trkpt lat="43.8677989" lon="11.2156864"><ele>290.0</ele><time>2026-04-28T17:29:31.71Z</time></trkpt><trkpt lat="43.8677276" lon="11.2156752"><ele>290.0</ele><time>2026-04-28T17:29:35.216Z</time></trkpt><trkpt lat="43.8676541" lon="11.2156369"><ele>290.0</ele><time>2026-04-28T17:29:39.227Z</time></trkpt><trkpt lat="43.8676001" lon="11.2155868"><ele>289.57142857142856</ele><time>2026-04-28T17:29:45.231Z</time></trkpt><trkpt lat="43.8675415" lon="11.2155439"><ele>289.14285714285717</ele><time>2026-04-28T17:29:48.215Z</time></trkpt><trkpt lat="43.867472" lon="11.215538"><ele>288.7142857142857</ele><time>2026-04-28T17:29:52.13Z</time></trkpt><trkpt lat="43.8674002" lon="11.2155478"><ele>288.2857142857143</ele><time>2026-04-28T17:30:01.187Z</time></trkpt><trkpt lat="43.8673185" lon="11.2155415"><ele>287.8571428571429</ele><time>2026-04-28T17:30:07.145Z</time></trkpt><trkpt lat="43.8672617" lon="11.2154783"><ele>287.42857142857144</ele><time>2026-04-28T17:30:11.789Z</time></trkpt><trkpt lat="43.8672142" lon="11.2154086"><ele>287.0</ele><time>2026-04-28T17:30:14.681Z</time></trkpt><trkpt lat="43.8671427" lon="11.2153724"><ele>287.0</ele><time>2026-04-28T17:30:19.707Z</time></trkpt><trkpt lat="43.8670684" lon="11.2153576"><ele>287.0</ele><time>2026-04-28T17:30:24.216Z</time></trkpt><trkpt lat="43.8669918" lon="11.215337"><ele>287.0</ele><time>2026-04-28T17:30:29.211Z</time></trkpt><trkpt lat="43.8669089" lon="11.2153288"><ele>287.0</ele><time>2026-04-28T17:30:34.21Z</time></trkpt><trkpt lat="43.866821" lon="11.2153426"><ele>287.0</ele><time>2026-04-28T17:30:37.204Z</time></trkpt><trkpt lat="43.8667513" lon="11.2153202"><ele>287.0</ele><time>2026-04-28T17:30:40.207Z</time></trkpt><trkpt lat="43.8666772" lon="11.2153093"><ele>287.0</ele><time>2026-04-28T17:30:44.07Z</time></trkpt><trkpt lat="43.8666034" lon="11.2152989"><ele>287.0</ele><time>2026-04-28T17:30:48.845Z</time></trkpt><trkpt lat="43.8665371" lon="11.2152898"><ele>287.0</ele><time>2026-04-28T17:30:53.61Z</time></trkpt><trkpt lat="43.8664716" lon="11.2152951"><ele>287.0</ele><time>2026-04-28T17:30:58.485Z</time></trkpt><trkpt lat="43.8663977" lon="11.2153245"><ele>287.0</ele><time>2026-04-28T17:31:03.209Z</time></trkpt><trkpt lat="43.8663344" lon="11.215373"><ele>287.0</ele><time>2026-04-28T17:31:08.207Z</time></trkpt><trkpt lat="43.8662743" lon="11.2154259"><ele>287.0</ele><time>2026-04-28T17:31:11.968Z</time></trkpt><trkpt lat="43.8662081" lon="11.2154734"><ele>287.0</ele><time>2026-04-28T17:31:16.822Z</time></trkpt><trkpt lat="43.866148" lon="11.2155227"><ele>287.0</ele><time>2026-04-28T17:31:22.212Z</time></trkpt><trkpt lat="43.8660885" lon="11.2155786"><ele>287.0</ele><time>2026-04-28T17:31:27.209Z</time></trkpt><trkpt lat="43.8660215" lon="11.215626"><ele>287.0</ele><time>2026-04-28T17:31:32.167Z</time></trkpt><trkpt lat="43.8659626" lon="11.2156587"><ele>287.0</ele><time>2026-04-28T17:31:36.002Z</time></trkpt><trkpt lat="43.8658947" lon="11.215699"><ele>287.0</ele><time>2026-04-28T17:31:40.746Z</time></trkpt><trkpt lat="43.8658322" lon="11.2157446"><ele>287.0</ele><time>2026-04-28T17:31:45.511Z</time></trkpt><trkpt lat="43.8657701" lon="11.2157851"><ele>288.7142857142857</ele><time>2026-04-28T17:31:50.251Z</time></trkpt><trkpt lat="43.8657021" lon="11.215787"><ele>290.42857142857144</ele><time>2026-04-28T17:31:54.129Z</time></trkpt><trkpt lat="43.8656335" lon="11.2157886"><ele>292.1428571428571</ele><time>2026-04-28T17:31:57.843Z</time></trkpt><trkpt lat="43.8655668" lon="11.21577"><ele>293.8571428571429</ele><time>2026-04-28T17:32:02.627Z</time></trkpt><trkpt lat="43.8655038" lon="11.2157421"><ele>295.57142857142856</ele><time>2026-04-28T17:32:07.215Z</time></trkpt><trkpt lat="43.8654368" lon="11.2157812"><ele>297.2857142857143</ele><time>2026-04-28T17:32:12.067Z</time></trkpt><trkpt lat="43.8653918" lon="11.2158697"><ele>299.0</ele><time>2026-04-28T17:32:16.201Z</time></trkpt><trkpt lat="43.8653397" lon="11.2159478"><ele>299.0</ele><time>2026-04-28T17:32:21.199Z</time></trkpt><trkpt lat="43.8652767" lon="11.2160119"><ele>299.0</ele><time>2026-04-28T17:32:26.203Z</time></trkpt><trkpt lat="43.8652213" lon="11.2160629"><ele>299.0</ele><time>2026-04-28T17:32:31.085Z</time></trkpt><trkpt lat="43.8651695" lon="11.2161276"><ele>299.0</ele><time>2026-04-28T17:32:34.929Z</time></trkpt><trkpt lat="43.8651226" lon="11.2161873"><ele>299.0</ele><time>2026-04-28T17:32:41.705Z</time></trkpt><trkpt lat="43.8650853" lon="11.2162608"><ele>299.0</ele><time>2026-04-28T17:32:44.568Z</time></trkpt><trkpt lat="43.8650492" lon="11.2163401"><ele>299.0</ele><time>2026-04-28T17:32:48.602Z</time></trkpt><trkpt lat="43.8649993" lon="11.2163994"><ele>299.42857142857144</ele><time>2026-04-28T17:32:53.427Z</time></trkpt><trkpt lat="43.8649512" lon="11.216462"><ele>299.8571428571429</ele><time>2026-04-28T17:32:57.214Z</time></trkpt><trkpt lat="43.8648906" lon="11.2165146"><ele>300.28571428571433</ele><time>2026-04-28T17:33:01.211Z</time></trkpt><trkpt lat="43.8648388" lon="11.2165709"><ele>300.7142857142857</ele><time>2026-04-28T17:33:05.128Z</time></trkpt><trkpt lat="43.8647718" lon="11.2166292"><ele>301.14285714285717</ele><time>2026-04-28T17:33:10.211Z</time></trkpt><trkpt lat="43.8647169" lon="11.2166878"><ele>301.5714285714286</ele><time>2026-04-28T17:33:14.22Z</time></trkpt><trkpt lat="43.8646638" lon="11.216751"><ele>302.0</ele><time>2026-04-28T17:33:18.042Z</time></trkpt><trkpt lat="43.8646184" lon="11.216822"><ele>302.42857142857144</ele><time>2026-04-28T17:33:23.228Z</time></trkpt><trkpt lat="43.8645887" lon="11.2169007"><ele>302.8571428571429</ele><time>2026-04-28T17:33:28.21Z</time></trkpt><trkpt lat="43.8645485" lon="11.2169853"><ele>303.28571428571433</ele><time>2026-04-28T17:33:35.212Z</time></trkpt><trkpt lat="43.8645262" lon="11.2170697"><ele>303.7142857142857</ele><time>2026-04-28T17:33:39.206Z</time></trkpt><trkpt lat="43.8644896" lon="11.2171413"><ele>304.1428571428571</ele><time>2026-04-28T17:33:44.205Z</time></trkpt><trkpt lat="43.8644534" lon="11.2172277"><ele>304.5714285714286</ele><time>2026-04-28T17:33:50.198Z</time></trkpt><trkpt lat="43.8644162" lon="11.2173172"><ele>305.0</ele><time>2026-04-28T17:33:55.215Z</time></trkpt><trkpt lat="43.8643603" lon="11.2173753"><ele>306.0</ele><time>2026-04-28T17:33:59.205Z</time></trkpt><trkpt lat="43.8643499" lon="11.2174819"><ele>307.0</ele><time>2026-04-28T17:34:04.212Z</time></trkpt><trkpt lat="43.8643334" lon="11.2175864"><ele>308.0</ele><time>2026-04-28T17:34:09.231Z</time></trkpt><trkpt lat="43.8643223" lon="11.2176838"><ele>309.0</ele><time>2026-04-28T17:34:14.186Z</time></trkpt><trkpt lat="43.8643066" lon="11.2177738"><ele>310.0</ele><time>2026-04-28T17:34:19.09Z</time></trkpt><trkpt lat="43.8642912" lon="11.2178637"><ele>311.0</ele><time>2026-04-28T17:34:24.045Z</time></trkpt><trkpt lat="43.8642801" lon="11.2179641"><ele>312.0</ele><time>2026-04-28T17:34:30.04Z</time></trkpt><trkpt lat="43.864267" lon="11.2180627"><ele>312.0</ele><time>2026-04-28T17:34:36.208Z</time></trkpt><trkpt lat="43.8642045" lon="11.2181206"><ele>312.0</ele><time>2026-04-28T17:34:41.218Z</time></trkpt><trkpt lat="43.8641391" lon="11.2181857"><ele>312.0</ele><time>2026-04-28T17:34:45.216Z</time></trkpt><trkpt lat="43.8640815" lon="11.2182444"><ele>312.0</ele><time>2026-04-28T17:34:49.21Z</time></trkpt><trkpt lat="43.8640182" lon="11.2183091"><ele>312.0</ele><time>2026-04-28T17:34:54.064Z</time></trkpt><trkpt lat="43.86395" lon="11.2183483"><ele>312.0</ele><time>2026-04-28T17:34:58.21Z</time></trkpt><trkpt lat="43.8638807" lon="11.2183722"><ele>313.14285714285717</ele><time>2026-04-28T17:35:02.219Z</time></trkpt><trkpt lat="43.8638236" lon="11.2184128"><ele>314.2857142857143</ele><time>2026-04-28T17:35:07.186Z</time></trkpt><trkpt lat="43.8637666" lon="11.2184589"><ele>315.42857142857144</ele><time>2026-04-28T17:35:11.22Z</time></trkpt><trkpt lat="43.8636925" lon="11.2185261"><ele>316.57142857142856</ele><time>2026-04-28T17:35:16.216Z</time></trkpt><trkpt lat="43.8636328" lon="11.2185638"><ele>317.7142857142857</ele><time>2026-04-28T17:35:20.15Z</time></trkpt><trkpt lat="43.8635605" lon="11.2185644"><ele>318.85714285714283</ele><time>2026-04-28T17:35:24.215Z</time></trkpt><trkpt lat="43.8634996" lon="11.2185382"><ele>320.0</ele><time>2026-04-28T17:35:28.211Z</time></trkpt><trkpt lat="43.8634363" lon="11.2184992"><ele>320.0</ele><time>2026-04-28T17:35:32.208Z</time></trkpt><trkpt lat="43.8633646" lon="11.2184645"><ele>320.0</ele><time>2026-04-28T17:35:36.198Z</time></trkpt><trkpt lat="43.8633025" lon="11.2184301"><ele>320.0</ele><time>2026-04-28T17:35:40.213Z</time></trkpt><trkpt lat="43.8632194" lon="11.2184166"><ele>320.0</ele><time>2026-04-28T17:35:45.084Z</time></trkpt><trkpt lat="43.8631573" lon="11.2183768"><ele>320.0</ele><time>2026-04-28T17:35:49.214Z</time></trkpt><trkpt lat="43.8630919" lon="11.2183522"><ele>320.0</ele><time>2026-04-28T17:35:54.142Z</time></trkpt><trkpt lat="43.8630296" lon="11.2183154"><ele>320.0</ele><time>2026-04-28T17:35:59.768Z</time></trkpt><trkpt lat="43.8629685" lon="11.2182606"><ele>320.0</ele><time>2026-04-28T17:36:04.22Z</time></trkpt><trkpt lat="43.862894" lon="11.2182182"><ele>320.0</ele><time>2026-04-28T17:36:09.211Z</time></trkpt><trkpt lat="43.8628272" lon="11.2182088"><ele>320.0</ele><time>2026-04-28T17:36:14.211Z</time></trkpt><trkpt lat="43.8627604" lon="11.2181863"><ele>320.0</ele><time>2026-04-28T17:36:19.167Z</time></trkpt><trkpt lat="43.8626962" lon="11.2181635"><ele>320.0</ele><time>2026-04-28T17:36:21.97Z</time></trkpt><trkpt lat="43.8626255" lon="11.2181324"><ele>320.0</ele><time>2026-04-28T17:36:26.216Z</time></trkpt><trkpt lat="43.8625629" lon="11.2181087"><ele>320.0</ele><time>2026-04-28T17:36:30.212Z</time></trkpt><trkpt lat="43.8624958" lon="11.2180963"><ele>319.7142857142857</ele><time>2026-04-28T17:36:34.209Z</time></trkpt><trkpt lat="43.8624171" lon="11.2180792"><ele>319.42857142857144</ele><time>2026-04-28T17:36:38.207Z</time></trkpt><trkpt lat="43.8623457" lon="11.2180456"><ele>319.1428571428571</ele><time>2026-04-28T17:36:43.209Z</time></trkpt><trkpt lat="43.8622872" lon="11.2180037"><ele>318.8571428571429</ele><time>2026-04-28T17:36:48.209Z</time></trkpt><trkpt lat="43.8622198" lon="11.2179622"><ele>318.5714285714286</ele><time>2026-04-28T17:36:53.207Z</time></trkpt><trkpt lat="43.8621653" lon="11.2179145"><ele>318.2857142857143</ele><time>2026-04-28T17:36:58.213Z</time></trkpt><trkpt lat="43.8621033" lon="11.2178622"><ele>318.0</ele><time>2026-04-28T17:37:03.209Z</time></trkpt><trkpt lat="43.8620418" lon="11.2178303"><ele>318.0</ele><time>2026-04-28T17:37:07.143Z</time></trkpt><trkpt lat="43.8619853" lon="11.2177822"><ele>318.0</ele><time>2026-04-28T17:37:11.225Z</time></trkpt><trkpt lat="43.8619296" lon="11.2177152"><ele>318.0</ele><time>2026-04-28T17:37:16.143Z</time></trkpt><trkpt lat="43.8618665" lon="11.2176947"><ele>318.0</ele><time>2026-04-28T17:37:21.206Z</time></trkpt><trkpt lat="43.8618097" lon="11.2176382"><ele>318.0</ele><time>2026-04-28T17:37:25.162Z</time></trkpt><trkpt lat="43.8617553" lon="11.2175929"><ele>318.0</ele><time>2026-04-28T17:37:30.223Z</time></trkpt><trkpt lat="43.8616937" lon="11.2175262"><ele>318.0</ele><time>2026-04-28T17:37:34.051Z</time></trkpt><trkpt lat="43.8616278" lon="11.2174932"><ele>319.2857142857143</ele><time>2026-04-28T17:37:38.216Z</time></trkpt><trkpt lat="43.8615749" lon="11.2174451"><ele>320.5714285714286</ele><time>2026-04-28T17:37:42.048Z</time></trkpt><trkpt lat="43.8615158" lon="11.2174006"><ele>321.8571428571429</ele><time>2026-04-28T17:37:47.208Z</time></trkpt><trkpt lat="43.861447" lon="11.2173593"><ele>323.1428571428571</ele><time>2026-04-28T17:37:52.149Z</time></trkpt><trkpt lat="43.8613756" lon="11.217347"><ele>324.42857142857144</ele><time>2026-04-28T17:37:57.206Z</time></trkpt><trkpt lat="43.8613032" lon="11.2173721"><ele>325.7142857142857</ele><time>2026-04-28T17:38:02.198Z</time></trkpt><trkpt lat="43.8612369" lon="11.2174336"><ele>327.0</ele><time>2026-04-28T17:38:07.002Z</time></trkpt><trkpt lat="43.8612103" lon="11.2175248"><ele>327.0</ele><time>2026-04-28T17:38:12.766Z</time></trkpt><trkpt lat="43.8612124" lon="11.2176304"><ele>327.0</ele><time>2026-04-28T17:38:19.002Z</time></trkpt><trkpt lat="43.8612706" lon="11.2177139"><ele>327.0</ele><time>2026-04-28T17:38:22.867Z</time></trkpt><trkpt lat="43.8612758" lon="11.2178011"><ele>327.0</ele><time>2026-04-28T17:38:27.198Z</time></trkpt><trkpt lat="43.8612478" lon="11.2178846"><ele>327.0</ele><time>2026-04-28T17:38:34.202Z</time></trkpt><trkpt lat="43.8612511" lon="11.2179724"><ele>327.0</ele><time>2026-04-28T17:38:38.023Z</time></trkpt><trkpt lat="43.861276" lon="11.2180838"><ele>327.0</ele><time>2026-04-28T17:38:42.2Z</time></trkpt><trkpt lat="43.8612802" lon="11.2181744"><ele>331.0</ele><time>2026-04-28T17:38:47.203Z</time></trkpt><trkpt lat="43.8612237" lon="11.2182281"><ele>331.0</ele><time>2026-04-28T17:38:57.203Z</time></trkpt><trkpt lat="43.8611607" lon="11.2182502"><ele>331.0</ele><time>2026-04-28T17:39:05.207Z</time></trkpt><trkpt lat="43.8610963" lon="11.2182295"><ele>331.0</ele><time>2026-04-28T17:39:21.202Z</time></trkpt></trkseg></trk></gpx>